<?xml version="1.0" encoding="UTF-8" standalone="no" ?>
<gpx xmlns="http://www.topografix.com/GPX/1/1" xmlns:xsi="http://www.w3.org/2001/XMLSchema-instance" xsi:schemaLocation="http://www.topografix.com/GPX/1/1 http://www.topografix.com/GPX/1/1/gpx.xsd" version="1.1" creator="VisuGPX - https://www.visugpx.com">
  <metadata>
    <name>27/03/2017 Autour de Ciney (Bel)</name>
    <desc><![CDATA[Itinéraire de détente en vélo électrique (VTC). ]]></desc>
  </metadata>
  <trk>
    <name><![CDATA[Tracé 27 mars 2017 15:35:50]]></name>
    <trkseg>
      <trkpt lat="50.29738" lon="5.10326">
        <ele>294.66063140756</ele>
        <time>2017-03-27T13:35:50Z</time>
      </trkpt>
      <trkpt lat="50.29738" lon="5.10326">
        <ele>294.66063140756</ele>
        <time>2017-03-27T13:39:37Z</time>
      </trkpt>
      <trkpt lat="50.29712" lon="5.10272">
        <ele>297.37507168214</ele>
        <time>2017-03-27T13:39:42Z</time>
      </trkpt>
      <trkpt lat="50.29702" lon="5.1028">
        <ele>292.41253941473</ele>
        <time>2017-03-27T13:39:44Z</time>
      </trkpt>
      <trkpt lat="50.2968" lon="5.10309">
        <ele>310.72701463674</ele>
        <time>2017-03-27T13:39:50Z</time>
      </trkpt>
      <trkpt lat="50.29675" lon="5.10307">
        <ele>319.09961158119</ele>
        <time>2017-03-27T13:39:51Z</time>
      </trkpt>
      <trkpt lat="50.29535" lon="5.10513">
        <ele>321.85643064487</ele>
        <time>2017-03-27T13:40:22Z</time>
      </trkpt>
      <trkpt lat="50.29477" lon="5.10544">
        <ele>313.75721939523</ele>
        <time>2017-03-27T13:40:26Z</time>
      </trkpt>
      <trkpt lat="50.29452" lon="5.10584">
        <ele>273.89665410973</ele>
        <time>2017-03-27T13:40:31Z</time>
      </trkpt>
      <trkpt lat="50.29441" lon="5.10603">
        <ele>283.02446691085</ele>
        <time>2017-03-27T13:40:35Z</time>
      </trkpt>
      <trkpt lat="50.2942" lon="5.1063">
        <ele>284.2829891258</ele>
        <time>2017-03-27T13:40:41Z</time>
      </trkpt>
      <trkpt lat="50.29409" lon="5.10644">
        <ele>294.4838647176</ele>
        <time>2017-03-27T13:40:44Z</time>
      </trkpt>
      <trkpt lat="50.29391" lon="5.10658">
        <ele>303.69660764235</ele>
        <time>2017-03-27T13:40:49Z</time>
      </trkpt>
      <trkpt lat="50.29382" lon="5.1064">
        <ele>308.15772947948</ele>
        <time>2017-03-27T13:40:53Z</time>
      </trkpt>
      <trkpt lat="50.29356" lon="5.10693">
        <ele>302.06180280983</ele>
        <time>2017-03-27T13:40:58Z</time>
      </trkpt>
      <trkpt lat="50.29333" lon="5.10723">
        <ele>289.72265926204</ele>
        <time>2017-03-27T13:41:02Z</time>
      </trkpt>
      <trkpt lat="50.29297" lon="5.10756">
        <ele>275.29383821944</ele>
        <time>2017-03-27T13:41:07Z</time>
      </trkpt>
      <trkpt lat="50.29263" lon="5.10772">
        <ele>265.03864180917</ele>
        <time>2017-03-27T13:41:11Z</time>
      </trkpt>
      <trkpt lat="50.29227" lon="5.1078">
        <ele>258.08045010769</ele>
        <time>2017-03-27T13:41:15Z</time>
      </trkpt>
      <trkpt lat="50.29187" lon="5.10802">
        <ele>247.11199384722</ele>
        <time>2017-03-27T13:41:20Z</time>
      </trkpt>
      <trkpt lat="50.29157" lon="5.10812">
        <ele>241.14149654212</ele>
        <time>2017-03-27T13:41:24Z</time>
      </trkpt>
      <trkpt lat="50.29122" lon="5.10822">
        <ele>235.36037055657</ele>
        <time>2017-03-27T13:41:29Z</time>
      </trkpt>
      <trkpt lat="50.29098" lon="5.10833">
        <ele>227.28011709918</ele>
        <time>2017-03-27T13:41:33Z</time>
      </trkpt>
      <trkpt lat="50.29067" lon="5.10848">
        <ele>227.31582375897</ele>
        <time>2017-03-27T13:41:38Z</time>
      </trkpt>
      <trkpt lat="50.2904" lon="5.10863">
        <ele>224.98990160416</ele>
        <time>2017-03-27T13:41:43Z</time>
      </trkpt>
      <trkpt lat="50.29019" lon="5.10873">
        <ele>227.84532060773</ele>
        <time>2017-03-27T13:41:47Z</time>
      </trkpt>
      <trkpt lat="50.29001" lon="5.10882">
        <ele>226.46332601075</ele>
        <time>2017-03-27T13:41:51Z</time>
      </trkpt>
      <trkpt lat="50.28978" lon="5.10898">
        <ele>227.42080790146</ele>
        <time>2017-03-27T13:41:56Z</time>
      </trkpt>
      <trkpt lat="50.28955" lon="5.10916">
        <ele>232.25136704512</ele>
        <time>2017-03-27T13:42:01Z</time>
      </trkpt>
      <trkpt lat="50.28941" lon="5.1093">
        <ele>234.46788045863</ele>
        <time>2017-03-27T13:42:05Z</time>
      </trkpt>
      <trkpt lat="50.28934" lon="5.10953">
        <ele>236.6169776698</ele>
        <time>2017-03-27T13:42:10Z</time>
      </trkpt>
      <trkpt lat="50.28928" lon="5.10962">
        <ele>239.91717193457</ele>
        <time>2017-03-27T13:42:14Z</time>
      </trkpt>
      <trkpt lat="50.28921" lon="5.10974">
        <ele>245.35423293987</ele>
        <time>2017-03-27T13:42:19Z</time>
      </trkpt>
      <trkpt lat="50.28907" lon="5.10987">
        <ele>249.73110031755</ele>
        <time>2017-03-27T13:42:23Z</time>
      </trkpt>
      <trkpt lat="50.28894" lon="5.11001">
        <ele>253.63531962865</ele>
        <time>2017-03-27T13:42:27Z</time>
      </trkpt>
      <trkpt lat="50.2888" lon="5.11016">
        <ele>257.95821971034</ele>
        <time>2017-03-27T13:42:31Z</time>
      </trkpt>
      <trkpt lat="50.28866" lon="5.11034">
        <ele>286.60915451533</ele>
        <time>2017-03-27T13:42:35Z</time>
      </trkpt>
      <trkpt lat="50.28851" lon="5.11058">
        <ele>302.06424301011</ele>
        <time>2017-03-27T13:42:39Z</time>
      </trkpt>
      <trkpt lat="50.28826" lon="5.11079">
        <ele>312.37616972218</ele>
        <time>2017-03-27T13:42:43Z</time>
      </trkpt>
      <trkpt lat="50.28787" lon="5.11107">
        <ele>321.74313693542</ele>
        <time>2017-03-27T13:42:48Z</time>
      </trkpt>
      <trkpt lat="50.28747" lon="5.11129">
        <ele>326.44731574254</ele>
        <time>2017-03-27T13:42:52Z</time>
      </trkpt>
      <trkpt lat="50.28697" lon="5.11145">
        <ele>327.14711226384</ele>
        <time>2017-03-27T13:42:56Z</time>
      </trkpt>
      <trkpt lat="50.2864" lon="5.11154">
        <ele>317.25810588934</ele>
        <time>2017-03-27T13:43:01Z</time>
      </trkpt>
      <trkpt lat="50.28601" lon="5.11154">
        <ele>303.74593277841</ele>
        <time>2017-03-27T13:43:05Z</time>
      </trkpt>
      <trkpt lat="50.28556" lon="5.1116">
        <ele>284.61140499399</ele>
        <time>2017-03-27T13:43:10Z</time>
      </trkpt>
      <trkpt lat="50.28526" lon="5.1118">
        <ele>276.9979535164</ele>
        <time>2017-03-27T13:43:14Z</time>
      </trkpt>
      <trkpt lat="50.28496" lon="5.112">
        <ele>269.69180070992</ele>
        <time>2017-03-27T13:43:18Z</time>
      </trkpt>
      <trkpt lat="50.28461" lon="5.11212">
        <ele>264.36571715551</ele>
        <time>2017-03-27T13:43:22Z</time>
      </trkpt>
      <trkpt lat="50.28438" lon="5.11226">
        <ele>262.96586586717</ele>
        <time>2017-03-27T13:43:26Z</time>
      </trkpt>
      <trkpt lat="50.28418" lon="5.11239">
        <ele>282.79958804372</ele>
        <time>2017-03-27T13:43:31Z</time>
      </trkpt>
      <trkpt lat="50.28398" lon="5.11243">
        <ele>297.97081319818</ele>
        <time>2017-03-27T13:43:35Z</time>
      </trkpt>
      <trkpt lat="50.28364" lon="5.11233">
        <ele>295.63463308342</ele>
        <time>2017-03-27T13:43:40Z</time>
      </trkpt>
      <trkpt lat="50.28331" lon="5.11225">
        <ele>286.76716164526</ele>
        <time>2017-03-27T13:43:44Z</time>
      </trkpt>
      <trkpt lat="50.28289" lon="5.11237">
        <ele>278.60048900864</ele>
        <time>2017-03-27T13:43:48Z</time>
      </trkpt>
      <trkpt lat="50.2824" lon="5.11239">
        <ele>272.05038671322</ele>
        <time>2017-03-27T13:43:52Z</time>
      </trkpt>
      <trkpt lat="50.28194" lon="5.1122">
        <ele>263.98823764283</ele>
        <time>2017-03-27T13:43:57Z</time>
      </trkpt>
      <trkpt lat="50.28162" lon="5.11202">
        <ele>259.27407384131</ele>
        <time>2017-03-27T13:44:01Z</time>
      </trkpt>
      <trkpt lat="50.28131" lon="5.11189">
        <ele>257.19247279167</ele>
        <time>2017-03-27T13:44:05Z</time>
      </trkpt>
      <trkpt lat="50.28095" lon="5.11179">
        <ele>257.01949059835</ele>
        <time>2017-03-27T13:44:10Z</time>
      </trkpt>
      <trkpt lat="50.28065" lon="5.11172">
        <ele>260.52066291007</ele>
        <time>2017-03-27T13:44:14Z</time>
      </trkpt>
      <trkpt lat="50.28033" lon="5.11165">
        <ele>270.84757313316</ele>
        <time>2017-03-27T13:44:19Z</time>
      </trkpt>
      <trkpt lat="50.28012" lon="5.11159">
        <ele>277.36000590643</ele>
        <time>2017-03-27T13:44:23Z</time>
      </trkpt>
      <trkpt lat="50.2799" lon="5.11153">
        <ele>281.59342593676</ele>
        <time>2017-03-27T13:44:27Z</time>
      </trkpt>
      <trkpt lat="50.27961" lon="5.11145">
        <ele>283.01912126172</ele>
        <time>2017-03-27T13:44:32Z</time>
      </trkpt>
      <trkpt lat="50.27937" lon="5.1114">
        <ele>282.89322102369</ele>
        <time>2017-03-27T13:44:36Z</time>
      </trkpt>
      <trkpt lat="50.27907" lon="5.11139">
        <ele>280.88039378604</ele>
        <time>2017-03-27T13:44:41Z</time>
      </trkpt>
      <trkpt lat="50.27881" lon="5.11139">
        <ele>280.28982180786</ele>
        <time>2017-03-27T13:44:45Z</time>
      </trkpt>
      <trkpt lat="50.27855" lon="5.1114">
        <ele>279.4895114981</ele>
        <time>2017-03-27T13:44:49Z</time>
      </trkpt>
      <trkpt lat="50.2783" lon="5.11141">
        <ele>276.19865117917</ele>
        <time>2017-03-27T13:44:53Z</time>
      </trkpt>
      <trkpt lat="50.27805" lon="5.11142">
        <ele>273.10867862571</ele>
        <time>2017-03-27T13:44:57Z</time>
      </trkpt>
      <trkpt lat="50.27782" lon="5.11143">
        <ele>268.04381360934</ele>
        <time>2017-03-27T13:45:01Z</time>
      </trkpt>
      <trkpt lat="50.27757" lon="5.11144">
        <ele>263.2009364687</ele>
        <time>2017-03-27T13:45:05Z</time>
      </trkpt>
      <trkpt lat="50.27727" lon="5.11144">
        <ele>258.1228231053</ele>
        <time>2017-03-27T13:45:10Z</time>
      </trkpt>
      <trkpt lat="50.27701" lon="5.11145">
        <ele>256.43474933419</ele>
        <time>2017-03-27T13:45:15Z</time>
      </trkpt>
      <trkpt lat="50.27677" lon="5.11144">
        <ele>262.09980467161</ele>
        <time>2017-03-27T13:45:20Z</time>
      </trkpt>
      <trkpt lat="50.27658" lon="5.11144">
        <ele>267.82177551843</ele>
        <time>2017-03-27T13:45:24Z</time>
      </trkpt>
      <trkpt lat="50.2763" lon="5.11142">
        <ele>273.15991192048</ele>
        <time>2017-03-27T13:45:29Z</time>
      </trkpt>
      <trkpt lat="50.27607" lon="5.11141">
        <ele>277.84942714029</ele>
        <time>2017-03-27T13:45:33Z</time>
      </trkpt>
      <trkpt lat="50.27587" lon="5.1114">
        <ele>282.51240544665</ele>
        <time>2017-03-27T13:45:37Z</time>
      </trkpt>
      <trkpt lat="50.27562" lon="5.11138">
        <ele>288.6765392064</ele>
        <time>2017-03-27T13:45:42Z</time>
      </trkpt>
      <trkpt lat="50.2754" lon="5.11136">
        <ele>293.02099148259</ele>
        <time>2017-03-27T13:45:46Z</time>
      </trkpt>
      <trkpt lat="50.27517" lon="5.11135">
        <ele>294.64801546907</ele>
        <time>2017-03-27T13:45:50Z</time>
      </trkpt>
      <trkpt lat="50.27497" lon="5.11137">
        <ele>295.28026436015</ele>
        <time>2017-03-27T13:45:54Z</time>
      </trkpt>
      <trkpt lat="50.27467" lon="5.11144">
        <ele>289.81687801221</ele>
        <time>2017-03-27T13:45:59Z</time>
      </trkpt>
      <trkpt lat="50.27434" lon="5.11147">
        <ele>288.00777435211</ele>
        <time>2017-03-27T13:46:04Z</time>
      </trkpt>
      <trkpt lat="50.27408" lon="5.1115">
        <ele>285.53250812699</ele>
        <time>2017-03-27T13:46:08Z</time>
      </trkpt>
      <trkpt lat="50.27388" lon="5.11152">
        <ele>286.90252704404</ele>
        <time>2017-03-27T13:46:12Z</time>
      </trkpt>
      <trkpt lat="50.27366" lon="5.11131">
        <ele>291.15532766919</ele>
        <time>2017-03-27T13:46:17Z</time>
      </trkpt>
      <trkpt lat="50.27344" lon="5.11087">
        <ele>291.91628913677</ele>
        <time>2017-03-27T13:46:22Z</time>
      </trkpt>
      <trkpt lat="50.27311" lon="5.11045">
        <ele>292.08642819021</ele>
        <time>2017-03-27T13:46:27Z</time>
      </trkpt>
      <trkpt lat="50.27269" lon="5.10996">
        <ele>292.10013372587</ele>
        <time>2017-03-27T13:46:32Z</time>
      </trkpt>
      <trkpt lat="50.27221" lon="5.10953">
        <ele>289.18791640038</ele>
        <time>2017-03-27T13:46:36Z</time>
      </trkpt>
      <trkpt lat="50.27178" lon="5.10922">
        <ele>286.59793083164</ele>
        <time>2017-03-27T13:46:40Z</time>
      </trkpt>
      <trkpt lat="50.27138" lon="5.10891">
        <ele>288.16594191269</ele>
        <time>2017-03-27T13:46:44Z</time>
      </trkpt>
      <trkpt lat="50.27102" lon="5.10881">
        <ele>290.21696731529</ele>
        <time>2017-03-27T13:46:48Z</time>
      </trkpt>
      <trkpt lat="50.27065" lon="5.10896">
        <ele>283.69494141957</ele>
        <time>2017-03-27T13:46:52Z</time>
      </trkpt>
      <trkpt lat="50.27031" lon="5.1093">
        <ele>279.71755172006</ele>
        <time>2017-03-27T13:46:57Z</time>
      </trkpt>
      <trkpt lat="50.27009" lon="5.10957">
        <ele>279.14943523111</ele>
        <time>2017-03-27T13:47:01Z</time>
      </trkpt>
      <trkpt lat="50.26987" lon="5.10981">
        <ele>278.24501720766</ele>
        <time>2017-03-27T13:47:05Z</time>
      </trkpt>
      <trkpt lat="50.26965" lon="5.11001">
        <ele>277.62668903612</ele>
        <time>2017-03-27T13:47:09Z</time>
      </trkpt>
      <trkpt lat="50.26942" lon="5.11019">
        <ele>275.28151119423</ele>
        <time>2017-03-27T13:47:13Z</time>
      </trkpt>
      <trkpt lat="50.2692" lon="5.11028">
        <ele>274.45358879459</ele>
        <time>2017-03-27T13:47:17Z</time>
      </trkpt>
      <trkpt lat="50.26901" lon="5.11023">
        <ele>273.92000562034</ele>
        <time>2017-03-27T13:47:22Z</time>
      </trkpt>
      <trkpt lat="50.26893" lon="5.10988">
        <ele>266.19366592747</ele>
        <time>2017-03-27T13:47:26Z</time>
      </trkpt>
      <trkpt lat="50.26879" lon="5.10936">
        <ele>256.19781348943</ele>
        <time>2017-03-27T13:47:31Z</time>
      </trkpt>
      <trkpt lat="50.26875" lon="5.10914">
        <ele>254.10378668793</ele>
        <time>2017-03-27T13:47:35Z</time>
      </trkpt>
      <trkpt lat="50.2687" lon="5.10892">
        <ele>254.06389234568</ele>
        <time>2017-03-27T13:47:39Z</time>
      </trkpt>
      <trkpt lat="50.26868" lon="5.1086">
        <ele>253.99361671597</ele>
        <time>2017-03-27T13:47:43Z</time>
      </trkpt>
      <trkpt lat="50.2687" lon="5.10837">
        <ele>251.51253875108</ele>
        <time>2017-03-27T13:47:47Z</time>
      </trkpt>
      <trkpt lat="50.26872" lon="5.10801">
        <ele>247.46680184105</ele>
        <time>2017-03-27T13:47:52Z</time>
      </trkpt>
      <trkpt lat="50.26868" lon="5.10772">
        <ele>246.78029197337</ele>
        <time>2017-03-27T13:47:56Z</time>
      </trkpt>
      <trkpt lat="50.26858" lon="5.10742">
        <ele>247.04420976071</ele>
        <time>2017-03-27T13:48:00Z</time>
      </trkpt>
      <trkpt lat="50.26853" lon="5.10731">
        <ele>246.52789477348</ele>
        <time>2017-03-27T13:48:07Z</time>
      </trkpt>
      <trkpt lat="50.26842" lon="5.10704">
        <ele>238.18943973035</ele>
        <time>2017-03-27T13:48:11Z</time>
      </trkpt>
      <trkpt lat="50.26812" lon="5.10688">
        <ele>233.3889341312</ele>
        <time>2017-03-27T13:48:15Z</time>
      </trkpt>
      <trkpt lat="50.26784" lon="5.10675">
        <ele>231.06393525005</ele>
        <time>2017-03-27T13:48:20Z</time>
      </trkpt>
      <trkpt lat="50.26757" lon="5.10648">
        <ele>226.91774616979</ele>
        <time>2017-03-27T13:48:25Z</time>
      </trkpt>
      <trkpt lat="50.26737" lon="5.10619">
        <ele>222.44326709538</ele>
        <time>2017-03-27T13:48:29Z</time>
      </trkpt>
      <trkpt lat="50.26719" lon="5.10591">
        <ele>218.67574063248</ele>
        <time>2017-03-27T13:48:33Z</time>
      </trkpt>
      <trkpt lat="50.26694" lon="5.10552">
        <ele>217.18427665656</ele>
        <time>2017-03-27T13:48:38Z</time>
      </trkpt>
      <trkpt lat="50.26673" lon="5.10522">
        <ele>214.34831270746</ele>
        <time>2017-03-27T13:48:43Z</time>
      </trkpt>
      <trkpt lat="50.26655" lon="5.10489">
        <ele>213.03465053561</ele>
        <time>2017-03-27T13:48:47Z</time>
      </trkpt>
      <trkpt lat="50.26638" lon="5.10447">
        <ele>212.34896087521</ele>
        <time>2017-03-27T13:48:52Z</time>
      </trkpt>
      <trkpt lat="50.26612" lon="5.10404">
        <ele>216.10512163902</ele>
        <time>2017-03-27T13:48:57Z</time>
      </trkpt>
      <trkpt lat="50.26585" lon="5.10392">
        <ele>220.3176197898</ele>
        <time>2017-03-27T13:49:01Z</time>
      </trkpt>
      <trkpt lat="50.26557" lon="5.10396">
        <ele>224.59254655505</ele>
        <time>2017-03-27T13:49:05Z</time>
      </trkpt>
      <trkpt lat="50.26525" lon="5.10412">
        <ele>226.69723651104</ele>
        <time>2017-03-27T13:49:10Z</time>
      </trkpt>
      <trkpt lat="50.26501" lon="5.10431">
        <ele>224.51943722263</ele>
        <time>2017-03-27T13:49:14Z</time>
      </trkpt>
      <trkpt lat="50.26475" lon="5.10443">
        <ele>221.66165888355</ele>
        <time>2017-03-27T13:49:18Z</time>
      </trkpt>
      <trkpt lat="50.26448" lon="5.10453">
        <ele>220.51930344632</ele>
        <time>2017-03-27T13:49:22Z</time>
      </trkpt>
      <trkpt lat="50.26417" lon="5.10456">
        <ele>218.12457359793</ele>
        <time>2017-03-27T13:49:27Z</time>
      </trkpt>
      <trkpt lat="50.26389" lon="5.10453">
        <ele>214.42697416969</ele>
        <time>2017-03-27T13:49:31Z</time>
      </trkpt>
      <trkpt lat="50.2635" lon="5.1044">
        <ele>210.21039971025</ele>
        <time>2017-03-27T13:49:36Z</time>
      </trkpt>
      <trkpt lat="50.26327" lon="5.10425">
        <ele>210.42087678712</ele>
        <time>2017-03-27T13:49:40Z</time>
      </trkpt>
      <trkpt lat="50.26313" lon="5.10411">
        <ele>216.52189374018</ele>
        <time>2017-03-27T13:49:44Z</time>
      </trkpt>
      <trkpt lat="50.26297" lon="5.10395">
        <ele>225.84761047292</ele>
        <time>2017-03-27T13:49:48Z</time>
      </trkpt>
      <trkpt lat="50.26279" lon="5.10378">
        <ele>231.02576584977</ele>
        <time>2017-03-27T13:49:52Z</time>
      </trkpt>
      <trkpt lat="50.26257" lon="5.10356">
        <ele>235.33854236071</ele>
        <time>2017-03-27T13:49:56Z</time>
      </trkpt>
      <trkpt lat="50.26235" lon="5.10338">
        <ele>238.25314861282</ele>
        <time>2017-03-27T13:50:00Z</time>
      </trkpt>
      <trkpt lat="50.26212" lon="5.10312">
        <ele>244.26230342898</ele>
        <time>2017-03-27T13:50:05Z</time>
      </trkpt>
      <trkpt lat="50.26196" lon="5.10277">
        <ele>249.88670713702</ele>
        <time>2017-03-27T13:50:10Z</time>
      </trkpt>
      <trkpt lat="50.26183" lon="5.10234">
        <ele>255.12467872113</ele>
        <time>2017-03-27T13:50:15Z</time>
      </trkpt>
      <trkpt lat="50.26167" lon="5.1018">
        <ele>267.54000005608</ele>
        <time>2017-03-27T13:50:20Z</time>
      </trkpt>
      <trkpt lat="50.26151" lon="5.10142">
        <ele>280.72156245755</ele>
        <time>2017-03-27T13:50:24Z</time>
      </trkpt>
      <trkpt lat="50.26131" lon="5.10102">
        <ele>294.84326995514</ele>
        <time>2017-03-27T13:50:29Z</time>
      </trkpt>
      <trkpt lat="50.26112" lon="5.10076">
        <ele>298.51486143343</ele>
        <time>2017-03-27T13:50:33Z</time>
      </trkpt>
      <trkpt lat="50.26091" lon="5.10055">
        <ele>295.44982113057</ele>
        <time>2017-03-27T13:50:37Z</time>
      </trkpt>
      <trkpt lat="50.2607" lon="5.10037">
        <ele>288.57032540713</ele>
        <time>2017-03-27T13:50:41Z</time>
      </trkpt>
      <trkpt lat="50.26041" lon="5.10018">
        <ele>282.26723563758</ele>
        <time>2017-03-27T13:50:46Z</time>
      </trkpt>
      <trkpt lat="50.2601" lon="5.10003">
        <ele>279.70213384532</ele>
        <time>2017-03-27T13:50:51Z</time>
      </trkpt>
      <trkpt lat="50.2598" lon="5.09983">
        <ele>282.67924472645</ele>
        <time>2017-03-27T13:50:56Z</time>
      </trkpt>
      <trkpt lat="50.2595" lon="5.09967">
        <ele>286.94407929227</ele>
        <time>2017-03-27T13:51:01Z</time>
      </trkpt>
      <trkpt lat="50.25927" lon="5.09956">
        <ele>290.88268397744</ele>
        <time>2017-03-27T13:51:05Z</time>
      </trkpt>
      <trkpt lat="50.25901" lon="5.09951">
        <ele>288.69969360121</ele>
        <time>2017-03-27T13:51:09Z</time>
      </trkpt>
      <trkpt lat="50.25867" lon="5.09953">
        <ele>281.219605635</ele>
        <time>2017-03-27T13:51:14Z</time>
      </trkpt>
      <trkpt lat="50.25837" lon="5.09948">
        <ele>278.58500722155</ele>
        <time>2017-03-27T13:51:19Z</time>
      </trkpt>
      <trkpt lat="50.25828" lon="5.09925">
        <ele>277.12873170071</ele>
        <time>2017-03-27T13:51:23Z</time>
      </trkpt>
      <trkpt lat="50.2582" lon="5.09895">
        <ele>279.83693653963</ele>
        <time>2017-03-27T13:51:27Z</time>
      </trkpt>
      <trkpt lat="50.25811" lon="5.0985">
        <ele>273.15117447736</ele>
        <time>2017-03-27T13:51:32Z</time>
      </trkpt>
      <trkpt lat="50.25804" lon="5.0979">
        <ele>257.18629605141</ele>
        <time>2017-03-27T13:51:37Z</time>
      </trkpt>
      <trkpt lat="50.25803" lon="5.09753">
        <ele>256.78910819894</ele>
        <time>2017-03-27T13:51:41Z</time>
      </trkpt>
      <trkpt lat="50.25819" lon="5.09736">
        <ele>258.02443448875</ele>
        <time>2017-03-27T13:51:45Z</time>
      </trkpt>
      <trkpt lat="50.25845" lon="5.09704">
        <ele>257.83360547327</ele>
        <time>2017-03-27T13:51:50Z</time>
      </trkpt>
      <trkpt lat="50.25867" lon="5.09676">
        <ele>262.64434795263</ele>
        <time>2017-03-27T13:51:54Z</time>
      </trkpt>
      <trkpt lat="50.25893" lon="5.09659">
        <ele>266.55598293356</ele>
        <time>2017-03-27T13:51:58Z</time>
      </trkpt>
      <trkpt lat="50.25927" lon="5.09642">
        <ele>260.3663638905</ele>
        <time>2017-03-27T13:52:03Z</time>
      </trkpt>
      <trkpt lat="50.25946" lon="5.09633">
        <ele>259.81779001906</ele>
        <time>2017-03-27T13:52:07Z</time>
      </trkpt>
      <trkpt lat="50.25951" lon="5.09627">
        <ele>261.84589217666</ele>
        <time>2017-03-27T13:52:39Z</time>
      </trkpt>
      <trkpt lat="50.25964" lon="5.09623">
        <ele>268.78006990533</ele>
        <time>2017-03-27T13:52:43Z</time>
      </trkpt>
      <trkpt lat="50.25984" lon="5.09614">
        <ele>269.22737975175</ele>
        <time>2017-03-27T13:52:47Z</time>
      </trkpt>
      <trkpt lat="50.26006" lon="5.09604">
        <ele>267.24732720743</ele>
        <time>2017-03-27T13:52:51Z</time>
      </trkpt>
      <trkpt lat="50.26028" lon="5.09596">
        <ele>263.10159492819</ele>
        <time>2017-03-27T13:52:55Z</time>
      </trkpt>
      <trkpt lat="50.26057" lon="5.09586">
        <ele>258.05831127179</ele>
        <time>2017-03-27T13:53:00Z</time>
      </trkpt>
      <trkpt lat="50.26086" lon="5.09571">
        <ele>257.64620221467</ele>
        <time>2017-03-27T13:53:05Z</time>
      </trkpt>
      <trkpt lat="50.26112" lon="5.0956">
        <ele>258.61623469918</ele>
        <time>2017-03-27T13:53:09Z</time>
      </trkpt>
      <trkpt lat="50.26141" lon="5.0955">
        <ele>253.95091434946</ele>
        <time>2017-03-27T13:53:14Z</time>
      </trkpt>
      <trkpt lat="50.26167" lon="5.09531">
        <ele>264.18854202656</ele>
        <time>2017-03-27T13:53:19Z</time>
      </trkpt>
      <trkpt lat="50.26188" lon="5.09512">
        <ele>271.13376939388</ele>
        <time>2017-03-27T13:53:23Z</time>
      </trkpt>
      <trkpt lat="50.26207" lon="5.09488">
        <ele>274.46712020105</ele>
        <time>2017-03-27T13:53:27Z</time>
      </trkpt>
      <trkpt lat="50.2622" lon="5.09454">
        <ele>272.864976745</ele>
        <time>2017-03-27T13:53:31Z</time>
      </trkpt>
      <trkpt lat="50.26222" lon="5.0942">
        <ele>269.83493177853</ele>
        <time>2017-03-27T13:53:35Z</time>
      </trkpt>
      <trkpt lat="50.2622" lon="5.09376">
        <ele>272.76302323224</ele>
        <time>2017-03-27T13:53:40Z</time>
      </trkpt>
      <trkpt lat="50.2622" lon="5.09342">
        <ele>275.97475188363</ele>
        <time>2017-03-27T13:53:44Z</time>
      </trkpt>
      <trkpt lat="50.26231" lon="5.09308">
        <ele>277.34712242791</ele>
        <time>2017-03-27T13:53:48Z</time>
      </trkpt>
      <trkpt lat="50.26244" lon="5.0927">
        <ele>275.42214959781</ele>
        <time>2017-03-27T13:53:52Z</time>
      </trkpt>
      <trkpt lat="50.26254" lon="5.09222">
        <ele>274.04028301855</ele>
        <time>2017-03-27T13:53:56Z</time>
      </trkpt>
      <trkpt lat="50.2626" lon="5.09175">
        <ele>274.29786605256</ele>
        <time>2017-03-27T13:54:00Z</time>
      </trkpt>
      <trkpt lat="50.26268" lon="5.09133">
        <ele>276.98642261124</ele>
        <time>2017-03-27T13:54:04Z</time>
      </trkpt>
      <trkpt lat="50.2628" lon="5.09093">
        <ele>279.71445073063</ele>
        <time>2017-03-27T13:54:08Z</time>
      </trkpt>
      <trkpt lat="50.26295" lon="5.09054">
        <ele>281.44142161537</ele>
        <time>2017-03-27T13:54:12Z</time>
      </trkpt>
      <trkpt lat="50.26311" lon="5.09018">
        <ele>281.76508929812</ele>
        <time>2017-03-27T13:54:16Z</time>
      </trkpt>
      <trkpt lat="50.26333" lon="5.08978">
        <ele>279.07892437597</ele>
        <time>2017-03-27T13:54:21Z</time>
      </trkpt>
      <trkpt lat="50.26352" lon="5.08946">
        <ele>275.17400305014</ele>
        <time>2017-03-27T13:54:26Z</time>
      </trkpt>
      <trkpt lat="50.26367" lon="5.08919">
        <ele>274.1316416889</ele>
        <time>2017-03-27T13:54:30Z</time>
      </trkpt>
      <trkpt lat="50.26382" lon="5.08876">
        <ele>272.34330531832</ele>
        <time>2017-03-27T13:54:35Z</time>
      </trkpt>
      <trkpt lat="50.26394" lon="5.08837">
        <ele>273.85864505207</ele>
        <time>2017-03-27T13:54:39Z</time>
      </trkpt>
      <trkpt lat="50.26405" lon="5.088">
        <ele>275.95324115198</ele>
        <time>2017-03-27T13:54:43Z</time>
      </trkpt>
      <trkpt lat="50.26418" lon="5.08757">
        <ele>279.13161401588</ele>
        <time>2017-03-27T13:54:48Z</time>
      </trkpt>
      <trkpt lat="50.26429" lon="5.08722">
        <ele>280.0327952796</ele>
        <time>2017-03-27T13:54:52Z</time>
      </trkpt>
      <trkpt lat="50.26441" lon="5.08683">
        <ele>281.31171022815</ele>
        <time>2017-03-27T13:54:57Z</time>
      </trkpt>
      <trkpt lat="50.2645" lon="5.08652">
        <ele>280.44536293329</ele>
        <time>2017-03-27T13:55:01Z</time>
      </trkpt>
      <trkpt lat="50.2646" lon="5.08615">
        <ele>279.22707635919</ele>
        <time>2017-03-27T13:55:06Z</time>
      </trkpt>
      <trkpt lat="50.2647" lon="5.08572">
        <ele>280.6898295285</ele>
        <time>2017-03-27T13:55:11Z</time>
      </trkpt>
      <trkpt lat="50.26479" lon="5.0853">
        <ele>281.98757327847</ele>
        <time>2017-03-27T13:55:16Z</time>
      </trkpt>
      <trkpt lat="50.26488" lon="5.0849">
        <ele>283.46768913467</ele>
        <time>2017-03-27T13:55:21Z</time>
      </trkpt>
      <trkpt lat="50.26495" lon="5.08457">
        <ele>285.0610478005</ele>
        <time>2017-03-27T13:55:25Z</time>
      </trkpt>
      <trkpt lat="50.26506" lon="5.08414">
        <ele>285.71694614534</ele>
        <time>2017-03-27T13:55:30Z</time>
      </trkpt>
      <trkpt lat="50.26516" lon="5.08381">
        <ele>286.00191365297</ele>
        <time>2017-03-27T13:55:34Z</time>
      </trkpt>
      <trkpt lat="50.26527" lon="5.08348">
        <ele>286.33026041343</ele>
        <time>2017-03-27T13:55:38Z</time>
      </trkpt>
      <trkpt lat="50.26541" lon="5.0831">
        <ele>287.02177759953</ele>
        <time>2017-03-27T13:55:43Z</time>
      </trkpt>
      <trkpt lat="50.26551" lon="5.08287">
        <ele>290.26686481628</ele>
        <time>2017-03-27T13:55:47Z</time>
      </trkpt>
      <trkpt lat="50.26562" lon="5.08297">
        <ele>290.62666207086</ele>
        <time>2017-03-27T13:55:51Z</time>
      </trkpt>
      <trkpt lat="50.26571" lon="5.08294">
        <ele>291.80637885075</ele>
        <time>2017-03-27T13:55:56Z</time>
      </trkpt>
      <trkpt lat="50.26572" lon="5.08256">
        <ele>293.58932023886</ele>
        <time>2017-03-27T13:56:00Z</time>
      </trkpt>
      <trkpt lat="50.26568" lon="5.0822">
        <ele>292.93100731196</ele>
        <time>2017-03-27T13:56:04Z</time>
      </trkpt>
      <trkpt lat="50.26564" lon="5.08183">
        <ele>292.04197986629</ele>
        <time>2017-03-27T13:56:08Z</time>
      </trkpt>
      <trkpt lat="50.26559" lon="5.0814">
        <ele>299.48920117985</ele>
        <time>2017-03-27T13:56:13Z</time>
      </trkpt>
      <trkpt lat="50.26554" lon="5.08107">
        <ele>304.08708665809</ele>
        <time>2017-03-27T13:56:17Z</time>
      </trkpt>
      <trkpt lat="50.26545" lon="5.08067">
        <ele>307.13956161993</ele>
        <time>2017-03-27T13:56:22Z</time>
      </trkpt>
      <trkpt lat="50.26537" lon="5.08034">
        <ele>313.38094653787</ele>
        <time>2017-03-27T13:56:26Z</time>
      </trkpt>
      <trkpt lat="50.2653" lon="5.08">
        <ele>322.61375285389</ele>
        <time>2017-03-27T13:56:30Z</time>
      </trkpt>
      <trkpt lat="50.26521" lon="5.07967">
        <ele>328.54164463666</ele>
        <time>2017-03-27T13:56:34Z</time>
      </trkpt>
      <trkpt lat="50.26511" lon="5.07931">
        <ele>331.73311670281</ele>
        <time>2017-03-27T13:56:38Z</time>
      </trkpt>
      <trkpt lat="50.265" lon="5.079">
        <ele>330.7028174091</ele>
        <time>2017-03-27T13:56:42Z</time>
      </trkpt>
      <trkpt lat="50.2649" lon="5.07868">
        <ele>326.34584078584</ele>
        <time>2017-03-27T13:56:46Z</time>
      </trkpt>
      <trkpt lat="50.26479" lon="5.07831">
        <ele>323.44964608929</ele>
        <time>2017-03-27T13:56:50Z</time>
      </trkpt>
      <trkpt lat="50.26467" lon="5.07793">
        <ele>323.44458725617</ele>
        <time>2017-03-27T13:56:55Z</time>
      </trkpt>
      <trkpt lat="50.26458" lon="5.07764">
        <ele>324.2933976785</ele>
        <time>2017-03-27T13:56:59Z</time>
      </trkpt>
      <trkpt lat="50.26447" lon="5.07731">
        <ele>325.60207621376</ele>
        <time>2017-03-27T13:57:03Z</time>
      </trkpt>
      <trkpt lat="50.26436" lon="5.07676">
        <ele>325.24918770531</ele>
        <time>2017-03-27T13:57:08Z</time>
      </trkpt>
      <trkpt lat="50.26431" lon="5.07635">
        <ele>319.78503259367</ele>
        <time>2017-03-27T13:57:12Z</time>
      </trkpt>
      <trkpt lat="50.26427" lon="5.07585">
        <ele>310.37338937151</ele>
        <time>2017-03-27T13:57:17Z</time>
      </trkpt>
      <trkpt lat="50.26423" lon="5.07539">
        <ele>306.50685221394</ele>
        <time>2017-03-27T13:57:22Z</time>
      </trkpt>
      <trkpt lat="50.26418" lon="5.075">
        <ele>304.99708295698</ele>
        <time>2017-03-27T13:57:26Z</time>
      </trkpt>
      <trkpt lat="50.26412" lon="5.07448">
        <ele>303.05400408126</ele>
        <time>2017-03-27T13:57:31Z</time>
      </trkpt>
      <trkpt lat="50.26407" lon="5.07406">
        <ele>304.84294922341</ele>
        <time>2017-03-27T13:57:35Z</time>
      </trkpt>
      <trkpt lat="50.26398" lon="5.07348">
        <ele>308.94666727279</ele>
        <time>2017-03-27T13:57:40Z</time>
      </trkpt>
      <trkpt lat="50.26391" lon="5.07291">
        <ele>309.48657311974</ele>
        <time>2017-03-27T13:57:45Z</time>
      </trkpt>
      <trkpt lat="50.26384" lon="5.07242">
        <ele>309.59910304376</ele>
        <time>2017-03-27T13:57:49Z</time>
      </trkpt>
      <trkpt lat="50.26379" lon="5.07197">
        <ele>312.69545601108</ele>
        <time>2017-03-27T13:57:53Z</time>
      </trkpt>
      <trkpt lat="50.26374" lon="5.07144">
        <ele>309.76377596146</ele>
        <time>2017-03-27T13:57:58Z</time>
      </trkpt>
      <trkpt lat="50.26372" lon="5.07092">
        <ele>307.42136505093</ele>
        <time>2017-03-27T13:58:03Z</time>
      </trkpt>
      <trkpt lat="50.2637" lon="5.0704">
        <ele>308.77565625823</ele>
        <time>2017-03-27T13:58:08Z</time>
      </trkpt>
      <trkpt lat="50.26371" lon="5.06999">
        <ele>309.05737727218</ele>
        <time>2017-03-27T13:58:12Z</time>
      </trkpt>
      <trkpt lat="50.26374" lon="5.06949">
        <ele>308.83298003973</ele>
        <time>2017-03-27T13:58:17Z</time>
      </trkpt>
      <trkpt lat="50.26377" lon="5.06915">
        <ele>311.29537545521</ele>
        <time>2017-03-27T13:58:21Z</time>
      </trkpt>
      <trkpt lat="50.26379" lon="5.06878">
        <ele>315.39224060269</ele>
        <time>2017-03-27T13:58:26Z</time>
      </trkpt>
      <trkpt lat="50.2638" lon="5.0685">
        <ele>314.0483762866</ele>
        <time>2017-03-27T13:58:30Z</time>
      </trkpt>
      <trkpt lat="50.26384" lon="5.06819">
        <ele>313.5766501598</ele>
        <time>2017-03-27T13:58:34Z</time>
      </trkpt>
      <trkpt lat="50.26387" lon="5.06784">
        <ele>311.66396485886</ele>
        <time>2017-03-27T13:58:38Z</time>
      </trkpt>
      <trkpt lat="50.26391" lon="5.06748">
        <ele>306.02452066942</ele>
        <time>2017-03-27T13:58:42Z</time>
      </trkpt>
      <trkpt lat="50.26394" lon="5.06715">
        <ele>301.75140406303</ele>
        <time>2017-03-27T13:58:46Z</time>
      </trkpt>
      <trkpt lat="50.26397" lon="5.06681">
        <ele>303.90904674793</ele>
        <time>2017-03-27T13:58:50Z</time>
      </trkpt>
      <trkpt lat="50.264" lon="5.06644">
        <ele>307.3045034032</ele>
        <time>2017-03-27T13:58:54Z</time>
      </trkpt>
      <trkpt lat="50.26405" lon="5.06596">
        <ele>312.73558509374</ele>
        <time>2017-03-27T13:58:59Z</time>
      </trkpt>
      <trkpt lat="50.26409" lon="5.06551">
        <ele>312.02913063121</ele>
        <time>2017-03-27T13:59:04Z</time>
      </trkpt>
      <trkpt lat="50.26413" lon="5.06512">
        <ele>308.81559068788</ele>
        <time>2017-03-27T13:59:08Z</time>
      </trkpt>
      <trkpt lat="50.26421" lon="5.0646">
        <ele>304.28235866543</ele>
        <time>2017-03-27T13:59:13Z</time>
      </trkpt>
      <trkpt lat="50.26429" lon="5.06419">
        <ele>301.17281585654</ele>
        <time>2017-03-27T13:59:17Z</time>
      </trkpt>
      <trkpt lat="50.26444" lon="5.06376">
        <ele>294.1679549653</ele>
        <time>2017-03-27T13:59:22Z</time>
      </trkpt>
      <trkpt lat="50.26456" lon="5.0635">
        <ele>295.57827930371</ele>
        <time>2017-03-27T13:59:26Z</time>
      </trkpt>
      <trkpt lat="50.26471" lon="5.06318">
        <ele>303.57555492449</ele>
        <time>2017-03-27T13:59:31Z</time>
      </trkpt>
      <trkpt lat="50.26484" lon="5.06291">
        <ele>308.36302065357</ele>
        <time>2017-03-27T13:59:35Z</time>
      </trkpt>
      <trkpt lat="50.265" lon="5.06252">
        <ele>309.33904395116</ele>
        <time>2017-03-27T13:59:40Z</time>
      </trkpt>
      <trkpt lat="50.26516" lon="5.06217">
        <ele>304.41573847183</ele>
        <time>2017-03-27T13:59:44Z</time>
      </trkpt>
      <trkpt lat="50.2653" lon="5.06181">
        <ele>299.50526022098</ele>
        <time>2017-03-27T13:59:48Z</time>
      </trkpt>
      <trkpt lat="50.26543" lon="5.06145">
        <ele>296.61406591739</ele>
        <time>2017-03-27T13:59:52Z</time>
      </trkpt>
      <trkpt lat="50.26556" lon="5.06103">
        <ele>295.20088569036</ele>
        <time>2017-03-27T13:59:56Z</time>
      </trkpt>
      <trkpt lat="50.2657" lon="5.0605">
        <ele>293.07576631501</ele>
        <time>2017-03-27T14:00:01Z</time>
      </trkpt>
      <trkpt lat="50.2658" lon="5.0601">
        <ele>293.34742316532</ele>
        <time>2017-03-27T14:00:05Z</time>
      </trkpt>
      <trkpt lat="50.26592" lon="5.05959">
        <ele>292.40616345695</ele>
        <time>2017-03-27T14:00:10Z</time>
      </trkpt>
      <trkpt lat="50.26603" lon="5.05914">
        <ele>291.01233866769</ele>
        <time>2017-03-27T14:00:15Z</time>
      </trkpt>
      <trkpt lat="50.26612" lon="5.0588">
        <ele>290.00175498742</ele>
        <time>2017-03-27T14:00:19Z</time>
      </trkpt>
      <trkpt lat="50.2662" lon="5.05847">
        <ele>290.62691801132</ele>
        <time>2017-03-27T14:00:23Z</time>
      </trkpt>
      <trkpt lat="50.26629" lon="5.05805">
        <ele>295.43496903841</ele>
        <time>2017-03-27T14:00:28Z</time>
      </trkpt>
      <trkpt lat="50.26638" lon="5.05765">
        <ele>298.75093805505</ele>
        <time>2017-03-27T14:00:33Z</time>
      </trkpt>
      <trkpt lat="50.26644" lon="5.05738">
        <ele>298.10223246185</ele>
        <time>2017-03-27T14:00:37Z</time>
      </trkpt>
      <trkpt lat="50.2665" lon="5.05712">
        <ele>297.06288138202</ele>
        <time>2017-03-27T14:00:41Z</time>
      </trkpt>
      <trkpt lat="50.26656" lon="5.05682">
        <ele>298.03390460705</ele>
        <time>2017-03-27T14:00:45Z</time>
      </trkpt>
      <trkpt lat="50.26666" lon="5.05646">
        <ele>298.60847604159</ele>
        <time>2017-03-27T14:00:49Z</time>
      </trkpt>
      <trkpt lat="50.2668" lon="5.05605">
        <ele>300.04886097798</ele>
        <time>2017-03-27T14:00:54Z</time>
      </trkpt>
      <trkpt lat="50.26695" lon="5.05571">
        <ele>301.48560550686</ele>
        <time>2017-03-27T14:00:58Z</time>
      </trkpt>
      <trkpt lat="50.26714" lon="5.05523">
        <ele>300.37201616136</ele>
        <time>2017-03-27T14:01:03Z</time>
      </trkpt>
      <trkpt lat="50.2673" lon="5.05485">
        <ele>298.45791238484</ele>
        <time>2017-03-27T14:01:07Z</time>
      </trkpt>
      <trkpt lat="50.26746" lon="5.05447">
        <ele>294.01692730232</ele>
        <time>2017-03-27T14:01:11Z</time>
      </trkpt>
      <trkpt lat="50.26761" lon="5.05414">
        <ele>289.67408690294</ele>
        <time>2017-03-27T14:01:15Z</time>
      </trkpt>
      <trkpt lat="50.26781" lon="5.05385">
        <ele>286.66276461141</ele>
        <time>2017-03-27T14:01:20Z</time>
      </trkpt>
      <trkpt lat="50.26788" lon="5.05362">
        <ele>284.83692600451</ele>
        <time>2017-03-27T14:01:24Z</time>
      </trkpt>
      <trkpt lat="50.26781" lon="5.05331">
        <ele>284.55774021586</ele>
        <time>2017-03-27T14:01:29Z</time>
      </trkpt>
      <trkpt lat="50.26773" lon="5.05294">
        <ele>285.834051231</ele>
        <time>2017-03-27T14:01:33Z</time>
      </trkpt>
      <trkpt lat="50.26764" lon="5.0524">
        <ele>291.02743017106</ele>
        <time>2017-03-27T14:01:38Z</time>
      </trkpt>
      <trkpt lat="50.26757" lon="5.05204">
        <ele>292.05293382834</ele>
        <time>2017-03-27T14:01:42Z</time>
      </trkpt>
      <trkpt lat="50.26749" lon="5.05168">
        <ele>292.64665488973</ele>
        <time>2017-03-27T14:01:46Z</time>
      </trkpt>
      <trkpt lat="50.2674" lon="5.05117">
        <ele>295.01053537094</ele>
        <time>2017-03-27T14:01:51Z</time>
      </trkpt>
      <trkpt lat="50.26733" lon="5.05078">
        <ele>289.98744369187</ele>
        <time>2017-03-27T14:01:55Z</time>
      </trkpt>
      <trkpt lat="50.26724" lon="5.05026">
        <ele>284.6954820319</ele>
        <time>2017-03-27T14:02:00Z</time>
      </trkpt>
      <trkpt lat="50.26717" lon="5.04987">
        <ele>286.35078112022</ele>
        <time>2017-03-27T14:02:04Z</time>
      </trkpt>
      <trkpt lat="50.26708" lon="5.04942">
        <ele>284.94791549002</ele>
        <time>2017-03-27T14:02:09Z</time>
      </trkpt>
      <trkpt lat="50.26702" lon="5.04907">
        <ele>291.18794528834</ele>
        <time>2017-03-27T14:02:13Z</time>
      </trkpt>
      <trkpt lat="50.26696" lon="5.04856">
        <ele>296.70425836846</ele>
        <time>2017-03-27T14:02:18Z</time>
      </trkpt>
      <trkpt lat="50.26694" lon="5.0481">
        <ele>297.3381553843</ele>
        <time>2017-03-27T14:02:22Z</time>
      </trkpt>
      <trkpt lat="50.26692" lon="5.04761">
        <ele>292.38742697132</ele>
        <time>2017-03-27T14:02:27Z</time>
      </trkpt>
      <trkpt lat="50.26689" lon="5.04722">
        <ele>295.01866281722</ele>
        <time>2017-03-27T14:02:31Z</time>
      </trkpt>
      <trkpt lat="50.26686" lon="5.0467">
        <ele>297.57406341974</ele>
        <time>2017-03-27T14:02:36Z</time>
      </trkpt>
      <trkpt lat="50.26682" lon="5.04628">
        <ele>294.34187032632</ele>
        <time>2017-03-27T14:02:40Z</time>
      </trkpt>
      <trkpt lat="50.26678" lon="5.04585">
        <ele>286.95571897371</ele>
        <time>2017-03-27T14:02:44Z</time>
      </trkpt>
      <trkpt lat="50.26682" lon="5.04553">
        <ele>280.56271839136</ele>
        <time>2017-03-27T14:02:48Z</time>
      </trkpt>
      <trkpt lat="50.26701" lon="5.04531">
        <ele>277.8029897895</ele>
        <time>2017-03-27T14:02:53Z</time>
      </trkpt>
      <trkpt lat="50.26718" lon="5.04521">
        <ele>279.02403110436</ele>
        <time>2017-03-27T14:02:57Z</time>
      </trkpt>
      <trkpt lat="50.26738" lon="5.0453">
        <ele>283.87981115475</ele>
        <time>2017-03-27T14:03:02Z</time>
      </trkpt>
      <trkpt lat="50.26754" lon="5.04544">
        <ele>286.26796256409</ele>
        <time>2017-03-27T14:03:06Z</time>
      </trkpt>
      <trkpt lat="50.26787" lon="5.04571">
        <ele>287.35545583571</ele>
        <time>2017-03-27T14:03:11Z</time>
      </trkpt>
      <trkpt lat="50.26818" lon="5.04595">
        <ele>283.18537252978</ele>
        <time>2017-03-27T14:03:16Z</time>
      </trkpt>
      <trkpt lat="50.26842" lon="5.04618">
        <ele>280.65047235907</ele>
        <time>2017-03-27T14:03:20Z</time>
      </trkpt>
      <trkpt lat="50.26882" lon="5.04651">
        <ele>275.61617122105</ele>
        <time>2017-03-27T14:03:25Z</time>
      </trkpt>
      <trkpt lat="50.26919" lon="5.04707">
        <ele>271.17156423244</ele>
        <time>2017-03-27T14:03:30Z</time>
      </trkpt>
      <trkpt lat="50.2695" lon="5.04734">
        <ele>268.87019028999</ele>
        <time>2017-03-27T14:03:34Z</time>
      </trkpt>
      <trkpt lat="50.26992" lon="5.04726">
        <ele>269.2087080047</ele>
        <time>2017-03-27T14:03:39Z</time>
      </trkpt>
      <trkpt lat="50.27029" lon="5.04738">
        <ele>269.00293348841</ele>
        <time>2017-03-27T14:03:44Z</time>
      </trkpt>
      <trkpt lat="50.27053" lon="5.04735">
        <ele>268.54685322592</ele>
        <time>2017-03-27T14:03:48Z</time>
      </trkpt>
      <trkpt lat="50.27074" lon="5.04725">
        <ele>268.55092736851</ele>
        <time>2017-03-27T14:03:52Z</time>
      </trkpt>
      <trkpt lat="50.27096" lon="5.04717">
        <ele>270.63474406606</ele>
        <time>2017-03-27T14:03:56Z</time>
      </trkpt>
      <trkpt lat="50.27118" lon="5.04707">
        <ele>272.87101580497</ele>
        <time>2017-03-27T14:04:00Z</time>
      </trkpt>
      <trkpt lat="50.2714" lon="5.04697">
        <ele>274.40623556572</ele>
        <time>2017-03-27T14:04:04Z</time>
      </trkpt>
      <trkpt lat="50.27164" lon="5.04685">
        <ele>274.11784939339</ele>
        <time>2017-03-27T14:04:08Z</time>
      </trkpt>
      <trkpt lat="50.27191" lon="5.04671">
        <ele>274.34273443708</ele>
        <time>2017-03-27T14:04:13Z</time>
      </trkpt>
      <trkpt lat="50.27218" lon="5.0466">
        <ele>275.94862168818</ele>
        <time>2017-03-27T14:04:18Z</time>
      </trkpt>
      <trkpt lat="50.27234" lon="5.04653">
        <ele>277.19647311248</ele>
        <time>2017-03-27T14:04:21Z</time>
      </trkpt>
      <trkpt lat="50.2726" lon="5.04642">
        <ele>277.49316082957</ele>
        <time>2017-03-27T14:04:26Z</time>
      </trkpt>
      <trkpt lat="50.27288" lon="5.04634">
        <ele>280.16587666297</ele>
        <time>2017-03-27T14:04:30Z</time>
      </trkpt>
      <trkpt lat="50.27311" lon="5.04624">
        <ele>282.02071482877</ele>
        <time>2017-03-27T14:04:34Z</time>
      </trkpt>
      <trkpt lat="50.27337" lon="5.04607">
        <ele>284.24724281077</ele>
        <time>2017-03-27T14:04:39Z</time>
      </trkpt>
      <trkpt lat="50.27356" lon="5.04596">
        <ele>285.92057794985</ele>
        <time>2017-03-27T14:04:43Z</time>
      </trkpt>
      <trkpt lat="50.2738" lon="5.04589">
        <ele>286.82554789293</ele>
        <time>2017-03-27T14:04:47Z</time>
      </trkpt>
      <trkpt lat="50.27417" lon="5.04586">
        <ele>283.6049416206</ele>
        <time>2017-03-27T14:04:52Z</time>
      </trkpt>
      <trkpt lat="50.27456" lon="5.04588">
        <ele>278.11299700297</ele>
        <time>2017-03-27T14:04:56Z</time>
      </trkpt>
      <trkpt lat="50.27491" lon="5.04593">
        <ele>274.70013040802</ele>
        <time>2017-03-27T14:05:00Z</time>
      </trkpt>
      <trkpt lat="50.27524" lon="5.04593">
        <ele>273.14922293717</ele>
        <time>2017-03-27T14:05:04Z</time>
      </trkpt>
      <trkpt lat="50.27554" lon="5.04591">
        <ele>273.72876413995</ele>
        <time>2017-03-27T14:05:08Z</time>
      </trkpt>
      <trkpt lat="50.27583" lon="5.04586">
        <ele>275.00416725493</ele>
        <time>2017-03-27T14:05:12Z</time>
      </trkpt>
      <trkpt lat="50.2761" lon="5.04579">
        <ele>276.10717150885</ele>
        <time>2017-03-27T14:05:16Z</time>
      </trkpt>
      <trkpt lat="50.27637" lon="5.0457">
        <ele>277.42359135889</ele>
        <time>2017-03-27T14:05:20Z</time>
      </trkpt>
      <trkpt lat="50.27665" lon="5.04559">
        <ele>279.52843336356</ele>
        <time>2017-03-27T14:05:25Z</time>
      </trkpt>
      <trkpt lat="50.27689" lon="5.04551">
        <ele>280.39076877956</ele>
        <time>2017-03-27T14:05:29Z</time>
      </trkpt>
      <trkpt lat="50.27714" lon="5.0455">
        <ele>280.10841166297</ele>
        <time>2017-03-27T14:05:33Z</time>
      </trkpt>
      <trkpt lat="50.27738" lon="5.04554">
        <ele>280.36676468509</ele>
        <time>2017-03-27T14:05:37Z</time>
      </trkpt>
      <trkpt lat="50.27767" lon="5.04563">
        <ele>282.42443684635</ele>
        <time>2017-03-27T14:05:42Z</time>
      </trkpt>
      <trkpt lat="50.27792" lon="5.04573">
        <ele>283.61568096915</ele>
        <time>2017-03-27T14:05:46Z</time>
      </trkpt>
      <trkpt lat="50.27825" lon="5.04587">
        <ele>284.743517777</ele>
        <time>2017-03-27T14:05:51Z</time>
      </trkpt>
      <trkpt lat="50.27852" lon="5.046">
        <ele>284.76862209598</ele>
        <time>2017-03-27T14:05:55Z</time>
      </trkpt>
      <trkpt lat="50.27888" lon="5.04618">
        <ele>281.4879081363</ele>
        <time>2017-03-27T14:06:00Z</time>
      </trkpt>
      <trkpt lat="50.27916" lon="5.0463">
        <ele>279.24812638874</ele>
        <time>2017-03-27T14:06:04Z</time>
      </trkpt>
      <trkpt lat="50.27949" lon="5.04645">
        <ele>277.37026341548</ele>
        <time>2017-03-27T14:06:09Z</time>
      </trkpt>
      <trkpt lat="50.27984" lon="5.0466">
        <ele>275.48159182261</ele>
        <time>2017-03-27T14:06:14Z</time>
      </trkpt>
      <trkpt lat="50.28011" lon="5.0467">
        <ele>273.88375386892</ele>
        <time>2017-03-27T14:06:18Z</time>
      </trkpt>
      <trkpt lat="50.28041" lon="5.04681">
        <ele>273.05143989437</ele>
        <time>2017-03-27T14:06:22Z</time>
      </trkpt>
      <trkpt lat="50.28075" lon="5.04697">
        <ele>272.21975292227</ele>
        <time>2017-03-27T14:06:27Z</time>
      </trkpt>
      <trkpt lat="50.28111" lon="5.04711">
        <ele>272.79834531327</ele>
        <time>2017-03-27T14:06:32Z</time>
      </trkpt>
      <trkpt lat="50.28138" lon="5.04723">
        <ele>273.74599227693</ele>
        <time>2017-03-27T14:06:36Z</time>
      </trkpt>
      <trkpt lat="50.28168" lon="5.04735">
        <ele>276.66966064549</ele>
        <time>2017-03-27T14:06:41Z</time>
      </trkpt>
      <trkpt lat="50.28195" lon="5.04742">
        <ele>278.54248288443</ele>
        <time>2017-03-27T14:06:45Z</time>
      </trkpt>
      <trkpt lat="50.28233" lon="5.04748">
        <ele>275.46962010481</ele>
        <time>2017-03-27T14:06:50Z</time>
      </trkpt>
      <trkpt lat="50.2826" lon="5.04752">
        <ele>270.74619459171</ele>
        <time>2017-03-27T14:06:54Z</time>
      </trkpt>
      <trkpt lat="50.28289" lon="5.0476">
        <ele>263.37644635384</ele>
        <time>2017-03-27T14:06:59Z</time>
      </trkpt>
      <trkpt lat="50.28318" lon="5.04769">
        <ele>259.90478107474</ele>
        <time>2017-03-27T14:07:04Z</time>
      </trkpt>
      <trkpt lat="50.28339" lon="5.04769">
        <ele>259.43013156679</ele>
        <time>2017-03-27T14:07:08Z</time>
      </trkpt>
      <trkpt lat="50.28358" lon="5.04773">
        <ele>260.33901328105</ele>
        <time>2017-03-27T14:07:12Z</time>
      </trkpt>
      <trkpt lat="50.28376" lon="5.04782">
        <ele>263.04594046932</ele>
        <time>2017-03-27T14:07:16Z</time>
      </trkpt>
      <trkpt lat="50.28391" lon="5.04784">
        <ele>266.38531114732</ele>
        <time>2017-03-27T14:07:20Z</time>
      </trkpt>
      <trkpt lat="50.28411" lon="5.04772">
        <ele>268.43219371742</ele>
        <time>2017-03-27T14:07:24Z</time>
      </trkpt>
      <trkpt lat="50.28445" lon="5.0474">
        <ele>261.44899351915</ele>
        <time>2017-03-27T14:07:29Z</time>
      </trkpt>
      <trkpt lat="50.28474" lon="5.04705">
        <ele>256.47125042454</ele>
        <time>2017-03-27T14:07:34Z</time>
      </trkpt>
      <trkpt lat="50.28506" lon="5.04667">
        <ele>253.29340903422</ele>
        <time>2017-03-27T14:07:39Z</time>
      </trkpt>
      <trkpt lat="50.28527" lon="5.0464">
        <ele>253.49915780879</ele>
        <time>2017-03-27T14:07:43Z</time>
      </trkpt>
      <trkpt lat="50.28556" lon="5.04593">
        <ele>257.07958666629</ele>
        <time>2017-03-27T14:07:48Z</time>
      </trkpt>
      <trkpt lat="50.28585" lon="5.04561">
        <ele>261.03750252776</ele>
        <time>2017-03-27T14:07:52Z</time>
      </trkpt>
      <trkpt lat="50.28626" lon="5.04528">
        <ele>260.44571346169</ele>
        <time>2017-03-27T14:07:57Z</time>
      </trkpt>
      <trkpt lat="50.28655" lon="5.045">
        <ele>255.53108625343</ele>
        <time>2017-03-27T14:08:01Z</time>
      </trkpt>
      <trkpt lat="50.28678" lon="5.04472">
        <ele>250.35657158076</ele>
        <time>2017-03-27T14:08:05Z</time>
      </trkpt>
      <trkpt lat="50.28701" lon="5.04449">
        <ele>248.64207117766</ele>
        <time>2017-03-27T14:08:09Z</time>
      </trkpt>
      <trkpt lat="50.28727" lon="5.04427">
        <ele>251.65224780629</ele>
        <time>2017-03-27T14:08:13Z</time>
      </trkpt>
      <trkpt lat="50.28762" lon="5.04398">
        <ele>254.57039033132</ele>
        <time>2017-03-27T14:08:18Z</time>
      </trkpt>
      <trkpt lat="50.28794" lon="5.04373">
        <ele>255.31916475582</ele>
        <time>2017-03-27T14:08:22Z</time>
      </trkpt>
      <trkpt lat="50.2883" lon="5.0435">
        <ele>252.92714219772</ele>
        <time>2017-03-27T14:08:26Z</time>
      </trkpt>
      <trkpt lat="50.28873" lon="5.04325">
        <ele>251.96282151521</ele>
        <time>2017-03-27T14:08:31Z</time>
      </trkpt>
      <trkpt lat="50.28899" lon="5.04307">
        <ele>254.38738054112</ele>
        <time>2017-03-27T14:08:35Z</time>
      </trkpt>
      <trkpt lat="50.28926" lon="5.04282">
        <ele>256.90231135642</ele>
        <time>2017-03-27T14:08:40Z</time>
      </trkpt>
      <trkpt lat="50.28953" lon="5.04265">
        <ele>258.54444558629</ele>
        <time>2017-03-27T14:08:45Z</time>
      </trkpt>
      <trkpt lat="50.28976" lon="5.0427">
        <ele>258.32799421707</ele>
        <time>2017-03-27T14:08:49Z</time>
      </trkpt>
      <trkpt lat="50.28995" lon="5.04307">
        <ele>259.37964945592</ele>
        <time>2017-03-27T14:08:54Z</time>
      </trkpt>
      <trkpt lat="50.29011" lon="5.04358">
        <ele>256.43913141882</ele>
        <time>2017-03-27T14:08:59Z</time>
      </trkpt>
      <trkpt lat="50.29022" lon="5.04398">
        <ele>254.76799457679</ele>
        <time>2017-03-27T14:09:03Z</time>
      </trkpt>
      <trkpt lat="50.29035" lon="5.04439">
        <ele>251.69129553042</ele>
        <time>2017-03-27T14:09:07Z</time>
      </trkpt>
      <trkpt lat="50.29049" lon="5.04477">
        <ele>249.64677371398</ele>
        <time>2017-03-27T14:09:11Z</time>
      </trkpt>
      <trkpt lat="50.29064" lon="5.04515">
        <ele>252.27411158862</ele>
        <time>2017-03-27T14:09:15Z</time>
      </trkpt>
      <trkpt lat="50.29078" lon="5.04555">
        <ele>255.4124175901</ele>
        <time>2017-03-27T14:09:19Z</time>
      </trkpt>
      <trkpt lat="50.29096" lon="5.04592">
        <ele>252.34179977702</ele>
        <time>2017-03-27T14:09:23Z</time>
      </trkpt>
      <trkpt lat="50.29113" lon="5.04625">
        <ele>247.76793640793</ele>
        <time>2017-03-27T14:09:27Z</time>
      </trkpt>
      <trkpt lat="50.29134" lon="5.04652">
        <ele>246.37747473777</ele>
        <time>2017-03-27T14:09:31Z</time>
      </trkpt>
      <trkpt lat="50.29165" lon="5.04688">
        <ele>245.65144184906</ele>
        <time>2017-03-27T14:09:36Z</time>
      </trkpt>
      <trkpt lat="50.29188" lon="5.04716">
        <ele>243.0665596574</ele>
        <time>2017-03-27T14:09:40Z</time>
      </trkpt>
      <trkpt lat="50.29208" lon="5.04744">
        <ele>241.3735056908</ele>
        <time>2017-03-27T14:09:44Z</time>
      </trkpt>
      <trkpt lat="50.29223" lon="5.04789">
        <ele>242.53435318299</ele>
        <time>2017-03-27T14:09:49Z</time>
      </trkpt>
      <trkpt lat="50.29244" lon="5.04822">
        <ele>244.85286046461</ele>
        <time>2017-03-27T14:09:54Z</time>
      </trkpt>
      <trkpt lat="50.29272" lon="5.04827">
        <ele>246.36161146608</ele>
        <time>2017-03-27T14:09:59Z</time>
      </trkpt>
      <trkpt lat="50.29293" lon="5.04817">
        <ele>245.45557018744</ele>
        <time>2017-03-27T14:10:03Z</time>
      </trkpt>
      <trkpt lat="50.29314" lon="5.04803">
        <ele>244.25702620598</ele>
        <time>2017-03-27T14:10:07Z</time>
      </trkpt>
      <trkpt lat="50.2934" lon="5.04781">
        <ele>245.526142074</ele>
        <time>2017-03-27T14:10:11Z</time>
      </trkpt>
      <trkpt lat="50.29368" lon="5.04739">
        <ele>243.92611506586</ele>
        <time>2017-03-27T14:10:16Z</time>
      </trkpt>
      <trkpt lat="50.29391" lon="5.04705">
        <ele>243.51245839533</ele>
        <time>2017-03-27T14:10:21Z</time>
      </trkpt>
      <trkpt lat="50.29402" lon="5.04671">
        <ele>240.09250946655</ele>
        <time>2017-03-27T14:10:26Z</time>
      </trkpt>
      <trkpt lat="50.29408" lon="5.04639">
        <ele>238.08392968385</ele>
        <time>2017-03-27T14:10:30Z</time>
      </trkpt>
      <trkpt lat="50.29409" lon="5.04606">
        <ele>234.8303948018</ele>
        <time>2017-03-27T14:10:34Z</time>
      </trkpt>
      <trkpt lat="50.2941" lon="5.04566">
        <ele>233.65131503426</ele>
        <time>2017-03-27T14:10:39Z</time>
      </trkpt>
      <trkpt lat="50.2941" lon="5.0454">
        <ele>237.25519903199</ele>
        <time>2017-03-27T14:10:43Z</time>
      </trkpt>
      <trkpt lat="50.29411" lon="5.04507">
        <ele>244.33925948566</ele>
        <time>2017-03-27T14:10:48Z</time>
      </trkpt>
      <trkpt lat="50.29413" lon="5.04483">
        <ele>245.56274983027</ele>
        <time>2017-03-27T14:10:52Z</time>
      </trkpt>
      <trkpt lat="50.29416" lon="5.04455">
        <ele>246.25183492953</ele>
        <time>2017-03-27T14:10:56Z</time>
      </trkpt>
      <trkpt lat="50.29416" lon="5.04432">
        <ele>245.05710138062</ele>
        <time>2017-03-27T14:11:00Z</time>
      </trkpt>
      <trkpt lat="50.29415" lon="5.04408">
        <ele>247.22677969558</ele>
        <time>2017-03-27T14:11:04Z</time>
      </trkpt>
      <trkpt lat="50.29413" lon="5.04378">
        <ele>249.25179146024</ele>
        <time>2017-03-27T14:11:09Z</time>
      </trkpt>
      <trkpt lat="50.29411" lon="5.04354">
        <ele>249.10563158685</ele>
        <time>2017-03-27T14:11:13Z</time>
      </trkpt>
      <trkpt lat="50.2941" lon="5.04332">
        <ele>253.60465671854</ele>
        <time>2017-03-27T14:11:17Z</time>
      </trkpt>
      <trkpt lat="50.2941" lon="5.04306">
        <ele>257.46060234551</ele>
        <time>2017-03-27T14:11:21Z</time>
      </trkpt>
      <trkpt lat="50.29413" lon="5.04273">
        <ele>260.13079565822</ele>
        <time>2017-03-27T14:11:26Z</time>
      </trkpt>
      <trkpt lat="50.29418" lon="5.04249">
        <ele>261.17123666497</ele>
        <time>2017-03-27T14:11:30Z</time>
      </trkpt>
      <trkpt lat="50.2943" lon="5.04216">
        <ele>262.14496184644</ele>
        <time>2017-03-27T14:11:35Z</time>
      </trkpt>
      <trkpt lat="50.29443" lon="5.04189">
        <ele>262.69920456535</ele>
        <time>2017-03-27T14:11:40Z</time>
      </trkpt>
      <trkpt lat="50.29453" lon="5.04174">
        <ele>263.10693318488</ele>
        <time>2017-03-27T14:11:44Z</time>
      </trkpt>
      <trkpt lat="50.29465" lon="5.04158">
        <ele>265.92196564228</ele>
        <time>2017-03-27T14:11:48Z</time>
      </trkpt>
      <trkpt lat="50.29478" lon="5.04144">
        <ele>269.15681707092</ele>
        <time>2017-03-27T14:11:52Z</time>
      </trkpt>
      <trkpt lat="50.29496" lon="5.04126">
        <ele>275.83450694291</ele>
        <time>2017-03-27T14:11:57Z</time>
      </trkpt>
      <trkpt lat="50.29512" lon="5.04107">
        <ele>280.47084996465</ele>
        <time>2017-03-27T14:12:01Z</time>
      </trkpt>
      <trkpt lat="50.29533" lon="5.04086">
        <ele>285.11247097426</ele>
        <time>2017-03-27T14:12:06Z</time>
      </trkpt>
      <trkpt lat="50.29555" lon="5.04059">
        <ele>278.55764273717</ele>
        <time>2017-03-27T14:12:11Z</time>
      </trkpt>
      <trkpt lat="50.29573" lon="5.04029">
        <ele>277.18528846241</ele>
        <time>2017-03-27T14:12:15Z</time>
      </trkpt>
      <trkpt lat="50.29586" lon="5.03999">
        <ele>276.38646333681</ele>
        <time>2017-03-27T14:12:19Z</time>
      </trkpt>
      <trkpt lat="50.29596" lon="5.03969">
        <ele>275.74216760253</ele>
        <time>2017-03-27T14:12:23Z</time>
      </trkpt>
      <trkpt lat="50.29605" lon="5.03929">
        <ele>272.62769790155</ele>
        <time>2017-03-27T14:12:28Z</time>
      </trkpt>
      <trkpt lat="50.29611" lon="5.03895">
        <ele>271.0108223584</ele>
        <time>2017-03-27T14:12:32Z</time>
      </trkpt>
      <trkpt lat="50.29616" lon="5.03864">
        <ele>272.17323358571</ele>
        <time>2017-03-27T14:12:36Z</time>
      </trkpt>
      <trkpt lat="50.29623" lon="5.03829">
        <ele>271.17541343466</ele>
        <time>2017-03-27T14:12:41Z</time>
      </trkpt>
      <trkpt lat="50.2963" lon="5.03788">
        <ele>275.19417134425</ele>
        <time>2017-03-27T14:12:46Z</time>
      </trkpt>
      <trkpt lat="50.29635" lon="5.03758">
        <ele>278.82484612267</ele>
        <time>2017-03-27T14:12:51Z</time>
      </trkpt>
      <trkpt lat="50.29638" lon="5.0373">
        <ele>284.02080260046</ele>
        <time>2017-03-27T14:12:55Z</time>
      </trkpt>
      <trkpt lat="50.29642" lon="5.03705">
        <ele>287.91641912</ele>
        <time>2017-03-27T14:12:59Z</time>
      </trkpt>
      <trkpt lat="50.29647" lon="5.03677">
        <ele>289.91343279676</ele>
        <time>2017-03-27T14:13:04Z</time>
      </trkpt>
      <trkpt lat="50.2965" lon="5.03655">
        <ele>291.29617189044</ele>
        <time>2017-03-27T14:13:08Z</time>
      </trkpt>
      <trkpt lat="50.2966" lon="5.03627">
        <ele>292.93958986614</ele>
        <time>2017-03-27T14:13:13Z</time>
      </trkpt>
      <trkpt lat="50.29671" lon="5.03606">
        <ele>293.4002915249</ele>
        <time>2017-03-27T14:13:17Z</time>
      </trkpt>
      <trkpt lat="50.29684" lon="5.03582">
        <ele>293.36248936744</ele>
        <time>2017-03-27T14:13:21Z</time>
      </trkpt>
      <trkpt lat="50.297" lon="5.03553">
        <ele>293.93430544894</ele>
        <time>2017-03-27T14:13:25Z</time>
      </trkpt>
      <trkpt lat="50.29716" lon="5.03523">
        <ele>291.81303168897</ele>
        <time>2017-03-27T14:13:29Z</time>
      </trkpt>
      <trkpt lat="50.29737" lon="5.03495">
        <ele>284.56583207211</ele>
        <time>2017-03-27T14:13:34Z</time>
      </trkpt>
      <trkpt lat="50.29755" lon="5.03466">
        <ele>285.24526185042</ele>
        <time>2017-03-27T14:13:38Z</time>
      </trkpt>
      <trkpt lat="50.29777" lon="5.03427">
        <ele>290.54398177728</ele>
        <time>2017-03-27T14:13:43Z</time>
      </trkpt>
      <trkpt lat="50.29803" lon="5.03393">
        <ele>282.49328909235</ele>
        <time>2017-03-27T14:13:48Z</time>
      </trkpt>
      <trkpt lat="50.29823" lon="5.03367">
        <ele>274.6955353705</ele>
        <time>2017-03-27T14:13:52Z</time>
      </trkpt>
      <trkpt lat="50.29847" lon="5.03335">
        <ele>266.64369620075</ele>
        <time>2017-03-27T14:13:57Z</time>
      </trkpt>
      <trkpt lat="50.29864" lon="5.03304">
        <ele>264.22601327691</ele>
        <time>2017-03-27T14:14:01Z</time>
      </trkpt>
      <trkpt lat="50.29888" lon="5.03283">
        <ele>255.23930226609</ele>
        <time>2017-03-27T14:14:05Z</time>
      </trkpt>
      <trkpt lat="50.29915" lon="5.03301">
        <ele>255.04460195111</ele>
        <time>2017-03-27T14:14:10Z</time>
      </trkpt>
      <trkpt lat="50.29942" lon="5.03344">
        <ele>255.4317190267</ele>
        <time>2017-03-27T14:14:15Z</time>
      </trkpt>
      <trkpt lat="50.29964" lon="5.03375">
        <ele>255.54316728848</ele>
        <time>2017-03-27T14:14:19Z</time>
      </trkpt>
      <trkpt lat="50.29984" lon="5.03391">
        <ele>253.33146687157</ele>
        <time>2017-03-27T14:14:23Z</time>
      </trkpt>
      <trkpt lat="50.30009" lon="5.03408">
        <ele>251.30687455865</ele>
        <time>2017-03-27T14:14:28Z</time>
      </trkpt>
      <trkpt lat="50.30031" lon="5.03423">
        <ele>248.90822862759</ele>
        <time>2017-03-27T14:14:32Z</time>
      </trkpt>
      <trkpt lat="50.30068" lon="5.03444">
        <ele>245.28046072458</ele>
        <time>2017-03-27T14:14:37Z</time>
      </trkpt>
      <trkpt lat="50.30099" lon="5.0346">
        <ele>248.80118742567</ele>
        <time>2017-03-27T14:14:41Z</time>
      </trkpt>
      <trkpt lat="50.30129" lon="5.03474">
        <ele>255.97274289723</ele>
        <time>2017-03-27T14:14:45Z</time>
      </trkpt>
      <trkpt lat="50.3017" lon="5.03499">
        <ele>261.16072735121</ele>
        <time>2017-03-27T14:14:50Z</time>
      </trkpt>
      <trkpt lat="50.30201" lon="5.03522">
        <ele>263.28912876861</ele>
        <time>2017-03-27T14:14:54Z</time>
      </trkpt>
      <trkpt lat="50.30237" lon="5.03554">
        <ele>262.07009563104</ele>
        <time>2017-03-27T14:14:59Z</time>
      </trkpt>
      <trkpt lat="50.30265" lon="5.0358">
        <ele>261.26128533039</ele>
        <time>2017-03-27T14:15:03Z</time>
      </trkpt>
      <trkpt lat="50.30292" lon="5.03593">
        <ele>258.24087488611</ele>
        <time>2017-03-27T14:15:07Z</time>
      </trkpt>
      <trkpt lat="50.3033" lon="5.03604">
        <ele>257.19900045523</ele>
        <time>2017-03-27T14:15:12Z</time>
      </trkpt>
      <trkpt lat="50.30363" lon="5.03611">
        <ele>255.98172696278</ele>
        <time>2017-03-27T14:15:16Z</time>
      </trkpt>
      <trkpt lat="50.304" lon="5.03616">
        <ele>252.95555029852</ele>
        <time>2017-03-27T14:15:21Z</time>
      </trkpt>
      <trkpt lat="50.30432" lon="5.03617">
        <ele>249.51631497168</ele>
        <time>2017-03-27T14:15:25Z</time>
      </trkpt>
      <trkpt lat="50.30476" lon="5.03618">
        <ele>241.35829320361</ele>
        <time>2017-03-27T14:15:30Z</time>
      </trkpt>
      <trkpt lat="50.30514" lon="5.03598">
        <ele>238.2549846386</ele>
        <time>2017-03-27T14:15:35Z</time>
      </trkpt>
      <trkpt lat="50.30546" lon="5.03573">
        <ele>236.82821263154</ele>
        <time>2017-03-27T14:15:39Z</time>
      </trkpt>
      <trkpt lat="50.30578" lon="5.03545">
        <ele>236.37298483372</ele>
        <time>2017-03-27T14:15:43Z</time>
      </trkpt>
      <trkpt lat="50.30621" lon="5.0351">
        <ele>233.96001078157</ele>
        <time>2017-03-27T14:15:48Z</time>
      </trkpt>
      <trkpt lat="50.30656" lon="5.03482">
        <ele>233.98952397316</ele>
        <time>2017-03-27T14:15:52Z</time>
      </trkpt>
      <trkpt lat="50.30696" lon="5.03448">
        <ele>235.17199334559</ele>
        <time>2017-03-27T14:15:57Z</time>
      </trkpt>
      <trkpt lat="50.30724" lon="5.03426">
        <ele>232.61374681049</ele>
        <time>2017-03-27T14:16:01Z</time>
      </trkpt>
      <trkpt lat="50.30743" lon="5.03441">
        <ele>227.51943920039</ele>
        <time>2017-03-27T14:16:05Z</time>
      </trkpt>
      <trkpt lat="50.30759" lon="5.03479">
        <ele>235.05560299559</ele>
        <time>2017-03-27T14:16:10Z</time>
      </trkpt>
      <trkpt lat="50.30776" lon="5.03514">
        <ele>245.42753299462</ele>
        <time>2017-03-27T14:16:14Z</time>
      </trkpt>
      <trkpt lat="50.30794" lon="5.03551">
        <ele>255.10161648351</ele>
        <time>2017-03-27T14:16:18Z</time>
      </trkpt>
      <trkpt lat="50.30814" lon="5.03588">
        <ele>255.71136295023</ele>
        <time>2017-03-27T14:16:23Z</time>
      </trkpt>
      <trkpt lat="50.30829" lon="5.03614">
        <ele>253.74114064574</ele>
        <time>2017-03-27T14:16:27Z</time>
      </trkpt>
      <trkpt lat="50.30856" lon="5.03642">
        <ele>257.8788870788</ele>
        <time>2017-03-27T14:16:32Z</time>
      </trkpt>
      <trkpt lat="50.30881" lon="5.03652">
        <ele>256.79930186719</ele>
        <time>2017-03-27T14:16:36Z</time>
      </trkpt>
      <trkpt lat="50.30915" lon="5.03661">
        <ele>248.35779196535</ele>
        <time>2017-03-27T14:16:41Z</time>
      </trkpt>
      <trkpt lat="50.30943" lon="5.03665">
        <ele>245.29047456116</ele>
        <time>2017-03-27T14:16:45Z</time>
      </trkpt>
      <trkpt lat="50.30972" lon="5.0367">
        <ele>247.66127359901</ele>
        <time>2017-03-27T14:16:49Z</time>
      </trkpt>
      <trkpt lat="50.31001" lon="5.03674">
        <ele>247.50917325973</ele>
        <time>2017-03-27T14:16:53Z</time>
      </trkpt>
      <trkpt lat="50.31037" lon="5.03682">
        <ele>246.18781219264</ele>
        <time>2017-03-27T14:16:58Z</time>
      </trkpt>
      <trkpt lat="50.31065" lon="5.03688">
        <ele>247.33772210254</ele>
        <time>2017-03-27T14:17:02Z</time>
      </trkpt>
      <trkpt lat="50.31097" lon="5.03694">
        <ele>247.81804723808</ele>
        <time>2017-03-27T14:17:07Z</time>
      </trkpt>
      <trkpt lat="50.31123" lon="5.03698">
        <ele>247.38836036254</ele>
        <time>2017-03-27T14:17:11Z</time>
      </trkpt>
      <trkpt lat="50.31145" lon="5.03699">
        <ele>247.30306624467</ele>
        <time>2017-03-27T14:17:15Z</time>
      </trkpt>
      <trkpt lat="50.31169" lon="5.03701">
        <ele>249.11621915074</ele>
        <time>2017-03-27T14:17:19Z</time>
      </trkpt>
      <trkpt lat="50.31193" lon="5.03703">
        <ele>248.22226679731</ele>
        <time>2017-03-27T14:17:23Z</time>
      </trkpt>
      <trkpt lat="50.3122" lon="5.03708">
        <ele>251.51813346383</ele>
        <time>2017-03-27T14:17:27Z</time>
      </trkpt>
      <trkpt lat="50.31247" lon="5.03711">
        <ele>251.80223222068</ele>
        <time>2017-03-27T14:17:31Z</time>
      </trkpt>
      <trkpt lat="50.31275" lon="5.03714">
        <ele>250.53777328036</ele>
        <time>2017-03-27T14:17:35Z</time>
      </trkpt>
      <trkpt lat="50.31315" lon="5.03721">
        <ele>245.56087139928</ele>
        <time>2017-03-27T14:17:40Z</time>
      </trkpt>
      <trkpt lat="50.31348" lon="5.03725">
        <ele>241.37683500896</ele>
        <time>2017-03-27T14:17:44Z</time>
      </trkpt>
      <trkpt lat="50.3139" lon="5.03729">
        <ele>236.61099397331</ele>
        <time>2017-03-27T14:17:49Z</time>
      </trkpt>
      <trkpt lat="50.31417" lon="5.03729">
        <ele>232.36937289654</ele>
        <time>2017-03-27T14:17:53Z</time>
      </trkpt>
      <trkpt lat="50.31437" lon="5.03729">
        <ele>234.1897313376</ele>
        <time>2017-03-27T14:17:57Z</time>
      </trkpt>
      <trkpt lat="50.31466" lon="5.03733">
        <ele>233.82725105814</ele>
        <time>2017-03-27T14:18:01Z</time>
      </trkpt>
      <trkpt lat="50.31493" lon="5.03739">
        <ele>233.5277779431</ele>
        <time>2017-03-27T14:18:05Z</time>
      </trkpt>
      <trkpt lat="50.31525" lon="5.0375">
        <ele>233.9063859893</ele>
        <time>2017-03-27T14:18:10Z</time>
      </trkpt>
      <trkpt lat="50.3156" lon="5.03764">
        <ele>234.20116035513</ele>
        <time>2017-03-27T14:18:15Z</time>
      </trkpt>
      <trkpt lat="50.31595" lon="5.03778">
        <ele>236.81685738483</ele>
        <time>2017-03-27T14:18:19Z</time>
      </trkpt>
      <trkpt lat="50.31632" lon="5.038">
        <ele>236.77754774759</ele>
        <time>2017-03-27T14:18:24Z</time>
      </trkpt>
      <trkpt lat="50.31659" lon="5.03812">
        <ele>232.89345726639</ele>
        <time>2017-03-27T14:18:28Z</time>
      </trkpt>
      <trkpt lat="50.31687" lon="5.03825">
        <ele>230.21143175474</ele>
        <time>2017-03-27T14:18:33Z</time>
      </trkpt>
      <trkpt lat="50.31716" lon="5.03827">
        <ele>227.78567719496</ele>
        <time>2017-03-27T14:18:37Z</time>
      </trkpt>
      <trkpt lat="50.31741" lon="5.03821">
        <ele>225.78514380049</ele>
        <time>2017-03-27T14:18:41Z</time>
      </trkpt>
      <trkpt lat="50.31764" lon="5.0385">
        <ele>227.71756365167</ele>
        <time>2017-03-27T14:18:46Z</time>
      </trkpt>
      <trkpt lat="50.3178" lon="5.03887">
        <ele>226.80590962748</ele>
        <time>2017-03-27T14:18:50Z</time>
      </trkpt>
      <trkpt lat="50.31802" lon="5.03918">
        <ele>230.80016043243</ele>
        <time>2017-03-27T14:18:54Z</time>
      </trkpt>
      <trkpt lat="50.31829" lon="5.03947">
        <ele>239.33356763136</ele>
        <time>2017-03-27T14:18:59Z</time>
      </trkpt>
      <trkpt lat="50.31849" lon="5.03965">
        <ele>239.0783294143</ele>
        <time>2017-03-27T14:19:03Z</time>
      </trkpt>
      <trkpt lat="50.31872" lon="5.03985">
        <ele>239.35301183848</ele>
        <time>2017-03-27T14:19:08Z</time>
      </trkpt>
      <trkpt lat="50.31891" lon="5.03999">
        <ele>243.00447111424</ele>
        <time>2017-03-27T14:19:12Z</time>
      </trkpt>
      <trkpt lat="50.31913" lon="5.03991">
        <ele>240.26730022245</ele>
        <time>2017-03-27T14:19:16Z</time>
      </trkpt>
      <trkpt lat="50.31941" lon="5.03975">
        <ele>230.62948083187</ele>
        <time>2017-03-27T14:19:21Z</time>
      </trkpt>
      <trkpt lat="50.31963" lon="5.03963">
        <ele>225.74303551346</ele>
        <time>2017-03-27T14:19:25Z</time>
      </trkpt>
      <trkpt lat="50.31993" lon="5.03949">
        <ele>226.66082604088</ele>
        <time>2017-03-27T14:19:30Z</time>
      </trkpt>
      <trkpt lat="50.32018" lon="5.03945">
        <ele>226.58503842951</ele>
        <time>2017-03-27T14:19:34Z</time>
      </trkpt>
      <trkpt lat="50.32041" lon="5.0395">
        <ele>223.45738712369</ele>
        <time>2017-03-27T14:19:38Z</time>
      </trkpt>
      <trkpt lat="50.32066" lon="5.03959">
        <ele>225.56778034577</ele>
        <time>2017-03-27T14:19:43Z</time>
      </trkpt>
      <trkpt lat="50.32089" lon="5.03968">
        <ele>227.86081402946</ele>
        <time>2017-03-27T14:19:47Z</time>
      </trkpt>
      <trkpt lat="50.32115" lon="5.03983">
        <ele>230.79763837588</ele>
        <time>2017-03-27T14:19:51Z</time>
      </trkpt>
      <trkpt lat="50.32149" lon="5.03994">
        <ele>230.445099612</ele>
        <time>2017-03-27T14:19:56Z</time>
      </trkpt>
      <trkpt lat="50.3218" lon="5.04">
        <ele>233.91654515924</ele>
        <time>2017-03-27T14:20:00Z</time>
      </trkpt>
      <trkpt lat="50.32212" lon="5.04011">
        <ele>235.90481084962</ele>
        <time>2017-03-27T14:20:04Z</time>
      </trkpt>
      <trkpt lat="50.32251" lon="5.04004">
        <ele>238.361901385</ele>
        <time>2017-03-27T14:20:09Z</time>
      </trkpt>
      <trkpt lat="50.32283" lon="5.03995">
        <ele>232.52426248812</ele>
        <time>2017-03-27T14:20:13Z</time>
      </trkpt>
      <trkpt lat="50.32325" lon="5.0399">
        <ele>230.02685828918</ele>
        <time>2017-03-27T14:20:18Z</time>
      </trkpt>
      <trkpt lat="50.32359" lon="5.03973">
        <ele>225.74350795905</ele>
        <time>2017-03-27T14:20:22Z</time>
      </trkpt>
      <trkpt lat="50.32395" lon="5.03953">
        <ele>224.52097098239</ele>
        <time>2017-03-27T14:20:26Z</time>
      </trkpt>
      <trkpt lat="50.3244" lon="5.03939">
        <ele>220.1461781417</ele>
        <time>2017-03-27T14:20:31Z</time>
      </trkpt>
      <trkpt lat="50.32469" lon="5.03924">
        <ele>212.30288448031</ele>
        <time>2017-03-27T14:20:35Z</time>
      </trkpt>
      <trkpt lat="50.32502" lon="5.03874">
        <ele>201.77349110645</ele>
        <time>2017-03-27T14:20:40Z</time>
      </trkpt>
      <trkpt lat="50.32525" lon="5.03831">
        <ele>197.17301812027</ele>
        <time>2017-03-27T14:20:44Z</time>
      </trkpt>
      <trkpt lat="50.32547" lon="5.03789">
        <ele>197.64726134248</ele>
        <time>2017-03-27T14:20:48Z</time>
      </trkpt>
      <trkpt lat="50.3257" lon="5.03762">
        <ele>196.70005788629</ele>
        <time>2017-03-27T14:20:52Z</time>
      </trkpt>
      <trkpt lat="50.32611" lon="5.03759">
        <ele>199.70109946652</ele>
        <time>2017-03-27T14:20:57Z</time>
      </trkpt>
      <trkpt lat="50.3265" lon="5.03772">
        <ele>197.98167377091</ele>
        <time>2017-03-27T14:21:02Z</time>
      </trkpt>
      <trkpt lat="50.32672" lon="5.03778">
        <ele>195.13170396808</ele>
        <time>2017-03-27T14:21:06Z</time>
      </trkpt>
      <trkpt lat="50.32694" lon="5.03795">
        <ele>195.03009135429</ele>
        <time>2017-03-27T14:21:11Z</time>
      </trkpt>
      <trkpt lat="50.32709" lon="5.03806">
        <ele>197.36927143436</ele>
        <time>2017-03-27T14:21:15Z</time>
      </trkpt>
      <trkpt lat="50.32723" lon="5.03812">
        <ele>201.93690335266</ele>
        <time>2017-03-27T14:21:19Z</time>
      </trkpt>
      <trkpt lat="50.32732" lon="5.03816">
        <ele>204.41551751397</ele>
        <time>2017-03-27T14:21:24Z</time>
      </trkpt>
      <trkpt lat="50.32749" lon="5.03814">
        <ele>204.61279282206</ele>
        <time>2017-03-27T14:21:28Z</time>
      </trkpt>
      <trkpt lat="50.32773" lon="5.03814">
        <ele>208.29785993942</ele>
        <time>2017-03-27T14:21:33Z</time>
      </trkpt>
      <trkpt lat="50.32787" lon="5.03812">
        <ele>208.34050501904</ele>
        <time>2017-03-27T14:21:38Z</time>
      </trkpt>
      <trkpt lat="50.32789" lon="5.03789">
        <ele>205.40745615045</ele>
        <time>2017-03-27T14:21:42Z</time>
      </trkpt>
      <trkpt lat="50.3278" lon="5.03762">
        <ele>201.71311755046</ele>
        <time>2017-03-27T14:21:46Z</time>
      </trkpt>
      <trkpt lat="50.32782" lon="5.03729">
        <ele>201.41795223306</ele>
        <time>2017-03-27T14:21:51Z</time>
      </trkpt>
      <trkpt lat="50.32799" lon="5.03716">
        <ele>205.96392510416</ele>
        <time>2017-03-27T14:21:56Z</time>
      </trkpt>
      <trkpt lat="50.32811" lon="5.03722">
        <ele>206.78205603379</ele>
        <time>2017-03-27T14:22:00Z</time>
      </trkpt>
      <trkpt lat="50.32821" lon="5.03746">
        <ele>218.02709577641</ele>
        <time>2017-03-27T14:22:04Z</time>
      </trkpt>
      <trkpt lat="50.32833" lon="5.03774">
        <ele>226.25945000182</ele>
        <time>2017-03-27T14:22:09Z</time>
      </trkpt>
      <trkpt lat="50.32845" lon="5.03802">
        <ele>228.95408747296</ele>
        <time>2017-03-27T14:22:13Z</time>
      </trkpt>
      <trkpt lat="50.32857" lon="5.03833">
        <ele>232.54477608868</ele>
        <time>2017-03-27T14:22:17Z</time>
      </trkpt>
      <trkpt lat="50.32867" lon="5.03862">
        <ele>235.76433853194</ele>
        <time>2017-03-27T14:22:21Z</time>
      </trkpt>
      <trkpt lat="50.32876" lon="5.03895">
        <ele>240.3345418864</ele>
        <time>2017-03-27T14:22:25Z</time>
      </trkpt>
      <trkpt lat="50.32884" lon="5.03931">
        <ele>245.0059356942</ele>
        <time>2017-03-27T14:22:29Z</time>
      </trkpt>
      <trkpt lat="50.3289" lon="5.03966">
        <ele>248.49665461276</ele>
        <time>2017-03-27T14:22:33Z</time>
      </trkpt>
      <trkpt lat="50.32896" lon="5.04007">
        <ele>248.3007763229</ele>
        <time>2017-03-27T14:22:38Z</time>
      </trkpt>
      <trkpt lat="50.32903" lon="5.04044">
        <ele>247.25507761178</ele>
        <time>2017-03-27T14:22:43Z</time>
      </trkpt>
      <trkpt lat="50.32911" lon="5.04072">
        <ele>247.72420733886</ele>
        <time>2017-03-27T14:22:47Z</time>
      </trkpt>
      <trkpt lat="50.32919" lon="5.04101">
        <ele>252.26508537295</ele>
        <time>2017-03-27T14:22:52Z</time>
      </trkpt>
      <trkpt lat="50.32926" lon="5.04128">
        <ele>251.98775812574</ele>
        <time>2017-03-27T14:22:56Z</time>
      </trkpt>
      <trkpt lat="50.32936" lon="5.04156">
        <ele>249.09216107243</ele>
        <time>2017-03-27T14:23:00Z</time>
      </trkpt>
      <trkpt lat="50.32948" lon="5.04192">
        <ele>243.48814690327</ele>
        <time>2017-03-27T14:23:05Z</time>
      </trkpt>
      <trkpt lat="50.32958" lon="5.04221">
        <ele>243.26219680836</ele>
        <time>2017-03-27T14:23:09Z</time>
      </trkpt>
      <trkpt lat="50.3297" lon="5.04258">
        <ele>244.28908537349</ele>
        <time>2017-03-27T14:23:14Z</time>
      </trkpt>
      <trkpt lat="50.32979" lon="5.04288">
        <ele>244.46145781867</ele>
        <time>2017-03-27T14:23:18Z</time>
      </trkpt>
      <trkpt lat="50.32988" lon="5.04322">
        <ele>243.44343946491</ele>
        <time>2017-03-27T14:23:22Z</time>
      </trkpt>
      <trkpt lat="50.32998" lon="5.04361">
        <ele>236.87587277154</ele>
        <time>2017-03-27T14:23:27Z</time>
      </trkpt>
      <trkpt lat="50.33008" lon="5.04398">
        <ele>230.89893315449</ele>
        <time>2017-03-27T14:23:32Z</time>
      </trkpt>
      <trkpt lat="50.33017" lon="5.04427">
        <ele>227.91407445339</ele>
        <time>2017-03-27T14:23:36Z</time>
      </trkpt>
      <trkpt lat="50.33027" lon="5.04464">
        <ele>225.18604947153</ele>
        <time>2017-03-27T14:23:41Z</time>
      </trkpt>
      <trkpt lat="50.33036" lon="5.04487">
        <ele>219.07547798789</ele>
        <time>2017-03-27T14:23:45Z</time>
      </trkpt>
      <trkpt lat="50.33043" lon="5.04525">
        <ele>214.9208462234</ele>
        <time>2017-03-27T14:23:50Z</time>
      </trkpt>
      <trkpt lat="50.33049" lon="5.04564">
        <ele>220.384783663</ele>
        <time>2017-03-27T14:23:54Z</time>
      </trkpt>
      <trkpt lat="50.33059" lon="5.04607">
        <ele>226.95948999361</ele>
        <time>2017-03-27T14:23:58Z</time>
      </trkpt>
      <trkpt lat="50.33072" lon="5.04656">
        <ele>230.91981557934</ele>
        <time>2017-03-27T14:24:02Z</time>
      </trkpt>
      <trkpt lat="50.33092" lon="5.04732">
        <ele>233.03649828081</ele>
        <time>2017-03-27T14:24:07Z</time>
      </trkpt>
      <trkpt lat="50.33105" lon="5.04788">
        <ele>235.12881227904</ele>
        <time>2017-03-27T14:24:11Z</time>
      </trkpt>
      <trkpt lat="50.33116" lon="5.0484">
        <ele>236.01535660971</ele>
        <time>2017-03-27T14:24:15Z</time>
      </trkpt>
      <trkpt lat="50.33128" lon="5.04903">
        <ele>233.43849855056</ele>
        <time>2017-03-27T14:24:20Z</time>
      </trkpt>
      <trkpt lat="50.33137" lon="5.04951">
        <ele>226.91332439814</ele>
        <time>2017-03-27T14:24:25Z</time>
      </trkpt>
      <trkpt lat="50.33147" lon="5.04998">
        <ele>225.46386395629</ele>
        <time>2017-03-27T14:24:30Z</time>
      </trkpt>
      <trkpt lat="50.33155" lon="5.05036">
        <ele>228.15688084888</ele>
        <time>2017-03-27T14:24:34Z</time>
      </trkpt>
      <trkpt lat="50.33165" lon="5.05082">
        <ele>228.61731837292</ele>
        <time>2017-03-27T14:24:39Z</time>
      </trkpt>
      <trkpt lat="50.33172" lon="5.05119">
        <ele>228.0267502875</ele>
        <time>2017-03-27T14:24:43Z</time>
      </trkpt>
      <trkpt lat="50.33179" lon="5.05155">
        <ele>228.43227393284</ele>
        <time>2017-03-27T14:24:47Z</time>
      </trkpt>
      <trkpt lat="50.33185" lon="5.0519">
        <ele>227.9360687934</ele>
        <time>2017-03-27T14:24:51Z</time>
      </trkpt>
      <trkpt lat="50.33192" lon="5.05228">
        <ele>228.71478497557</ele>
        <time>2017-03-27T14:24:55Z</time>
      </trkpt>
      <trkpt lat="50.33198" lon="5.05269">
        <ele>228.88218400246</ele>
        <time>2017-03-27T14:24:59Z</time>
      </trkpt>
      <trkpt lat="50.33204" lon="5.05331">
        <ele>225.98475280092</ele>
        <time>2017-03-27T14:25:04Z</time>
      </trkpt>
      <trkpt lat="50.33208" lon="5.05388">
        <ele>224.81577710198</ele>
        <time>2017-03-27T14:25:08Z</time>
      </trkpt>
      <trkpt lat="50.33213" lon="5.05459">
        <ele>226.05380029541</ele>
        <time>2017-03-27T14:25:13Z</time>
      </trkpt>
      <trkpt lat="50.33217" lon="5.05511">
        <ele>225.18716400841</ele>
        <time>2017-03-27T14:25:17Z</time>
      </trkpt>
      <trkpt lat="50.33222" lon="5.05552">
        <ele>225.02882558963</ele>
        <time>2017-03-27T14:25:21Z</time>
      </trkpt>
      <trkpt lat="50.33229" lon="5.05596">
        <ele>224.64118997633</ele>
        <time>2017-03-27T14:25:26Z</time>
      </trkpt>
      <trkpt lat="50.33241" lon="5.05635">
        <ele>222.73802098704</ele>
        <time>2017-03-27T14:25:31Z</time>
      </trkpt>
      <trkpt lat="50.33252" lon="5.05667">
        <ele>221.46057156322</ele>
        <time>2017-03-27T14:25:35Z</time>
      </trkpt>
      <trkpt lat="50.33264" lon="5.05708">
        <ele>218.25320494974</ele>
        <time>2017-03-27T14:25:40Z</time>
      </trkpt>
      <trkpt lat="50.33272" lon="5.05739">
        <ele>217.8866590805</ele>
        <time>2017-03-27T14:25:44Z</time>
      </trkpt>
      <trkpt lat="50.33283" lon="5.05777">
        <ele>222.27023533808</ele>
        <time>2017-03-27T14:25:49Z</time>
      </trkpt>
      <trkpt lat="50.33294" lon="5.05815">
        <ele>224.09345871884</ele>
        <time>2017-03-27T14:25:54Z</time>
      </trkpt>
      <trkpt lat="50.33303" lon="5.05845">
        <ele>225.81756515147</ele>
        <time>2017-03-27T14:25:58Z</time>
      </trkpt>
      <trkpt lat="50.33313" lon="5.05883">
        <ele>221.29984675396</ele>
        <time>2017-03-27T14:26:03Z</time>
      </trkpt>
      <trkpt lat="50.33324" lon="5.05923">
        <ele>223.15039489916</ele>
        <time>2017-03-27T14:26:08Z</time>
      </trkpt>
      <trkpt lat="50.33333" lon="5.05955">
        <ele>225.73685102485</ele>
        <time>2017-03-27T14:26:12Z</time>
      </trkpt>
      <trkpt lat="50.33344" lon="5.05989">
        <ele>229.05263282294</ele>
        <time>2017-03-27T14:26:17Z</time>
      </trkpt>
      <trkpt lat="50.33351" lon="5.06016">
        <ele>230.26358367128</ele>
        <time>2017-03-27T14:26:21Z</time>
      </trkpt>
      <trkpt lat="50.33361" lon="5.06052">
        <ele>233.60778702826</ele>
        <time>2017-03-27T14:26:26Z</time>
      </trkpt>
      <trkpt lat="50.33371" lon="5.06083">
        <ele>233.52055444138</ele>
        <time>2017-03-27T14:26:31Z</time>
      </trkpt>
      <trkpt lat="50.3338" lon="5.06108">
        <ele>234.41623059223</ele>
        <time>2017-03-27T14:26:35Z</time>
      </trkpt>
      <trkpt lat="50.33391" lon="5.06147">
        <ele>239.2794783579</ele>
        <time>2017-03-27T14:26:40Z</time>
      </trkpt>
      <trkpt lat="50.33399" lon="5.06172">
        <ele>241.48673785443</ele>
        <time>2017-03-27T14:26:44Z</time>
      </trkpt>
      <trkpt lat="50.33403" lon="5.06199">
        <ele>245.1613658003</ele>
        <time>2017-03-27T14:26:49Z</time>
      </trkpt>
      <trkpt lat="50.33392" lon="5.0622">
        <ele>249.94239793937</ele>
        <time>2017-03-27T14:26:53Z</time>
      </trkpt>
      <trkpt lat="50.33378" lon="5.06231">
        <ele>253.40999231629</ele>
        <time>2017-03-27T14:26:57Z</time>
      </trkpt>
      <trkpt lat="50.33363" lon="5.06241">
        <ele>249.65295414497</ele>
        <time>2017-03-27T14:27:01Z</time>
      </trkpt>
      <trkpt lat="50.33347" lon="5.06253">
        <ele>247.29838839599</ele>
        <time>2017-03-27T14:27:05Z</time>
      </trkpt>
      <trkpt lat="50.33331" lon="5.06265">
        <ele>243.3814158654</ele>
        <time>2017-03-27T14:27:09Z</time>
      </trkpt>
      <trkpt lat="50.33315" lon="5.06291">
        <ele>240.01844435531</ele>
        <time>2017-03-27T14:27:14Z</time>
      </trkpt>
      <trkpt lat="50.33313" lon="5.0632">
        <ele>240.25671731385</ele>
        <time>2017-03-27T14:27:18Z</time>
      </trkpt>
      <trkpt lat="50.33314" lon="5.06354">
        <ele>241.56109255416</ele>
        <time>2017-03-27T14:27:23Z</time>
      </trkpt>
      <trkpt lat="50.33316" lon="5.06388">
        <ele>240.90658176376</ele>
        <time>2017-03-27T14:27:28Z</time>
      </trkpt>
      <trkpt lat="50.33327" lon="5.06417">
        <ele>236.44021476638</ele>
        <time>2017-03-27T14:27:33Z</time>
      </trkpt>
      <trkpt lat="50.33343" lon="5.06419">
        <ele>233.45144147654</ele>
        <time>2017-03-27T14:27:37Z</time>
      </trkpt>
      <trkpt lat="50.33358" lon="5.06408">
        <ele>233.82312594215</ele>
        <time>2017-03-27T14:27:41Z</time>
      </trkpt>
      <trkpt lat="50.33371" lon="5.06389">
        <ele>235.45382527049</ele>
        <time>2017-03-27T14:27:46Z</time>
      </trkpt>
      <trkpt lat="50.33387" lon="5.06371">
        <ele>240.68564295464</ele>
        <time>2017-03-27T14:27:50Z</time>
      </trkpt>
      <trkpt lat="50.33408" lon="5.06362">
        <ele>243.91909143187</ele>
        <time>2017-03-27T14:27:54Z</time>
      </trkpt>
      <trkpt lat="50.3344" lon="5.06354">
        <ele>242.77349967028</ele>
        <time>2017-03-27T14:27:59Z</time>
      </trkpt>
      <trkpt lat="50.3346" lon="5.06363">
        <ele>245.1821837187</ele>
        <time>2017-03-27T14:28:03Z</time>
      </trkpt>
      <trkpt lat="50.33479" lon="5.06396">
        <ele>247.6814601076</ele>
        <time>2017-03-27T14:28:08Z</time>
      </trkpt>
      <trkpt lat="50.33496" lon="5.0642">
        <ele>249.63827863413</ele>
        <time>2017-03-27T14:28:12Z</time>
      </trkpt>
      <trkpt lat="50.33512" lon="5.06442">
        <ele>253.86073579559</ele>
        <time>2017-03-27T14:28:16Z</time>
      </trkpt>
      <trkpt lat="50.33526" lon="5.0647">
        <ele>257.06058280109</ele>
        <time>2017-03-27T14:28:20Z</time>
      </trkpt>
      <trkpt lat="50.33539" lon="5.06498">
        <ele>256.68348466479</ele>
        <time>2017-03-27T14:28:25Z</time>
      </trkpt>
      <trkpt lat="50.33566" lon="5.06489">
        <ele>259.89911313622</ele>
        <time>2017-03-27T14:28:30Z</time>
      </trkpt>
      <trkpt lat="50.33587" lon="5.06468">
        <ele>258.74719368424</ele>
        <time>2017-03-27T14:28:34Z</time>
      </trkpt>
      <trkpt lat="50.336" lon="5.06441">
        <ele>257.31848637337</ele>
        <time>2017-03-27T14:28:38Z</time>
      </trkpt>
      <trkpt lat="50.33621" lon="5.06426">
        <ele>253.28724407214</ele>
        <time>2017-03-27T14:28:42Z</time>
      </trkpt>
      <trkpt lat="50.33647" lon="5.06431">
        <ele>242.18417071537</ele>
        <time>2017-03-27T14:28:46Z</time>
      </trkpt>
      <trkpt lat="50.33678" lon="5.0645">
        <ele>237.07789862358</ele>
        <time>2017-03-27T14:28:50Z</time>
      </trkpt>
      <trkpt lat="50.33714" lon="5.06483">
        <ele>233.0194658287</ele>
        <time>2017-03-27T14:28:55Z</time>
      </trkpt>
      <trkpt lat="50.33743" lon="5.06512">
        <ele>229.31628325139</ele>
        <time>2017-03-27T14:28:59Z</time>
      </trkpt>
      <trkpt lat="50.33766" lon="5.06556">
        <ele>225.0102493213</ele>
        <time>2017-03-27T14:29:04Z</time>
      </trkpt>
      <trkpt lat="50.33779" lon="5.06585">
        <ele>218.70203350976</ele>
        <time>2017-03-27T14:29:08Z</time>
      </trkpt>
      <trkpt lat="50.33796" lon="5.06624">
        <ele>217.66594390408</ele>
        <time>2017-03-27T14:29:13Z</time>
      </trkpt>
      <trkpt lat="50.33808" lon="5.06656">
        <ele>217.62706541554</ele>
        <time>2017-03-27T14:29:17Z</time>
      </trkpt>
      <trkpt lat="50.3382" lon="5.06683">
        <ele>217.48505167032</ele>
        <time>2017-03-27T14:29:21Z</time>
      </trkpt>
      <trkpt lat="50.3382" lon="5.06717">
        <ele>221.71749578946</ele>
        <time>2017-03-27T14:29:26Z</time>
      </trkpt>
      <trkpt lat="50.33812" lon="5.06745">
        <ele>224.09219175573</ele>
        <time>2017-03-27T14:29:30Z</time>
      </trkpt>
      <trkpt lat="50.33803" lon="5.06777">
        <ele>229.86442966423</ele>
        <time>2017-03-27T14:29:34Z</time>
      </trkpt>
      <trkpt lat="50.33792" lon="5.06812">
        <ele>233.17443948543</ele>
        <time>2017-03-27T14:29:38Z</time>
      </trkpt>
      <trkpt lat="50.33779" lon="5.06854">
        <ele>236.07975780872</ele>
        <time>2017-03-27T14:29:43Z</time>
      </trkpt>
      <trkpt lat="50.33778" lon="5.06886">
        <ele>237.42434655656</ele>
        <time>2017-03-27T14:29:48Z</time>
      </trkpt>
      <trkpt lat="50.3379" lon="5.06919">
        <ele>239.79954578071</ele>
        <time>2017-03-27T14:29:52Z</time>
      </trkpt>
      <trkpt lat="50.33804" lon="5.06946">
        <ele>238.43511799614</ele>
        <time>2017-03-27T14:29:56Z</time>
      </trkpt>
      <trkpt lat="50.33822" lon="5.06971">
        <ele>232.19925260876</ele>
        <time>2017-03-27T14:30:01Z</time>
      </trkpt>
      <trkpt lat="50.33841" lon="5.06998">
        <ele>230.04231831988</ele>
        <time>2017-03-27T14:30:06Z</time>
      </trkpt>
      <trkpt lat="50.3385" lon="5.07024">
        <ele>228.7501950296</ele>
        <time>2017-03-27T14:30:10Z</time>
      </trkpt>
      <trkpt lat="50.33861" lon="5.07062">
        <ele>228.11295135446</ele>
        <time>2017-03-27T14:30:15Z</time>
      </trkpt>
      <trkpt lat="50.3387" lon="5.07093">
        <ele>230.0971824621</ele>
        <time>2017-03-27T14:30:19Z</time>
      </trkpt>
      <trkpt lat="50.3388" lon="5.0713">
        <ele>232.80420948166</ele>
        <time>2017-03-27T14:30:24Z</time>
      </trkpt>
      <trkpt lat="50.33887" lon="5.07161">
        <ele>235.08969666253</ele>
        <time>2017-03-27T14:30:28Z</time>
      </trkpt>
      <trkpt lat="50.33895" lon="5.07193">
        <ele>237.4011524248</ele>
        <time>2017-03-27T14:30:32Z</time>
      </trkpt>
      <trkpt lat="50.33903" lon="5.07223">
        <ele>240.35401409947</ele>
        <time>2017-03-27T14:30:36Z</time>
      </trkpt>
      <trkpt lat="50.33912" lon="5.0726">
        <ele>243.44552982312</ele>
        <time>2017-03-27T14:30:41Z</time>
      </trkpt>
      <trkpt lat="50.33919" lon="5.07289">
        <ele>246.10862374685</ele>
        <time>2017-03-27T14:30:45Z</time>
      </trkpt>
      <trkpt lat="50.33925" lon="5.07323">
        <ele>249.93765571021</ele>
        <time>2017-03-27T14:30:50Z</time>
      </trkpt>
      <trkpt lat="50.33929" lon="5.0735">
        <ele>251.37586886173</ele>
        <time>2017-03-27T14:30:54Z</time>
      </trkpt>
      <trkpt lat="50.33934" lon="5.07383">
        <ele>248.32271336479</ele>
        <time>2017-03-27T14:30:58Z</time>
      </trkpt>
      <trkpt lat="50.33939" lon="5.07414">
        <ele>246.62594765027</ele>
        <time>2017-03-27T14:31:02Z</time>
      </trkpt>
      <trkpt lat="50.33945" lon="5.07454">
        <ele>247.60321626274</ele>
        <time>2017-03-27T14:31:07Z</time>
      </trkpt>
      <trkpt lat="50.33952" lon="5.07483">
        <ele>246.93693628428</ele>
        <time>2017-03-27T14:31:11Z</time>
      </trkpt>
      <trkpt lat="50.33959" lon="5.07506">
        <ele>245.53676955437</ele>
        <time>2017-03-27T14:31:15Z</time>
      </trkpt>
      <trkpt lat="50.3397" lon="5.07543">
        <ele>245.53684318288</ele>
        <time>2017-03-27T14:31:20Z</time>
      </trkpt>
      <trkpt lat="50.3398" lon="5.07568">
        <ele>244.33546166588</ele>
        <time>2017-03-27T14:31:24Z</time>
      </trkpt>
      <trkpt lat="50.33993" lon="5.07599">
        <ele>244.77406429238</ele>
        <time>2017-03-27T14:31:29Z</time>
      </trkpt>
      <trkpt lat="50.34004" lon="5.07631">
        <ele>245.60236659638</ele>
        <time>2017-03-27T14:31:33Z</time>
      </trkpt>
      <trkpt lat="50.34015" lon="5.07659">
        <ele>246.75914990091</ele>
        <time>2017-03-27T14:31:37Z</time>
      </trkpt>
      <trkpt lat="50.34027" lon="5.07688">
        <ele>247.47226800466</ele>
        <time>2017-03-27T14:31:42Z</time>
      </trkpt>
      <trkpt lat="50.34037" lon="5.07706">
        <ele>250.72876470131</ele>
        <time>2017-03-27T14:31:46Z</time>
      </trkpt>
      <trkpt lat="50.34047" lon="5.07728">
        <ele>258.06830683978</ele>
        <time>2017-03-27T14:31:50Z</time>
      </trkpt>
      <trkpt lat="50.34058" lon="5.07752">
        <ele>265.2319213324</ele>
        <time>2017-03-27T14:31:54Z</time>
      </trkpt>
      <trkpt lat="50.34072" lon="5.07792">
        <ele>268.14220652295</ele>
        <time>2017-03-27T14:31:59Z</time>
      </trkpt>
      <trkpt lat="50.34085" lon="5.07837">
        <ele>269.38995467862</ele>
        <time>2017-03-27T14:32:04Z</time>
      </trkpt>
      <trkpt lat="50.34095" lon="5.07872">
        <ele>268.31427594647</ele>
        <time>2017-03-27T14:32:08Z</time>
      </trkpt>
      <trkpt lat="50.34105" lon="5.07903">
        <ele>267.26109137608</ele>
        <time>2017-03-27T14:32:12Z</time>
      </trkpt>
      <trkpt lat="50.34112" lon="5.07933">
        <ele>265.6868599004</ele>
        <time>2017-03-27T14:32:16Z</time>
      </trkpt>
      <trkpt lat="50.34108" lon="5.07955">
        <ele>259.43190582296</ele>
        <time>2017-03-27T14:32:20Z</time>
      </trkpt>
      <trkpt lat="50.34096" lon="5.07955">
        <ele>257.72857727612</ele>
        <time>2017-03-27T14:32:24Z</time>
      </trkpt>
      <trkpt lat="50.34075" lon="5.0796">
        <ele>257.30121527734</ele>
        <time>2017-03-27T14:32:28Z</time>
      </trkpt>
      <trkpt lat="50.34053" lon="5.07968">
        <ele>253.88868425551</ele>
        <time>2017-03-27T14:32:32Z</time>
      </trkpt>
      <trkpt lat="50.3403" lon="5.0799">
        <ele>252.91967662587</ele>
        <time>2017-03-27T14:32:36Z</time>
      </trkpt>
      <trkpt lat="50.34023" lon="5.08032">
        <ele>257.51803322815</ele>
        <time>2017-03-27T14:32:40Z</time>
      </trkpt>
      <trkpt lat="50.34032" lon="5.08077">
        <ele>258.72046655144</ele>
        <time>2017-03-27T14:32:44Z</time>
      </trkpt>
      <trkpt lat="50.34044" lon="5.08114">
        <ele>257.17287816918</ele>
        <time>2017-03-27T14:32:48Z</time>
      </trkpt>
      <trkpt lat="50.34058" lon="5.0815">
        <ele>256.78144194937</ele>
        <time>2017-03-27T14:32:52Z</time>
      </trkpt>
      <trkpt lat="50.34072" lon="5.08189">
        <ele>255.38977120301</ele>
        <time>2017-03-27T14:32:56Z</time>
      </trkpt>
      <trkpt lat="50.34086" lon="5.08243">
        <ele>253.66235706331</ele>
        <time>2017-03-27T14:33:01Z</time>
      </trkpt>
      <trkpt lat="50.34094" lon="5.08294">
        <ele>254.25005952552</ele>
        <time>2017-03-27T14:33:05Z</time>
      </trkpt>
      <trkpt lat="50.34111" lon="5.08359">
        <ele>255.7310214392</ele>
        <time>2017-03-27T14:33:10Z</time>
      </trkpt>
      <trkpt lat="50.34129" lon="5.08417">
        <ele>255.65506163579</ele>
        <time>2017-03-27T14:33:15Z</time>
      </trkpt>
      <trkpt lat="50.34148" lon="5.08465">
        <ele>260.62421352502</ele>
        <time>2017-03-27T14:33:19Z</time>
      </trkpt>
      <trkpt lat="50.34168" lon="5.08521">
        <ele>261.58599568696</ele>
        <time>2017-03-27T14:33:24Z</time>
      </trkpt>
      <trkpt lat="50.3418" lon="5.08567">
        <ele>259.89383977997</ele>
        <time>2017-03-27T14:33:28Z</time>
      </trkpt>
      <trkpt lat="50.34196" lon="5.08616">
        <ele>255.5152420098</ele>
        <time>2017-03-27T14:33:33Z</time>
      </trkpt>
      <trkpt lat="50.34207" lon="5.08656">
        <ele>252.88590582099</ele>
        <time>2017-03-27T14:33:37Z</time>
      </trkpt>
      <trkpt lat="50.34216" lon="5.08693">
        <ele>250.87409944154</ele>
        <time>2017-03-27T14:33:41Z</time>
      </trkpt>
      <trkpt lat="50.34222" lon="5.08719">
        <ele>248.06514802408</ele>
        <time>2017-03-27T14:33:45Z</time>
      </trkpt>
      <trkpt lat="50.34231" lon="5.08759">
        <ele>242.89505708389</ele>
        <time>2017-03-27T14:33:50Z</time>
      </trkpt>
      <trkpt lat="50.3424" lon="5.08799">
        <ele>239.67584555402</ele>
        <time>2017-03-27T14:33:55Z</time>
      </trkpt>
      <trkpt lat="50.3425" lon="5.08832">
        <ele>235.00217845398</ele>
        <time>2017-03-27T14:34:00Z</time>
      </trkpt>
      <trkpt lat="50.34259" lon="5.08873">
        <ele>234.37768677376</ele>
        <time>2017-03-27T14:34:05Z</time>
      </trkpt>
      <trkpt lat="50.3427" lon="5.08902">
        <ele>233.226966283</ele>
        <time>2017-03-27T14:34:09Z</time>
      </trkpt>
      <trkpt lat="50.34282" lon="5.08939">
        <ele>234.29605809831</ele>
        <time>2017-03-27T14:34:14Z</time>
      </trkpt>
      <trkpt lat="50.34302" lon="5.08966">
        <ele>234.37213776437</ele>
        <time>2017-03-27T14:34:19Z</time>
      </trkpt>
      <trkpt lat="50.3432" lon="5.08975">
        <ele>240.57552419759</ele>
        <time>2017-03-27T14:34:23Z</time>
      </trkpt>
      <trkpt lat="50.34351" lon="5.08986">
        <ele>251.13381497449</ele>
        <time>2017-03-27T14:34:28Z</time>
      </trkpt>
      <trkpt lat="50.34369" lon="5.09002">
        <ele>256.92241994647</ele>
        <time>2017-03-27T14:34:32Z</time>
      </trkpt>
      <trkpt lat="50.34384" lon="5.09038">
        <ele>261.99860684842</ele>
        <time>2017-03-27T14:34:37Z</time>
      </trkpt>
      <trkpt lat="50.34399" lon="5.09071">
        <ele>258.43534044591</ele>
        <time>2017-03-27T14:34:41Z</time>
      </trkpt>
      <trkpt lat="50.34417" lon="5.0911">
        <ele>258.5050936702</ele>
        <time>2017-03-27T14:34:46Z</time>
      </trkpt>
      <trkpt lat="50.34436" lon="5.09146">
        <ele>258.69194847238</ele>
        <time>2017-03-27T14:34:51Z</time>
      </trkpt>
      <trkpt lat="50.34453" lon="5.09175">
        <ele>259.56266175321</ele>
        <time>2017-03-27T14:34:55Z</time>
      </trkpt>
      <trkpt lat="50.3447" lon="5.09201">
        <ele>261.51757528825</ele>
        <time>2017-03-27T14:34:59Z</time>
      </trkpt>
      <trkpt lat="50.34479" lon="5.09256">
        <ele>260.10392533234</ele>
        <time>2017-03-27T14:35:04Z</time>
      </trkpt>
      <trkpt lat="50.34488" lon="5.09312">
        <ele>259.61148839159</ele>
        <time>2017-03-27T14:35:08Z</time>
      </trkpt>
      <trkpt lat="50.34505" lon="5.09359">
        <ele>259.16371825853</ele>
        <time>2017-03-27T14:35:12Z</time>
      </trkpt>
      <trkpt lat="50.34519" lon="5.09391">
        <ele>256.65221376453</ele>
        <time>2017-03-27T14:35:16Z</time>
      </trkpt>
      <trkpt lat="50.34531" lon="5.09426">
        <ele>254.19553181384</ele>
        <time>2017-03-27T14:35:21Z</time>
      </trkpt>
      <trkpt lat="50.34525" lon="5.09462">
        <ele>253.8704953992</ele>
        <time>2017-03-27T14:35:25Z</time>
      </trkpt>
      <trkpt lat="50.34511" lon="5.09494">
        <ele>249.32075683821</ele>
        <time>2017-03-27T14:35:30Z</time>
      </trkpt>
      <trkpt lat="50.34499" lon="5.09526">
        <ele>245.25919235174</ele>
        <time>2017-03-27T14:35:34Z</time>
      </trkpt>
      <trkpt lat="50.34495" lon="5.09558">
        <ele>238.42439919406</ele>
        <time>2017-03-27T14:35:38Z</time>
      </trkpt>
      <trkpt lat="50.34497" lon="5.09594">
        <ele>236.6474627511</ele>
        <time>2017-03-27T14:35:42Z</time>
      </trkpt>
      <trkpt lat="50.345" lon="5.09628">
        <ele>241.52520614829</ele>
        <time>2017-03-27T14:35:46Z</time>
      </trkpt>
      <trkpt lat="50.34504" lon="5.09664">
        <ele>243.81268793314</ele>
        <time>2017-03-27T14:35:51Z</time>
      </trkpt>
      <trkpt lat="50.34507" lon="5.09699">
        <ele>247.18062592016</ele>
        <time>2017-03-27T14:35:55Z</time>
      </trkpt>
      <trkpt lat="50.34511" lon="5.09744">
        <ele>250.68299495685</ele>
        <time>2017-03-27T14:36:00Z</time>
      </trkpt>
      <trkpt lat="50.34514" lon="5.09781">
        <ele>253.30797892279</ele>
        <time>2017-03-27T14:36:04Z</time>
      </trkpt>
      <trkpt lat="50.34519" lon="5.09826">
        <ele>254.34731175044</ele>
        <time>2017-03-27T14:36:09Z</time>
      </trkpt>
      <trkpt lat="50.34524" lon="5.09865">
        <ele>257.16363358737</ele>
        <time>2017-03-27T14:36:13Z</time>
      </trkpt>
      <trkpt lat="50.3453" lon="5.09913">
        <ele>259.92962245719</ele>
        <time>2017-03-27T14:36:18Z</time>
      </trkpt>
      <trkpt lat="50.34537" lon="5.09955">
        <ele>258.31881167363</ele>
        <time>2017-03-27T14:36:22Z</time>
      </trkpt>
      <trkpt lat="50.34542" lon="5.10005">
        <ele>255.24109295524</ele>
        <time>2017-03-27T14:36:26Z</time>
      </trkpt>
      <trkpt lat="50.34545" lon="5.10063">
        <ele>254.19506854099</ele>
        <time>2017-03-27T14:36:31Z</time>
      </trkpt>
      <trkpt lat="50.34546" lon="5.10104">
        <ele>254.63939698407</ele>
        <time>2017-03-27T14:36:35Z</time>
      </trkpt>
      <trkpt lat="50.34547" lon="5.10155">
        <ele>256.16136213793</ele>
        <time>2017-03-27T14:36:40Z</time>
      </trkpt>
      <trkpt lat="50.3455" lon="5.10194">
        <ele>257.27684646811</ele>
        <time>2017-03-27T14:36:44Z</time>
      </trkpt>
      <trkpt lat="50.34555" lon="5.10226">
        <ele>258.20261064683</ele>
        <time>2017-03-27T14:36:48Z</time>
      </trkpt>
      <trkpt lat="50.34563" lon="5.1025">
        <ele>257.36001431829</ele>
        <time>2017-03-27T14:36:53Z</time>
      </trkpt>
      <trkpt lat="50.34571" lon="5.10281">
        <ele>258.06795749859</ele>
        <time>2017-03-27T14:36:58Z</time>
      </trkpt>
      <trkpt lat="50.34579" lon="5.10314">
        <ele>259.50436195063</ele>
        <time>2017-03-27T14:37:02Z</time>
      </trkpt>
      <trkpt lat="50.34592" lon="5.1036">
        <ele>261.65438767771</ele>
        <time>2017-03-27T14:37:07Z</time>
      </trkpt>
      <trkpt lat="50.34605" lon="5.10406">
        <ele>260.23537202655</ele>
        <time>2017-03-27T14:37:12Z</time>
      </trkpt>
      <trkpt lat="50.34618" lon="5.1045">
        <ele>256.3975903744</ele>
        <time>2017-03-27T14:37:17Z</time>
      </trkpt>
      <trkpt lat="50.3463" lon="5.1049">
        <ele>251.38950348085</ele>
        <time>2017-03-27T14:37:21Z</time>
      </trkpt>
      <trkpt lat="50.34642" lon="5.1053">
        <ele>245.66916190743</ele>
        <time>2017-03-27T14:37:26Z</time>
      </trkpt>
      <trkpt lat="50.34647" lon="5.10544">
        <ele>244.85263739368</ele>
        <time>2017-03-27T14:37:30Z</time>
      </trkpt>
      <trkpt lat="50.34652" lon="5.10548">
        <ele>241.65233160519</ele>
        <time>2017-03-27T14:37:58Z</time>
      </trkpt>
      <trkpt lat="50.3466" lon="5.10571">
        <ele>233.57258491053</ele>
        <time>2017-03-27T14:38:03Z</time>
      </trkpt>
      <trkpt lat="50.34657" lon="5.10595">
        <ele>227.18225110062</ele>
        <time>2017-03-27T14:38:07Z</time>
      </trkpt>
      <trkpt lat="50.34654" lon="5.10616">
        <ele>225.70493522771</ele>
        <time>2017-03-27T14:38:11Z</time>
      </trkpt>
      <trkpt lat="50.34653" lon="5.10636">
        <ele>225.41588818355</ele>
        <time>2017-03-27T14:38:15Z</time>
      </trkpt>
      <trkpt lat="50.34656" lon="5.1066">
        <ele>226.45181990576</ele>
        <time>2017-03-27T14:38:20Z</time>
      </trkpt>
      <trkpt lat="50.34663" lon="5.10692">
        <ele>232.52190908274</ele>
        <time>2017-03-27T14:38:25Z</time>
      </trkpt>
      <trkpt lat="50.34668" lon="5.10723">
        <ele>238.57471690892</ele>
        <time>2017-03-27T14:38:29Z</time>
      </trkpt>
      <trkpt lat="50.34674" lon="5.10763">
        <ele>246.1251286933</ele>
        <time>2017-03-27T14:38:34Z</time>
      </trkpt>
      <trkpt lat="50.34681" lon="5.10788">
        <ele>252.19315115857</ele>
        <time>2017-03-27T14:38:38Z</time>
      </trkpt>
      <trkpt lat="50.34687" lon="5.10816">
        <ele>253.67233814224</ele>
        <time>2017-03-27T14:38:42Z</time>
      </trkpt>
      <trkpt lat="50.34692" lon="5.10848">
        <ele>250.52897371479</ele>
        <time>2017-03-27T14:38:46Z</time>
      </trkpt>
      <trkpt lat="50.34699" lon="5.10888">
        <ele>256.03074634679</ele>
        <time>2017-03-27T14:38:51Z</time>
      </trkpt>
      <trkpt lat="50.34708" lon="5.10923">
        <ele>265.54018375901</ele>
        <time>2017-03-27T14:38:55Z</time>
      </trkpt>
      <trkpt lat="50.34719" lon="5.10965">
        <ele>274.81099036318</ele>
        <time>2017-03-27T14:39:00Z</time>
      </trkpt>
      <trkpt lat="50.34729" lon="5.11001">
        <ele>279.65255446322</ele>
        <time>2017-03-27T14:39:04Z</time>
      </trkpt>
      <trkpt lat="50.34739" lon="5.11046">
        <ele>282.79137670258</ele>
        <time>2017-03-27T14:39:09Z</time>
      </trkpt>
      <trkpt lat="50.3475" lon="5.11093">
        <ele>286.28467567775</ele>
        <time>2017-03-27T14:39:14Z</time>
      </trkpt>
      <trkpt lat="50.34761" lon="5.11138">
        <ele>288.06252771799</ele>
        <time>2017-03-27T14:39:19Z</time>
      </trkpt>
      <trkpt lat="50.34769" lon="5.11177">
        <ele>287.67079790204</ele>
        <time>2017-03-27T14:39:23Z</time>
      </trkpt>
      <trkpt lat="50.34777" lon="5.11222">
        <ele>284.14572458629</ele>
        <time>2017-03-27T14:39:28Z</time>
      </trkpt>
      <trkpt lat="50.34785" lon="5.11261">
        <ele>281.23872030533</ele>
        <time>2017-03-27T14:39:33Z</time>
      </trkpt>
      <trkpt lat="50.3479" lon="5.11301">
        <ele>276.36147383068</ele>
        <time>2017-03-27T14:39:38Z</time>
      </trkpt>
      <trkpt lat="50.34796" lon="5.11331">
        <ele>273.06545299951</ele>
        <time>2017-03-27T14:39:42Z</time>
      </trkpt>
      <trkpt lat="50.34805" lon="5.1135">
        <ele>269.44105399404</ele>
        <time>2017-03-27T14:39:46Z</time>
      </trkpt>
      <trkpt lat="50.34813" lon="5.11375">
        <ele>270.88000378571</ele>
        <time>2017-03-27T14:39:50Z</time>
      </trkpt>
      <trkpt lat="50.34824" lon="5.11398">
        <ele>273.81629011448</ele>
        <time>2017-03-27T14:39:54Z</time>
      </trkpt>
      <trkpt lat="50.34835" lon="5.11419">
        <ele>275.13504952621</ele>
        <time>2017-03-27T14:39:58Z</time>
      </trkpt>
      <trkpt lat="50.34849" lon="5.1145">
        <ele>274.47054108733</ele>
        <time>2017-03-27T14:40:03Z</time>
      </trkpt>
      <trkpt lat="50.34862" lon="5.11495">
        <ele>277.55282269603</ele>
        <time>2017-03-27T14:40:08Z</time>
      </trkpt>
      <trkpt lat="50.34873" lon="5.11534">
        <ele>278.35612248553</ele>
        <time>2017-03-27T14:40:12Z</time>
      </trkpt>
      <trkpt lat="50.34886" lon="5.11567">
        <ele>276.29760066583</ele>
        <time>2017-03-27T14:40:16Z</time>
      </trkpt>
      <trkpt lat="50.34905" lon="5.116">
        <ele>270.1626749495</ele>
        <time>2017-03-27T14:40:21Z</time>
      </trkpt>
      <trkpt lat="50.34921" lon="5.11626">
        <ele>271.80870738341</ele>
        <time>2017-03-27T14:40:25Z</time>
      </trkpt>
      <trkpt lat="50.34935" lon="5.11667">
        <ele>270.20344893239</ele>
        <time>2017-03-27T14:40:30Z</time>
      </trkpt>
      <trkpt lat="50.34942" lon="5.11694">
        <ele>262.19412554129</ele>
        <time>2017-03-27T14:40:34Z</time>
      </trkpt>
      <trkpt lat="50.34949" lon="5.11731">
        <ele>255.14275293189</ele>
        <time>2017-03-27T14:40:38Z</time>
      </trkpt>
      <trkpt lat="50.34955" lon="5.1177">
        <ele>257.64586675294</ele>
        <time>2017-03-27T14:40:42Z</time>
      </trkpt>
      <trkpt lat="50.3496" lon="5.1181">
        <ele>261.22689334627</ele>
        <time>2017-03-27T14:40:46Z</time>
      </trkpt>
      <trkpt lat="50.34962" lon="5.11852">
        <ele>263.95201588888</ele>
        <time>2017-03-27T14:40:50Z</time>
      </trkpt>
      <trkpt lat="50.34962" lon="5.11884">
        <ele>264.96470396066</ele>
        <time>2017-03-27T14:40:54Z</time>
      </trkpt>
      <trkpt lat="50.34966" lon="5.11914">
        <ele>263.42706419152</ele>
        <time>2017-03-27T14:40:58Z</time>
      </trkpt>
      <trkpt lat="50.34978" lon="5.11944">
        <ele>262.73729655794</ele>
        <time>2017-03-27T14:41:03Z</time>
      </trkpt>
      <trkpt lat="50.34991" lon="5.11969">
        <ele>268.37668671632</ele>
        <time>2017-03-27T14:41:07Z</time>
      </trkpt>
      <trkpt lat="50.35005" lon="5.11982">
        <ele>270.44274809125</ele>
        <time>2017-03-27T14:41:11Z</time>
      </trkpt>
      <trkpt lat="50.35023" lon="5.1199">
        <ele>271.40658792661</ele>
        <time>2017-03-27T14:41:15Z</time>
      </trkpt>
      <trkpt lat="50.35043" lon="5.12">
        <ele>267.37225752707</ele>
        <time>2017-03-27T14:41:20Z</time>
      </trkpt>
      <trkpt lat="50.35059" lon="5.1201">
        <ele>264.09235148374</ele>
        <time>2017-03-27T14:41:24Z</time>
      </trkpt>
      <trkpt lat="50.35074" lon="5.12021">
        <ele>263.93067053594</ele>
        <time>2017-03-27T14:41:28Z</time>
      </trkpt>
      <trkpt lat="50.35095" lon="5.12038">
        <ele>267.2508896139</ele>
        <time>2017-03-27T14:41:33Z</time>
      </trkpt>
      <trkpt lat="50.35115" lon="5.1205">
        <ele>268.13964153159</ele>
        <time>2017-03-27T14:41:37Z</time>
      </trkpt>
      <trkpt lat="50.35138" lon="5.12072">
        <ele>268.19909344584</ele>
        <time>2017-03-27T14:41:42Z</time>
      </trkpt>
      <trkpt lat="50.35159" lon="5.12101">
        <ele>270.83855949746</ele>
        <time>2017-03-27T14:41:47Z</time>
      </trkpt>
      <trkpt lat="50.35174" lon="5.12121">
        <ele>269.4079436221</ele>
        <time>2017-03-27T14:41:51Z</time>
      </trkpt>
      <trkpt lat="50.35192" lon="5.12144">
        <ele>272.90789087888</ele>
        <time>2017-03-27T14:41:56Z</time>
      </trkpt>
      <trkpt lat="50.35208" lon="5.12166">
        <ele>277.6188478885</ele>
        <time>2017-03-27T14:42:00Z</time>
      </trkpt>
      <trkpt lat="50.35226" lon="5.12185">
        <ele>281.45281434334</ele>
        <time>2017-03-27T14:42:04Z</time>
      </trkpt>
      <trkpt lat="50.35249" lon="5.12198">
        <ele>283.52574812902</ele>
        <time>2017-03-27T14:42:08Z</time>
      </trkpt>
      <trkpt lat="50.35274" lon="5.12213">
        <ele>284.11016197617</ele>
        <time>2017-03-27T14:42:12Z</time>
      </trkpt>
      <trkpt lat="50.35307" lon="5.12228">
        <ele>281.99628024844</ele>
        <time>2017-03-27T14:42:17Z</time>
      </trkpt>
      <trkpt lat="50.35336" lon="5.1223">
        <ele>275.72934867572</ele>
        <time>2017-03-27T14:42:21Z</time>
      </trkpt>
      <trkpt lat="50.35365" lon="5.12222">
        <ele>267.47476660178</ele>
        <time>2017-03-27T14:42:25Z</time>
      </trkpt>
      <trkpt lat="50.35392" lon="5.12205">
        <ele>262.62478654384</ele>
        <time>2017-03-27T14:42:29Z</time>
      </trkpt>
      <trkpt lat="50.35427" lon="5.12206">
        <ele>265.22865613224</ele>
        <time>2017-03-27T14:42:34Z</time>
      </trkpt>
      <trkpt lat="50.35448" lon="5.12232">
        <ele>264.28488451547</ele>
        <time>2017-03-27T14:42:39Z</time>
      </trkpt>
      <trkpt lat="50.35464" lon="5.12244">
        <ele>259.03393101123</ele>
        <time>2017-03-27T14:42:43Z</time>
      </trkpt>
      <trkpt lat="50.35493" lon="5.12254">
        <ele>252.54586629786</ele>
        <time>2017-03-27T14:42:48Z</time>
      </trkpt>
      <trkpt lat="50.35523" lon="5.12266">
        <ele>250.59353993083</ele>
        <time>2017-03-27T14:42:53Z</time>
      </trkpt>
      <trkpt lat="50.35544" lon="5.12266">
        <ele>250.52637232332</ele>
        <time>2017-03-27T14:42:57Z</time>
      </trkpt>
      <trkpt lat="50.35566" lon="5.12265">
        <ele>251.25913678049</ele>
        <time>2017-03-27T14:43:01Z</time>
      </trkpt>
      <trkpt lat="50.35588" lon="5.1226">
        <ele>256.01389060893</ele>
        <time>2017-03-27T14:43:05Z</time>
      </trkpt>
      <trkpt lat="50.35611" lon="5.12257">
        <ele>262.80924875381</ele>
        <time>2017-03-27T14:43:09Z</time>
      </trkpt>
      <trkpt lat="50.35639" lon="5.12255">
        <ele>269.14246937766</ele>
        <time>2017-03-27T14:43:14Z</time>
      </trkpt>
      <trkpt lat="50.35663" lon="5.12253">
        <ele>274.80571829027</ele>
        <time>2017-03-27T14:43:19Z</time>
      </trkpt>
      <trkpt lat="50.35684" lon="5.12251">
        <ele>275.05687996483</ele>
        <time>2017-03-27T14:43:23Z</time>
      </trkpt>
      <trkpt lat="50.3571" lon="5.12251">
        <ele>274.35411406896</ele>
        <time>2017-03-27T14:43:28Z</time>
      </trkpt>
      <trkpt lat="50.35728" lon="5.1225">
        <ele>272.18178243431</ele>
        <time>2017-03-27T14:43:32Z</time>
      </trkpt>
      <trkpt lat="50.35744" lon="5.12249">
        <ele>270.35010689063</ele>
        <time>2017-03-27T14:43:36Z</time>
      </trkpt>
      <trkpt lat="50.35758" lon="5.12256">
        <ele>272.57933939068</ele>
        <time>2017-03-27T14:43:40Z</time>
      </trkpt>
      <trkpt lat="50.35771" lon="5.12271">
        <ele>275.638843271</ele>
        <time>2017-03-27T14:43:44Z</time>
      </trkpt>
      <trkpt lat="50.35787" lon="5.12302">
        <ele>276.16503985945</ele>
        <time>2017-03-27T14:43:49Z</time>
      </trkpt>
      <trkpt lat="50.35803" lon="5.12329">
        <ele>277.93421012597</ele>
        <time>2017-03-27T14:43:53Z</time>
      </trkpt>
      <trkpt lat="50.35833" lon="5.12366">
        <ele>281.47765021487</ele>
        <time>2017-03-27T14:43:58Z</time>
      </trkpt>
      <trkpt lat="50.35854" lon="5.12399">
        <ele>278.32807210255</ele>
        <time>2017-03-27T14:44:02Z</time>
      </trkpt>
      <trkpt lat="50.35877" lon="5.1243">
        <ele>275.89546734244</ele>
        <time>2017-03-27T14:44:07Z</time>
      </trkpt>
      <trkpt lat="50.35884" lon="5.12462">
        <ele>274.75550057395</ele>
        <time>2017-03-27T14:44:12Z</time>
      </trkpt>
      <trkpt lat="50.35878" lon="5.12492">
        <ele>270.0480115552</ele>
        <time>2017-03-27T14:44:16Z</time>
      </trkpt>
      <trkpt lat="50.35866" lon="5.12542">
        <ele>268.52453972462</ele>
        <time>2017-03-27T14:44:21Z</time>
      </trkpt>
      <trkpt lat="50.35852" lon="5.12596">
        <ele>275.32923960326</ele>
        <time>2017-03-27T14:44:26Z</time>
      </trkpt>
      <trkpt lat="50.35842" lon="5.12628">
        <ele>273.78066430766</ele>
        <time>2017-03-27T14:44:30Z</time>
      </trkpt>
      <trkpt lat="50.35827" lon="5.12659">
        <ele>268.98302982208</ele>
        <time>2017-03-27T14:44:35Z</time>
      </trkpt>
      <trkpt lat="50.35808" lon="5.1268">
        <ele>266.02164906905</ele>
        <time>2017-03-27T14:44:39Z</time>
      </trkpt>
      <trkpt lat="50.35783" lon="5.12702">
        <ele>264.41676578951</ele>
        <time>2017-03-27T14:44:44Z</time>
      </trkpt>
      <trkpt lat="50.35758" lon="5.12725">
        <ele>262.15848897815</ele>
        <time>2017-03-27T14:44:49Z</time>
      </trkpt>
      <trkpt lat="50.35733" lon="5.12756">
        <ele>258.17496134134</ele>
        <time>2017-03-27T14:44:54Z</time>
      </trkpt>
      <trkpt lat="50.35717" lon="5.12785">
        <ele>258.0704340196</ele>
        <time>2017-03-27T14:44:58Z</time>
      </trkpt>
      <trkpt lat="50.35704" lon="5.12814">
        <ele>261.2763854999</ele>
        <time>2017-03-27T14:45:02Z</time>
      </trkpt>
      <trkpt lat="50.35692" lon="5.12839">
        <ele>260.89228367646</ele>
        <time>2017-03-27T14:45:06Z</time>
      </trkpt>
      <trkpt lat="50.35685" lon="5.12862">
        <ele>257.98655943104</ele>
        <time>2017-03-27T14:45:11Z</time>
      </trkpt>
      <trkpt lat="50.35677" lon="5.12899">
        <ele>258.36547992423</ele>
        <time>2017-03-27T14:45:16Z</time>
      </trkpt>
      <trkpt lat="50.35671" lon="5.12929">
        <ele>263.47299924206</ele>
        <time>2017-03-27T14:45:20Z</time>
      </trkpt>
      <trkpt lat="50.35663" lon="5.12961">
        <ele>266.15764764222</ele>
        <time>2017-03-27T14:45:24Z</time>
      </trkpt>
      <trkpt lat="50.35655" lon="5.12995">
        <ele>270.7533564082</ele>
        <time>2017-03-27T14:45:28Z</time>
      </trkpt>
      <trkpt lat="50.35646" lon="5.13032">
        <ele>273.35930340038</ele>
        <time>2017-03-27T14:45:32Z</time>
      </trkpt>
      <trkpt lat="50.35637" lon="5.13066">
        <ele>275.4394784804</ele>
        <time>2017-03-27T14:45:36Z</time>
      </trkpt>
      <trkpt lat="50.35631" lon="5.13106">
        <ele>277.67907312492</ele>
        <time>2017-03-27T14:45:40Z</time>
      </trkpt>
      <trkpt lat="50.35628" lon="5.1315">
        <ele>278.42499697904</ele>
        <time>2017-03-27T14:45:44Z</time>
      </trkpt>
      <trkpt lat="50.35625" lon="5.13198">
        <ele>279.98608036849</ele>
        <time>2017-03-27T14:45:48Z</time>
      </trkpt>
      <trkpt lat="50.3561" lon="5.13253">
        <ele>283.53084057596</ele>
        <time>2017-03-27T14:45:53Z</time>
      </trkpt>
      <trkpt lat="50.35595" lon="5.13282">
        <ele>287.74548766288</ele>
        <time>2017-03-27T14:45:57Z</time>
      </trkpt>
      <trkpt lat="50.35576" lon="5.13321">
        <ele>286.10856458677</ele>
        <time>2017-03-27T14:46:02Z</time>
      </trkpt>
      <trkpt lat="50.3556" lon="5.13355">
        <ele>283.05145401598</ele>
        <time>2017-03-27T14:46:07Z</time>
      </trkpt>
      <trkpt lat="50.35546" lon="5.13377">
        <ele>279.62805557308</ele>
        <time>2017-03-27T14:46:11Z</time>
      </trkpt>
      <trkpt lat="50.35458" lon="5.1352">
        <ele>293.65818293048</ele>
        <time>2017-03-27T14:46:38Z</time>
      </trkpt>
      <trkpt lat="50.35444" lon="5.13534">
        <ele>292.62499823161</ele>
        <time>2017-03-27T14:46:43Z</time>
      </trkpt>
      <trkpt lat="50.35421" lon="5.13561">
        <ele>294.8585584781</ele>
        <time>2017-03-27T14:46:48Z</time>
      </trkpt>
      <trkpt lat="50.35397" lon="5.13593">
        <ele>293.13386461478</ele>
        <time>2017-03-27T14:46:53Z</time>
      </trkpt>
      <trkpt lat="50.35379" lon="5.13625">
        <ele>292.04280165191</ele>
        <time>2017-03-27T14:46:57Z</time>
      </trkpt>
      <trkpt lat="50.3536" lon="5.13661">
        <ele>290.35066996193</ele>
        <time>2017-03-27T14:47:01Z</time>
      </trkpt>
      <trkpt lat="50.35341" lon="5.13698">
        <ele>285.9588896779</ele>
        <time>2017-03-27T14:47:05Z</time>
      </trkpt>
      <trkpt lat="50.35313" lon="5.13743">
        <ele>281.13848388499</ele>
        <time>2017-03-27T14:47:10Z</time>
      </trkpt>
      <trkpt lat="50.35287" lon="5.1378">
        <ele>280.38882207475</ele>
        <time>2017-03-27T14:47:14Z</time>
      </trkpt>
      <trkpt lat="50.35248" lon="5.13831">
        <ele>277.60578780149</ele>
        <time>2017-03-27T14:47:19Z</time>
      </trkpt>
      <trkpt lat="50.35219" lon="5.13869">
        <ele>273.1842302028</ele>
        <time>2017-03-27T14:47:23Z</time>
      </trkpt>
      <trkpt lat="50.35194" lon="5.13901">
        <ele>273.29476469845</ele>
        <time>2017-03-27T14:47:27Z</time>
      </trkpt>
      <trkpt lat="50.35174" lon="5.13928">
        <ele>272.77955768931</ele>
        <time>2017-03-27T14:47:31Z</time>
      </trkpt>
      <trkpt lat="50.35158" lon="5.13953">
        <ele>274.21867544749</ele>
        <time>2017-03-27T14:47:35Z</time>
      </trkpt>
      <trkpt lat="50.3514" lon="5.13979">
        <ele>274.66483714185</ele>
        <time>2017-03-27T14:47:39Z</time>
      </trkpt>
      <trkpt lat="50.35124" lon="5.14005">
        <ele>273.26088705096</ele>
        <time>2017-03-27T14:47:43Z</time>
      </trkpt>
      <trkpt lat="50.35103" lon="5.14033">
        <ele>272.5253397371</ele>
        <time>2017-03-27T14:47:48Z</time>
      </trkpt>
      <trkpt lat="50.35081" lon="5.14063">
        <ele>277.37259553264</ele>
        <time>2017-03-27T14:47:53Z</time>
      </trkpt>
      <trkpt lat="50.35065" lon="5.14085">
        <ele>277.47564232912</ele>
        <time>2017-03-27T14:47:57Z</time>
      </trkpt>
      <trkpt lat="50.35049" lon="5.14107">
        <ele>280.30186592239</ele>
        <time>2017-03-27T14:48:01Z</time>
      </trkpt>
      <trkpt lat="50.35035" lon="5.14125">
        <ele>281.05479696094</ele>
        <time>2017-03-27T14:48:05Z</time>
      </trkpt>
      <trkpt lat="50.3502" lon="5.14149">
        <ele>275.70919894584</ele>
        <time>2017-03-27T14:48:10Z</time>
      </trkpt>
      <trkpt lat="50.35002" lon="5.14174">
        <ele>265.55555271781</ele>
        <time>2017-03-27T14:48:15Z</time>
      </trkpt>
      <trkpt lat="50.34986" lon="5.14194">
        <ele>261.39237985519</ele>
        <time>2017-03-27T14:48:19Z</time>
      </trkpt>
      <trkpt lat="50.34964" lon="5.14217">
        <ele>260.47503652289</ele>
        <time>2017-03-27T14:48:24Z</time>
      </trkpt>
      <trkpt lat="50.34949" lon="5.14233">
        <ele>260.21284474539</ele>
        <time>2017-03-27T14:48:28Z</time>
      </trkpt>
      <trkpt lat="50.34935" lon="5.14247">
        <ele>260.92547428378</ele>
        <time>2017-03-27T14:48:32Z</time>
      </trkpt>
      <trkpt lat="50.34929" lon="5.1426">
        <ele>261.52609860994</ele>
        <time>2017-03-27T14:48:37Z</time>
      </trkpt>
      <trkpt lat="50.34921" lon="5.14282">
        <ele>262.79926104598</ele>
        <time>2017-03-27T14:48:42Z</time>
      </trkpt>
      <trkpt lat="50.34907" lon="5.14305">
        <ele>277.45999622025</ele>
        <time>2017-03-27T14:48:46Z</time>
      </trkpt>
      <trkpt lat="50.34898" lon="5.1432">
        <ele>278.95412062433</ele>
        <time>2017-03-27T14:48:50Z</time>
      </trkpt>
      <trkpt lat="50.34878" lon="5.14355">
        <ele>282.7860105816</ele>
        <time>2017-03-27T14:48:55Z</time>
      </trkpt>
      <trkpt lat="50.34856" lon="5.14389">
        <ele>282.87190177363</ele>
        <time>2017-03-27T14:49:00Z</time>
      </trkpt>
      <trkpt lat="50.34845" lon="5.14416">
        <ele>286.60116373164</ele>
        <time>2017-03-27T14:49:04Z</time>
      </trkpt>
      <trkpt lat="50.34834" lon="5.14441">
        <ele>293.07728425697</ele>
        <time>2017-03-27T14:49:08Z</time>
      </trkpt>
      <trkpt lat="50.3482" lon="5.14468">
        <ele>295.64923372943</ele>
        <time>2017-03-27T14:49:13Z</time>
      </trkpt>
      <trkpt lat="50.34809" lon="5.1449">
        <ele>300.4944590795</ele>
        <time>2017-03-27T14:49:17Z</time>
      </trkpt>
      <trkpt lat="50.34797" lon="5.14515">
        <ele>305.03525297582</ele>
        <time>2017-03-27T14:49:21Z</time>
      </trkpt>
      <trkpt lat="50.34785" lon="5.14538">
        <ele>305.00184660716</ele>
        <time>2017-03-27T14:49:25Z</time>
      </trkpt>
      <trkpt lat="50.34769" lon="5.14569">
        <ele>308.63249041337</ele>
        <time>2017-03-27T14:49:30Z</time>
      </trkpt>
      <trkpt lat="50.34751" lon="5.14605">
        <ele>310.17484703997</ele>
        <time>2017-03-27T14:49:35Z</time>
      </trkpt>
      <trkpt lat="50.34735" lon="5.14643">
        <ele>306.56909229896</ele>
        <time>2017-03-27T14:49:40Z</time>
      </trkpt>
      <trkpt lat="50.34728" lon="5.14668">
        <ele>300.26572747884</ele>
        <time>2017-03-27T14:49:44Z</time>
      </trkpt>
      <trkpt lat="50.34719" lon="5.14702">
        <ele>295.3015589887</ele>
        <time>2017-03-27T14:49:48Z</time>
      </trkpt>
      <trkpt lat="50.34702" lon="5.14732">
        <ele>290.96601760224</ele>
        <time>2017-03-27T14:49:52Z</time>
      </trkpt>
      <trkpt lat="50.34678" lon="5.14751">
        <ele>285.99411755313</ele>
        <time>2017-03-27T14:49:56Z</time>
      </trkpt>
      <trkpt lat="50.34647" lon="5.14761">
        <ele>280.78340132875</ele>
        <time>2017-03-27T14:50:01Z</time>
      </trkpt>
      <trkpt lat="50.34622" lon="5.14767">
        <ele>279.40625055194</ele>
        <time>2017-03-27T14:50:05Z</time>
      </trkpt>
      <trkpt lat="50.3459" lon="5.1477">
        <ele>274.94079240316</ele>
        <time>2017-03-27T14:50:10Z</time>
      </trkpt>
      <trkpt lat="50.34565" lon="5.14769">
        <ele>269.28194243131</ele>
        <time>2017-03-27T14:50:14Z</time>
      </trkpt>
      <trkpt lat="50.34537" lon="5.14765">
        <ele>263.37969570736</ele>
        <time>2017-03-27T14:50:18Z</time>
      </trkpt>
      <trkpt lat="50.34504" lon="5.14753">
        <ele>260.09105308351</ele>
        <time>2017-03-27T14:50:23Z</time>
      </trkpt>
      <trkpt lat="50.34474" lon="5.14736">
        <ele>259.18638099172</ele>
        <time>2017-03-27T14:50:28Z</time>
      </trkpt>
      <trkpt lat="50.34447" lon="5.14719">
        <ele>261.1673726807</ele>
        <time>2017-03-27T14:50:32Z</time>
      </trkpt>
      <trkpt lat="50.34422" lon="5.14698">
        <ele>259.17655963</ele>
        <time>2017-03-27T14:50:36Z</time>
      </trkpt>
      <trkpt lat="50.34398" lon="5.1468">
        <ele>256.03365070834</ele>
        <time>2017-03-27T14:50:40Z</time>
      </trkpt>
      <trkpt lat="50.34372" lon="5.14663">
        <ele>253.29583960924</ele>
        <time>2017-03-27T14:50:44Z</time>
      </trkpt>
      <trkpt lat="50.34341" lon="5.14644">
        <ele>250.31148331672</ele>
        <time>2017-03-27T14:50:49Z</time>
      </trkpt>
      <trkpt lat="50.3432" lon="5.14627">
        <ele>247.8443480218</ele>
        <time>2017-03-27T14:50:53Z</time>
      </trkpt>
      <trkpt lat="50.34295" lon="5.14612">
        <ele>249.79484857463</ele>
        <time>2017-03-27T14:50:58Z</time>
      </trkpt>
      <trkpt lat="50.34276" lon="5.14604">
        <ele>249.45462773232</ele>
        <time>2017-03-27T14:51:02Z</time>
      </trkpt>
      <trkpt lat="50.34256" lon="5.14597">
        <ele>245.30498666765</ele>
        <time>2017-03-27T14:51:06Z</time>
      </trkpt>
      <trkpt lat="50.34226" lon="5.14589">
        <ele>239.56139994908</ele>
        <time>2017-03-27T14:51:11Z</time>
      </trkpt>
      <trkpt lat="50.342" lon="5.14578">
        <ele>237.12087522265</ele>
        <time>2017-03-27T14:51:16Z</time>
      </trkpt>
      <trkpt lat="50.34181" lon="5.1457">
        <ele>236.97999926756</ele>
        <time>2017-03-27T14:51:20Z</time>
      </trkpt>
      <trkpt lat="50.34153" lon="5.1456">
        <ele>240.07926152016</ele>
        <time>2017-03-27T14:51:25Z</time>
      </trkpt>
      <trkpt lat="50.34132" lon="5.14548">
        <ele>242.11304877243</ele>
        <time>2017-03-27T14:51:29Z</time>
      </trkpt>
      <trkpt lat="50.34107" lon="5.14522">
        <ele>247.84608071853</ele>
        <time>2017-03-27T14:51:34Z</time>
      </trkpt>
      <trkpt lat="50.34084" lon="5.14488">
        <ele>252.07662075157</ele>
        <time>2017-03-27T14:51:39Z</time>
      </trkpt>
      <trkpt lat="50.34059" lon="5.14451">
        <ele>253.15406054555</ele>
        <time>2017-03-27T14:51:44Z</time>
      </trkpt>
      <trkpt lat="50.34035" lon="5.14429">
        <ele>248.55552089115</ele>
        <time>2017-03-27T14:51:48Z</time>
      </trkpt>
      <trkpt lat="50.3401" lon="5.14425">
        <ele>245.07382257727</ele>
        <time>2017-03-27T14:51:52Z</time>
      </trkpt>
      <trkpt lat="50.33982" lon="5.14457">
        <ele>244.81853941858</ele>
        <time>2017-03-27T14:51:57Z</time>
      </trkpt>
      <trkpt lat="50.33955" lon="5.14481">
        <ele>244.59067800872</ele>
        <time>2017-03-27T14:52:01Z</time>
      </trkpt>
      <trkpt lat="50.33927" lon="5.14501">
        <ele>242.53691702567</ele>
        <time>2017-03-27T14:52:05Z</time>
      </trkpt>
      <trkpt lat="50.33904" lon="5.14508">
        <ele>240.53086826164</ele>
        <time>2017-03-27T14:52:09Z</time>
      </trkpt>
      <trkpt lat="50.33882" lon="5.14514">
        <ele>233.44829772315</ele>
        <time>2017-03-27T14:52:14Z</time>
      </trkpt>
      <trkpt lat="50.33867" lon="5.14535">
        <ele>232.39147943233</ele>
        <time>2017-03-27T14:52:18Z</time>
      </trkpt>
      <trkpt lat="50.33849" lon="5.14551">
        <ele>235.36098608147</ele>
        <time>2017-03-27T14:52:22Z</time>
      </trkpt>
      <trkpt lat="50.33841" lon="5.14568">
        <ele>240.27879618289</ele>
        <time>2017-03-27T14:52:26Z</time>
      </trkpt>
      <trkpt lat="50.33853" lon="5.14598">
        <ele>245.62628040105</ele>
        <time>2017-03-27T14:52:31Z</time>
      </trkpt>
      <trkpt lat="50.33869" lon="5.14639">
        <ele>249.79730467069</ele>
        <time>2017-03-27T14:52:35Z</time>
      </trkpt>
      <trkpt lat="50.33883" lon="5.14696">
        <ele>250.30700035017</ele>
        <time>2017-03-27T14:52:40Z</time>
      </trkpt>
      <trkpt lat="50.33879" lon="5.14744">
        <ele>246.8385441444</ele>
        <time>2017-03-27T14:52:44Z</time>
      </trkpt>
      <trkpt lat="50.33868" lon="5.14785">
        <ele>245.43948185649</ele>
        <time>2017-03-27T14:52:48Z</time>
      </trkpt>
      <trkpt lat="50.33861" lon="5.14814">
        <ele>245.4669224198</ele>
        <time>2017-03-27T14:52:52Z</time>
      </trkpt>
      <trkpt lat="50.33848" lon="5.14832">
        <ele>243.20528832192</ele>
        <time>2017-03-27T14:52:56Z</time>
      </trkpt>
      <trkpt lat="50.33828" lon="5.14852">
        <ele>240.00930269564</ele>
        <time>2017-03-27T14:53:00Z</time>
      </trkpt>
      <trkpt lat="50.3381" lon="5.14876">
        <ele>240.68495488549</ele>
        <time>2017-03-27T14:53:05Z</time>
      </trkpt>
      <trkpt lat="50.33796" lon="5.14901">
        <ele>245.6642662872</ele>
        <time>2017-03-27T14:53:10Z</time>
      </trkpt>
      <trkpt lat="50.33788" lon="5.14914">
        <ele>248.04856693213</ele>
        <time>2017-03-27T14:53:14Z</time>
      </trkpt>
      <trkpt lat="50.33773" lon="5.14904">
        <ele>245.35291226049</ele>
        <time>2017-03-27T14:53:18Z</time>
      </trkpt>
      <trkpt lat="50.33757" lon="5.14884">
        <ele>238.90151400846</ele>
        <time>2017-03-27T14:53:22Z</time>
      </trkpt>
      <trkpt lat="50.3374" lon="5.14863">
        <ele>237.39945191159</ele>
        <time>2017-03-27T14:53:26Z</time>
      </trkpt>
      <trkpt lat="50.33724" lon="5.1484">
        <ele>238.07663441231</ele>
        <time>2017-03-27T14:53:31Z</time>
      </trkpt>
      <trkpt lat="50.33708" lon="5.14811">
        <ele>243.37684507763</ele>
        <time>2017-03-27T14:53:36Z</time>
      </trkpt>
      <trkpt lat="50.337" lon="5.14789">
        <ele>243.59667849951</ele>
        <time>2017-03-27T14:53:40Z</time>
      </trkpt>
      <trkpt lat="50.33691" lon="5.14762">
        <ele>245.64749594328</ele>
        <time>2017-03-27T14:53:44Z</time>
      </trkpt>
      <trkpt lat="50.33673" lon="5.14726">
        <ele>245.75799683889</ele>
        <time>2017-03-27T14:53:49Z</time>
      </trkpt>
      <trkpt lat="50.33657" lon="5.14687">
        <ele>246.73548023099</ele>
        <time>2017-03-27T14:53:54Z</time>
      </trkpt>
      <trkpt lat="50.33641" lon="5.14655">
        <ele>247.30819410063</ele>
        <time>2017-03-27T14:53:59Z</time>
      </trkpt>
      <trkpt lat="50.33625" lon="5.14635">
        <ele>250.78161864458</ele>
        <time>2017-03-27T14:54:03Z</time>
      </trkpt>
      <trkpt lat="50.33608" lon="5.14609">
        <ele>258.16514078126</ele>
        <time>2017-03-27T14:54:07Z</time>
      </trkpt>
      <trkpt lat="50.33588" lon="5.14578">
        <ele>262.93884381336</ele>
        <time>2017-03-27T14:54:12Z</time>
      </trkpt>
      <trkpt lat="50.33568" lon="5.14545">
        <ele>265.51898636973</ele>
        <time>2017-03-27T14:54:17Z</time>
      </trkpt>
      <trkpt lat="50.33549" lon="5.14511">
        <ele>265.47948401465</ele>
        <time>2017-03-27T14:54:21Z</time>
      </trkpt>
      <trkpt lat="50.33526" lon="5.1447">
        <ele>258.97656497392</ele>
        <time>2017-03-27T14:54:26Z</time>
      </trkpt>
      <trkpt lat="50.33506" lon="5.14435">
        <ele>250.66779965357</ele>
        <time>2017-03-27T14:54:30Z</time>
      </trkpt>
      <trkpt lat="50.33485" lon="5.14394">
        <ele>242.90791400345</ele>
        <time>2017-03-27T14:54:34Z</time>
      </trkpt>
      <trkpt lat="50.33466" lon="5.14356">
        <ele>231.76232058298</ele>
        <time>2017-03-27T14:54:38Z</time>
      </trkpt>
      <trkpt lat="50.33446" lon="5.14318">
        <ele>230.6498058843</ele>
        <time>2017-03-27T14:54:43Z</time>
      </trkpt>
      <trkpt lat="50.33431" lon="5.14284">
        <ele>244.22586707546</ele>
        <time>2017-03-27T14:54:48Z</time>
      </trkpt>
      <trkpt lat="50.33418" lon="5.14254">
        <ele>251.93926638917</ele>
        <time>2017-03-27T14:54:52Z</time>
      </trkpt>
      <trkpt lat="50.33399" lon="5.14225">
        <ele>252.8413256208</ele>
        <time>2017-03-27T14:54:56Z</time>
      </trkpt>
      <trkpt lat="50.33381" lon="5.14201">
        <ele>251.07617290135</ele>
        <time>2017-03-27T14:55:01Z</time>
      </trkpt>
      <trkpt lat="50.33365" lon="5.14174">
        <ele>257.901879758</ele>
        <time>2017-03-27T14:55:06Z</time>
      </trkpt>
      <trkpt lat="50.33348" lon="5.14154">
        <ele>260.79923439524</ele>
        <time>2017-03-27T14:55:10Z</time>
      </trkpt>
      <trkpt lat="50.33325" lon="5.14121">
        <ele>261.2187991121</ele>
        <time>2017-03-27T14:55:15Z</time>
      </trkpt>
      <trkpt lat="50.33304" lon="5.14088">
        <ele>264.67458953043</ele>
        <time>2017-03-27T14:55:19Z</time>
      </trkpt>
      <trkpt lat="50.33278" lon="5.14053">
        <ele>274.06405752223</ele>
        <time>2017-03-27T14:55:24Z</time>
      </trkpt>
      <trkpt lat="50.33263" lon="5.14028">
        <ele>292.88576416192</ele>
        <time>2017-03-27T14:55:28Z</time>
      </trkpt>
      <trkpt lat="50.33245" lon="5.14002">
        <ele>296.87094148491</ele>
        <time>2017-03-27T14:55:32Z</time>
      </trkpt>
      <trkpt lat="50.33229" lon="5.13986">
        <ele>299.01558115748</ele>
        <time>2017-03-27T14:55:36Z</time>
      </trkpt>
      <trkpt lat="50.33205" lon="5.13953">
        <ele>295.09116823221</ele>
        <time>2017-03-27T14:55:41Z</time>
      </trkpt>
      <trkpt lat="50.33189" lon="5.13932">
        <ele>285.86869933462</ele>
        <time>2017-03-27T14:55:45Z</time>
      </trkpt>
      <trkpt lat="50.3316" lon="5.13891">
        <ele>284.51451314351</ele>
        <time>2017-03-27T14:55:50Z</time>
      </trkpt>
      <trkpt lat="50.33138" lon="5.13851">
        <ele>267.21998209592</ele>
        <time>2017-03-27T14:55:54Z</time>
      </trkpt>
      <trkpt lat="50.33115" lon="5.13812">
        <ele>257.36871054427</ele>
        <time>2017-03-27T14:55:59Z</time>
      </trkpt>
      <trkpt lat="50.33095" lon="5.13782">
        <ele>252.98646402019</ele>
        <time>2017-03-27T14:56:03Z</time>
      </trkpt>
      <trkpt lat="50.3309" lon="5.13773">
        <ele>252.68895689343</ele>
        <time>2017-03-27T14:56:07Z</time>
      </trkpt>
      <trkpt lat="50.33067" lon="5.13744">
        <ele>247.88898492466</ele>
        <time>2017-03-27T14:56:12Z</time>
      </trkpt>
      <trkpt lat="50.33055" lon="5.13723">
        <ele>245.56437855176</ele>
        <time>2017-03-27T14:56:16Z</time>
      </trkpt>
      <trkpt lat="50.33044" lon="5.13693">
        <ele>244.99358517925</ele>
        <time>2017-03-27T14:56:20Z</time>
      </trkpt>
      <trkpt lat="50.33029" lon="5.13659">
        <ele>244.91947595265</ele>
        <time>2017-03-27T14:56:24Z</time>
      </trkpt>
      <trkpt lat="50.33012" lon="5.13627">
        <ele>245.26011878935</ele>
        <time>2017-03-27T14:56:29Z</time>
      </trkpt>
      <trkpt lat="50.33001" lon="5.13594">
        <ele>246.69157954162</ele>
        <time>2017-03-27T14:56:34Z</time>
      </trkpt>
      <trkpt lat="50.32993" lon="5.13567">
        <ele>247.8538116235</ele>
        <time>2017-03-27T14:56:38Z</time>
      </trkpt>
      <trkpt lat="50.32985" lon="5.13541">
        <ele>249.1091408493</ele>
        <time>2017-03-27T14:56:42Z</time>
      </trkpt>
      <trkpt lat="50.32974" lon="5.1351">
        <ele>251.23372534118</ele>
        <time>2017-03-27T14:56:47Z</time>
      </trkpt>
      <trkpt lat="50.32962" lon="5.13481">
        <ele>265.8859008636</ele>
        <time>2017-03-27T14:56:51Z</time>
      </trkpt>
      <trkpt lat="50.32942" lon="5.13431">
        <ele>269.94163475192</ele>
        <time>2017-03-27T14:56:56Z</time>
      </trkpt>
      <trkpt lat="50.3293" lon="5.13402">
        <ele>269.11815769378</ele>
        <time>2017-03-27T14:57:00Z</time>
      </trkpt>
      <trkpt lat="50.32915" lon="5.1337">
        <ele>267.56668980776</ele>
        <time>2017-03-27T14:57:05Z</time>
      </trkpt>
      <trkpt lat="50.32901" lon="5.13334">
        <ele>266.36906697528</ele>
        <time>2017-03-27T14:57:10Z</time>
      </trkpt>
      <trkpt lat="50.32886" lon="5.13284">
        <ele>265.07105222981</ele>
        <time>2017-03-27T14:57:14Z</time>
      </trkpt>
      <trkpt lat="50.32869" lon="5.1321">
        <ele>260.20805287932</ele>
        <time>2017-03-27T14:57:19Z</time>
      </trkpt>
      <trkpt lat="50.32857" lon="5.13164">
        <ele>260.00298292695</ele>
        <time>2017-03-27T14:57:23Z</time>
      </trkpt>
      <trkpt lat="50.32848" lon="5.13132">
        <ele>260.13338234555</ele>
        <time>2017-03-27T14:57:27Z</time>
      </trkpt>
      <trkpt lat="50.32834" lon="5.13103">
        <ele>260.04636678532</ele>
        <time>2017-03-27T14:57:32Z</time>
      </trkpt>
      <trkpt lat="50.32822" lon="5.13073">
        <ele>256.85806729273</ele>
        <time>2017-03-27T14:57:36Z</time>
      </trkpt>
      <trkpt lat="50.32798" lon="5.13038">
        <ele>253.947141421</ele>
        <time>2017-03-27T14:57:41Z</time>
      </trkpt>
      <trkpt lat="50.3278" lon="5.13007">
        <ele>253.36525473867</ele>
        <time>2017-03-27T14:57:46Z</time>
      </trkpt>
      <trkpt lat="50.3276" lon="5.12978">
        <ele>252.74496977297</ele>
        <time>2017-03-27T14:57:50Z</time>
      </trkpt>
      <trkpt lat="50.32745" lon="5.12955">
        <ele>249.13910973388</ele>
        <time>2017-03-27T14:57:54Z</time>
      </trkpt>
      <trkpt lat="50.32726" lon="5.12915">
        <ele>249.2859503408</ele>
        <time>2017-03-27T14:57:59Z</time>
      </trkpt>
      <trkpt lat="50.32715" lon="5.12886">
        <ele>249.506284493</ele>
        <time>2017-03-27T14:58:03Z</time>
      </trkpt>
      <trkpt lat="50.32703" lon="5.12855">
        <ele>249.23427871003</ele>
        <time>2017-03-27T14:58:08Z</time>
      </trkpt>
      <trkpt lat="50.3269" lon="5.12839">
        <ele>248.93689968371</ele>
        <time>2017-03-27T14:58:12Z</time>
      </trkpt>
      <trkpt lat="50.32676" lon="5.12821">
        <ele>248.05220991279</ele>
        <time>2017-03-27T14:58:17Z</time>
      </trkpt>
      <trkpt lat="50.32652" lon="5.12791">
        <ele>241.69507816382</ele>
        <time>2017-03-27T14:58:22Z</time>
      </trkpt>
      <trkpt lat="50.32636" lon="5.1277">
        <ele>239.12169094471</ele>
        <time>2017-03-27T14:58:26Z</time>
      </trkpt>
      <trkpt lat="50.32615" lon="5.12744">
        <ele>240.82044755267</ele>
        <time>2017-03-27T14:58:30Z</time>
      </trkpt>
      <trkpt lat="50.32591" lon="5.12698">
        <ele>247.40731615905</ele>
        <time>2017-03-27T14:58:35Z</time>
      </trkpt>
      <trkpt lat="50.32576" lon="5.12669">
        <ele>248.1973748273</ele>
        <time>2017-03-27T14:58:39Z</time>
      </trkpt>
      <trkpt lat="50.32557" lon="5.12642">
        <ele>248.50975631505</ele>
        <time>2017-03-27T14:58:44Z</time>
      </trkpt>
      <trkpt lat="50.3254" lon="5.1261">
        <ele>247.9133463599</ele>
        <time>2017-03-27T14:58:49Z</time>
      </trkpt>
      <trkpt lat="50.32523" lon="5.12576">
        <ele>253.13643699746</ele>
        <time>2017-03-27T14:58:53Z</time>
      </trkpt>
      <trkpt lat="50.32509" lon="5.12536">
        <ele>252.7839323476</ele>
        <time>2017-03-27T14:58:57Z</time>
      </trkpt>
      <trkpt lat="50.3249" lon="5.12494">
        <ele>254.34586325637</ele>
        <time>2017-03-27T14:59:02Z</time>
      </trkpt>
      <trkpt lat="50.32481" lon="5.12466">
        <ele>250.90735233583</ele>
        <time>2017-03-27T14:59:06Z</time>
      </trkpt>
      <trkpt lat="50.32467" lon="5.12435">
        <ele>243.05157948612</ele>
        <time>2017-03-27T14:59:11Z</time>
      </trkpt>
      <trkpt lat="50.32453" lon="5.12408">
        <ele>242.36142966487</ele>
        <time>2017-03-27T14:59:16Z</time>
      </trkpt>
      <trkpt lat="50.32435" lon="5.12387">
        <ele>241.06341566274</ele>
        <time>2017-03-27T14:59:21Z</time>
      </trkpt>
      <trkpt lat="50.32422" lon="5.12371">
        <ele>240.37032249041</ele>
        <time>2017-03-27T14:59:25Z</time>
      </trkpt>
      <trkpt lat="50.32401" lon="5.12341">
        <ele>240.18267001657</ele>
        <time>2017-03-27T14:59:30Z</time>
      </trkpt>
      <trkpt lat="50.32382" lon="5.12309">
        <ele>239.85433518907</ele>
        <time>2017-03-27T14:59:35Z</time>
      </trkpt>
      <trkpt lat="50.32361" lon="5.12266">
        <ele>238.90151915509</ele>
        <time>2017-03-27T14:59:39Z</time>
      </trkpt>
      <trkpt lat="50.32346" lon="5.12232">
        <ele>239.7525956775</ele>
        <time>2017-03-27T14:59:43Z</time>
      </trkpt>
      <trkpt lat="50.32335" lon="5.12197">
        <ele>238.1283470675</ele>
        <time>2017-03-27T14:59:47Z</time>
      </trkpt>
      <trkpt lat="50.32326" lon="5.12169">
        <ele>231.65457818665</ele>
        <time>2017-03-27T14:59:51Z</time>
      </trkpt>
      <trkpt lat="50.32315" lon="5.12141">
        <ele>226.55261659125</ele>
        <time>2017-03-27T14:59:56Z</time>
      </trkpt>
      <trkpt lat="50.32306" lon="5.12112">
        <ele>228.62596963161</ele>
        <time>2017-03-27T15:00:00Z</time>
      </trkpt>
      <trkpt lat="50.32294" lon="5.12079">
        <ele>233.68012865739</ele>
        <time>2017-03-27T15:00:04Z</time>
      </trkpt>
      <trkpt lat="50.32282" lon="5.12043">
        <ele>240.20992485328</ele>
        <time>2017-03-27T15:00:08Z</time>
      </trkpt>
      <trkpt lat="50.32277" lon="5.12023">
        <ele>241.333221216</ele>
        <time>2017-03-27T15:00:11Z</time>
      </trkpt>
      <trkpt lat="50.32265" lon="5.11971">
        <ele>243.90499011666</ele>
        <time>2017-03-27T15:00:20Z</time>
      </trkpt>
      <trkpt lat="50.3224" lon="5.1191">
        <ele>245.84357066309</ele>
        <time>2017-03-27T15:00:24Z</time>
      </trkpt>
      <trkpt lat="50.32233" lon="5.11855">
        <ele>243.18471584413</ele>
        <time>2017-03-27T15:00:28Z</time>
      </trkpt>
      <trkpt lat="50.32218" lon="5.1182">
        <ele>232.06073789965</ele>
        <time>2017-03-27T15:00:33Z</time>
      </trkpt>
      <trkpt lat="50.32207" lon="5.118">
        <ele>224.59921406863</ele>
        <time>2017-03-27T15:00:37Z</time>
      </trkpt>
      <trkpt lat="50.32198" lon="5.11782">
        <ele>223.65618153644</ele>
        <time>2017-03-27T15:00:42Z</time>
      </trkpt>
      <trkpt lat="50.32189" lon="5.11764">
        <ele>221.77281373351</ele>
        <time>2017-03-27T15:00:46Z</time>
      </trkpt>
      <trkpt lat="50.32182" lon="5.11738">
        <ele>224.00957856533</ele>
        <time>2017-03-27T15:00:50Z</time>
      </trkpt>
      <trkpt lat="50.32169" lon="5.11703">
        <ele>223.01913903448</ele>
        <time>2017-03-27T15:00:55Z</time>
      </trkpt>
      <trkpt lat="50.3216" lon="5.11681">
        <ele>226.80602974976</ele>
        <time>2017-03-27T15:00:59Z</time>
      </trkpt>
      <trkpt lat="50.32154" lon="5.11656">
        <ele>230.07210833038</ele>
        <time>2017-03-27T15:01:03Z</time>
      </trkpt>
      <trkpt lat="50.32142" lon="5.11623">
        <ele>231.9480381711</ele>
        <time>2017-03-27T15:01:08Z</time>
      </trkpt>
      <trkpt lat="50.32134" lon="5.11592">
        <ele>240.09200125947</ele>
        <time>2017-03-27T15:01:12Z</time>
      </trkpt>
      <trkpt lat="50.32125" lon="5.11565">
        <ele>247.59194415811</ele>
        <time>2017-03-27T15:01:16Z</time>
      </trkpt>
      <trkpt lat="50.32117" lon="5.1154">
        <ele>251.38118519221</ele>
        <time>2017-03-27T15:01:20Z</time>
      </trkpt>
      <trkpt lat="50.32106" lon="5.11515">
        <ele>253.30941446029</ele>
        <time>2017-03-27T15:01:24Z</time>
      </trkpt>
      <trkpt lat="50.32091" lon="5.11482">
        <ele>256.41686682947</ele>
        <time>2017-03-27T15:01:28Z</time>
      </trkpt>
      <trkpt lat="50.32079" lon="5.11445">
        <ele>260.86791147234</ele>
        <time>2017-03-27T15:01:33Z</time>
      </trkpt>
      <trkpt lat="50.32068" lon="5.11414">
        <ele>261.58313782725</ele>
        <time>2017-03-27T15:01:37Z</time>
      </trkpt>
      <trkpt lat="50.3206" lon="5.1139">
        <ele>260.09525021079</ele>
        <time>2017-03-27T15:01:41Z</time>
      </trkpt>
      <trkpt lat="50.32047" lon="5.1135">
        <ele>260.90540538307</ele>
        <time>2017-03-27T15:01:46Z</time>
      </trkpt>
      <trkpt lat="50.32037" lon="5.1132">
        <ele>260.18921384198</ele>
        <time>2017-03-27T15:01:50Z</time>
      </trkpt>
      <trkpt lat="50.32022" lon="5.11284">
        <ele>257.01827974093</ele>
        <time>2017-03-27T15:01:54Z</time>
      </trkpt>
      <trkpt lat="50.32011" lon="5.11251">
        <ele>259.08765706295</ele>
        <time>2017-03-27T15:01:58Z</time>
      </trkpt>
      <trkpt lat="50.32001" lon="5.11205">
        <ele>260.39539099338</ele>
        <time>2017-03-27T15:02:03Z</time>
      </trkpt>
      <trkpt lat="50.31989" lon="5.11174">
        <ele>254.67512788987</ele>
        <time>2017-03-27T15:02:07Z</time>
      </trkpt>
      <trkpt lat="50.31976" lon="5.11144">
        <ele>246.9828505647</ele>
        <time>2017-03-27T15:02:11Z</time>
      </trkpt>
      <trkpt lat="50.31958" lon="5.11107">
        <ele>245.1141753405</ele>
        <time>2017-03-27T15:02:16Z</time>
      </trkpt>
      <trkpt lat="50.31944" lon="5.11077">
        <ele>247.29906469463</ele>
        <time>2017-03-27T15:02:21Z</time>
      </trkpt>
      <trkpt lat="50.31932" lon="5.11047">
        <ele>249.70531602071</ele>
        <time>2017-03-27T15:02:25Z</time>
      </trkpt>
      <trkpt lat="50.31917" lon="5.1101">
        <ele>250.35994614595</ele>
        <time>2017-03-27T15:02:30Z</time>
      </trkpt>
      <trkpt lat="50.31904" lon="5.10983">
        <ele>243.14243333008</ele>
        <time>2017-03-27T15:02:34Z</time>
      </trkpt>
      <trkpt lat="50.31897" lon="5.10954">
        <ele>242.83793809846</ele>
        <time>2017-03-27T15:02:38Z</time>
      </trkpt>
      <trkpt lat="50.31887" lon="5.10914">
        <ele>248.72443902677</ele>
        <time>2017-03-27T15:02:42Z</time>
      </trkpt>
      <trkpt lat="50.31879" lon="5.1088">
        <ele>250.95361964903</ele>
        <time>2017-03-27T15:02:47Z</time>
      </trkpt>
      <trkpt lat="50.31871" lon="5.10854">
        <ele>252.40739267122</ele>
        <time>2017-03-27T15:02:51Z</time>
      </trkpt>
      <trkpt lat="50.31863" lon="5.10816">
        <ele>253.7457409247</ele>
        <time>2017-03-27T15:02:55Z</time>
      </trkpt>
      <trkpt lat="50.31858" lon="5.10782">
        <ele>254.78988759522</ele>
        <time>2017-03-27T15:02:59Z</time>
      </trkpt>
      <trkpt lat="50.31855" lon="5.10735">
        <ele>255.47365123273</ele>
        <time>2017-03-27T15:03:04Z</time>
      </trkpt>
      <trkpt lat="50.31843" lon="5.10704">
        <ele>249.53297836248</ele>
        <time>2017-03-27T15:03:09Z</time>
      </trkpt>
      <trkpt lat="50.31818" lon="5.10681">
        <ele>250.07214338486</ele>
        <time>2017-03-27T15:03:13Z</time>
      </trkpt>
      <trkpt lat="50.31788" lon="5.10653">
        <ele>250.42988125954</ele>
        <time>2017-03-27T15:03:18Z</time>
      </trkpt>
      <trkpt lat="50.31762" lon="5.10631">
        <ele>251.49693713964</ele>
        <time>2017-03-27T15:03:22Z</time>
      </trkpt>
      <trkpt lat="50.31728" lon="5.10621">
        <ele>254.6282926766</ele>
        <time>2017-03-27T15:03:26Z</time>
      </trkpt>
      <trkpt lat="50.31699" lon="5.10604">
        <ele>258.4114179229</ele>
        <time>2017-03-27T15:03:30Z</time>
      </trkpt>
      <trkpt lat="50.31678" lon="5.10579">
        <ele>259.67752101475</ele>
        <time>2017-03-27T15:03:34Z</time>
      </trkpt>
      <trkpt lat="50.31659" lon="5.10556">
        <ele>263.01955749437</ele>
        <time>2017-03-27T15:03:38Z</time>
      </trkpt>
      <trkpt lat="50.3164" lon="5.10524">
        <ele>260.6916100267</ele>
        <time>2017-03-27T15:03:42Z</time>
      </trkpt>
      <trkpt lat="50.31617" lon="5.10498">
        <ele>252.79548126535</ele>
        <time>2017-03-27T15:03:46Z</time>
      </trkpt>
      <trkpt lat="50.31586" lon="5.10465">
        <ele>241.00643661746</ele>
        <time>2017-03-27T15:03:51Z</time>
      </trkpt>
      <trkpt lat="50.3156" lon="5.10434">
        <ele>239.03636532026</ele>
        <time>2017-03-27T15:03:56Z</time>
      </trkpt>
      <trkpt lat="50.31541" lon="5.10405">
        <ele>241.16615094062</ele>
        <time>2017-03-27T15:04:00Z</time>
      </trkpt>
      <trkpt lat="50.31525" lon="5.10382">
        <ele>235.73632906416</ele>
        <time>2017-03-27T15:04:04Z</time>
      </trkpt>
      <trkpt lat="50.31503" lon="5.10358">
        <ele>233.49608895667</ele>
        <time>2017-03-27T15:04:08Z</time>
      </trkpt>
      <trkpt lat="50.31486" lon="5.10338">
        <ele>230.93143749315</ele>
        <time>2017-03-27T15:04:12Z</time>
      </trkpt>
      <trkpt lat="50.31467" lon="5.10318">
        <ele>226.97879863027</ele>
        <time>2017-03-27T15:04:16Z</time>
      </trkpt>
      <trkpt lat="50.31449" lon="5.10296">
        <ele>226.00721180314</ele>
        <time>2017-03-27T15:04:20Z</time>
      </trkpt>
      <trkpt lat="50.31427" lon="5.10268">
        <ele>224.34803174668</ele>
        <time>2017-03-27T15:04:25Z</time>
      </trkpt>
      <trkpt lat="50.31411" lon="5.10244">
        <ele>221.92428235288</ele>
        <time>2017-03-27T15:04:29Z</time>
      </trkpt>
      <trkpt lat="50.31396" lon="5.1022">
        <ele>226.89758500912</ele>
        <time>2017-03-27T15:04:33Z</time>
      </trkpt>
      <trkpt lat="50.31381" lon="5.10195">
        <ele>226.26718203117</ele>
        <time>2017-03-27T15:04:38Z</time>
      </trkpt>
      <trkpt lat="50.31367" lon="5.10173">
        <ele>225.89376137756</ele>
        <time>2017-03-27T15:04:43Z</time>
      </trkpt>
      <trkpt lat="50.31354" lon="5.10157">
        <ele>232.08772992228</ele>
        <time>2017-03-27T15:04:47Z</time>
      </trkpt>
      <trkpt lat="50.31331" lon="5.10128">
        <ele>238.48626673005</ele>
        <time>2017-03-27T15:04:52Z</time>
      </trkpt>
      <trkpt lat="50.31316" lon="5.10098">
        <ele>242.25709275176</ele>
        <time>2017-03-27T15:04:57Z</time>
      </trkpt>
      <trkpt lat="50.31307" lon="5.10075">
        <ele>243.94155437754</ele>
        <time>2017-03-27T15:05:01Z</time>
      </trkpt>
      <trkpt lat="50.31296" lon="5.10043">
        <ele>242.55420147859</ele>
        <time>2017-03-27T15:05:05Z</time>
      </trkpt>
      <trkpt lat="50.31285" lon="5.10007">
        <ele>242.8749956039</ele>
        <time>2017-03-27T15:05:10Z</time>
      </trkpt>
      <trkpt lat="50.3127" lon="5.09959">
        <ele>248.50287194568</ele>
        <time>2017-03-27T15:05:14Z</time>
      </trkpt>
      <trkpt lat="50.31262" lon="5.0992">
        <ele>250.52319367761</ele>
        <time>2017-03-27T15:05:18Z</time>
      </trkpt>
      <trkpt lat="50.31254" lon="5.09904">
        <ele>250.09970049129</ele>
        <time>2017-03-27T15:05:22Z</time>
      </trkpt>
      <trkpt lat="50.3125" lon="5.09887">
        <ele>249.46599946068</ele>
        <time>2017-03-27T15:05:27Z</time>
      </trkpt>
      <trkpt lat="50.3125" lon="5.09873">
        <ele>249.63200764123</ele>
        <time>2017-03-27T15:05:36Z</time>
      </trkpt>
      <trkpt lat="50.31243" lon="5.09862">
        <ele>249.6833820285</ele>
        <time>2017-03-27T15:05:40Z</time>
      </trkpt>
      <trkpt lat="50.31234" lon="5.09828">
        <ele>250.0942339038</ele>
        <time>2017-03-27T15:05:45Z</time>
      </trkpt>
      <trkpt lat="50.31225" lon="5.09804">
        <ele>249.42045410007</ele>
        <time>2017-03-27T15:05:49Z</time>
      </trkpt>
      <trkpt lat="50.3121" lon="5.09769">
        <ele>244.31568834854</ele>
        <time>2017-03-27T15:05:53Z</time>
      </trkpt>
      <trkpt lat="50.31202" lon="5.09739">
        <ele>243.96337238053</ele>
        <time>2017-03-27T15:05:57Z</time>
      </trkpt>
      <trkpt lat="50.31186" lon="5.09706">
        <ele>246.19579971494</ele>
        <time>2017-03-27T15:06:01Z</time>
      </trkpt>
      <trkpt lat="50.31167" lon="5.09676">
        <ele>246.06617134958</ele>
        <time>2017-03-27T15:06:05Z</time>
      </trkpt>
      <trkpt lat="50.31145" lon="5.09637">
        <ele>248.45926912567</ele>
        <time>2017-03-27T15:06:10Z</time>
      </trkpt>
      <trkpt lat="50.3113" lon="5.09609">
        <ele>251.12930730412</ele>
        <time>2017-03-27T15:06:15Z</time>
      </trkpt>
      <trkpt lat="50.31119" lon="5.09591">
        <ele>251.18302238943</ele>
        <time>2017-03-27T15:06:19Z</time>
      </trkpt>
      <trkpt lat="50.31102" lon="5.09569">
        <ele>249.27685169336</ele>
        <time>2017-03-27T15:06:24Z</time>
      </trkpt>
      <trkpt lat="50.31087" lon="5.09549">
        <ele>250.5737282523</ele>
        <time>2017-03-27T15:06:28Z</time>
      </trkpt>
      <trkpt lat="50.31069" lon="5.09528">
        <ele>252.30944852963</ele>
        <time>2017-03-27T15:06:33Z</time>
      </trkpt>
      <trkpt lat="50.31044" lon="5.09511">
        <ele>253.40670332253</ele>
        <time>2017-03-27T15:06:38Z</time>
      </trkpt>
      <trkpt lat="50.31021" lon="5.09495">
        <ele>254.61143106319</ele>
        <time>2017-03-27T15:06:42Z</time>
      </trkpt>
      <trkpt lat="50.30995" lon="5.09482">
        <ele>251.9571524187</ele>
        <time>2017-03-27T15:06:46Z</time>
      </trkpt>
      <trkpt lat="50.3097" lon="5.09467">
        <ele>241.86799617779</ele>
        <time>2017-03-27T15:06:51Z</time>
      </trkpt>
      <trkpt lat="50.30943" lon="5.09448">
        <ele>232.3400248074</ele>
        <time>2017-03-27T15:06:56Z</time>
      </trkpt>
      <trkpt lat="50.30921" lon="5.09434">
        <ele>228.30666843668</ele>
        <time>2017-03-27T15:07:00Z</time>
      </trkpt>
      <trkpt lat="50.30901" lon="5.09423">
        <ele>230.56886991443</ele>
        <time>2017-03-27T15:07:05Z</time>
      </trkpt>
      <trkpt lat="50.30881" lon="5.09422">
        <ele>232.67606958689</ele>
        <time>2017-03-27T15:07:09Z</time>
      </trkpt>
      <trkpt lat="50.30854" lon="5.09414">
        <ele>229.06288657278</ele>
        <time>2017-03-27T15:07:13Z</time>
      </trkpt>
      <trkpt lat="50.30825" lon="5.09413">
        <ele>226.18366786793</ele>
        <time>2017-03-27T15:07:18Z</time>
      </trkpt>
      <trkpt lat="50.30809" lon="5.09412">
        <ele>227.2708414273</ele>
        <time>2017-03-27T15:07:22Z</time>
      </trkpt>
      <trkpt lat="50.30787" lon="5.09412">
        <ele>229.81126050181</ele>
        <time>2017-03-27T15:07:27Z</time>
      </trkpt>
      <trkpt lat="50.30764" lon="5.09414">
        <ele>229.85126359633</ele>
        <time>2017-03-27T15:07:32Z</time>
      </trkpt>
      <trkpt lat="50.30743" lon="5.09416">
        <ele>225.1436408551</ele>
        <time>2017-03-27T15:07:36Z</time>
      </trkpt>
      <trkpt lat="50.30721" lon="5.09423">
        <ele>224.64595164132</ele>
        <time>2017-03-27T15:07:41Z</time>
      </trkpt>
      <trkpt lat="50.30705" lon="5.09431">
        <ele>225.10081919217</ele>
        <time>2017-03-27T15:07:45Z</time>
      </trkpt>
      <trkpt lat="50.30686" lon="5.09444">
        <ele>227.7291565549</ele>
        <time>2017-03-27T15:07:50Z</time>
      </trkpt>
      <trkpt lat="50.30667" lon="5.09456">
        <ele>234.95073779908</ele>
        <time>2017-03-27T15:07:54Z</time>
      </trkpt>
      <trkpt lat="50.30649" lon="5.0947">
        <ele>244.38448560449</ele>
        <time>2017-03-27T15:07:58Z</time>
      </trkpt>
      <trkpt lat="50.30624" lon="5.09492">
        <ele>254.85074538551</ele>
        <time>2017-03-27T15:08:03Z</time>
      </trkpt>
      <trkpt lat="50.30604" lon="5.09511">
        <ele>259.81883408055</ele>
        <time>2017-03-27T15:08:07Z</time>
      </trkpt>
      <trkpt lat="50.30584" lon="5.09531">
        <ele>264.53201302893</ele>
        <time>2017-03-27T15:08:12Z</time>
      </trkpt>
      <trkpt lat="50.3055" lon="5.09554">
        <ele>263.17725306296</ele>
        <time>2017-03-27T15:08:17Z</time>
      </trkpt>
      <trkpt lat="50.30526" lon="5.09575">
        <ele>258.76243979735</ele>
        <time>2017-03-27T15:08:21Z</time>
      </trkpt>
      <trkpt lat="50.30501" lon="5.09595">
        <ele>259.42518380951</ele>
        <time>2017-03-27T15:08:26Z</time>
      </trkpt>
      <trkpt lat="50.30482" lon="5.0961">
        <ele>256.76086751523</ele>
        <time>2017-03-27T15:08:30Z</time>
      </trkpt>
      <trkpt lat="50.3046" lon="5.09626">
        <ele>253.35323969059</ele>
        <time>2017-03-27T15:08:34Z</time>
      </trkpt>
      <trkpt lat="50.30439" lon="5.09644">
        <ele>251.69921329619</ele>
        <time>2017-03-27T15:08:39Z</time>
      </trkpt>
      <trkpt lat="50.30421" lon="5.09656">
        <ele>250.21017774114</ele>
        <time>2017-03-27T15:08:43Z</time>
      </trkpt>
      <trkpt lat="50.30398" lon="5.0967">
        <ele>247.88040816849</ele>
        <time>2017-03-27T15:08:47Z</time>
      </trkpt>
      <trkpt lat="50.30371" lon="5.09681">
        <ele>248.32760607483</ele>
        <time>2017-03-27T15:08:52Z</time>
      </trkpt>
      <trkpt lat="50.30348" lon="5.09686">
        <ele>247.25582868849</ele>
        <time>2017-03-27T15:08:56Z</time>
      </trkpt>
      <trkpt lat="50.30323" lon="5.09687">
        <ele>241.60019322803</ele>
        <time>2017-03-27T15:09:00Z</time>
      </trkpt>
      <trkpt lat="50.30294" lon="5.09689">
        <ele>238.16619981503</ele>
        <time>2017-03-27T15:09:05Z</time>
      </trkpt>
      <trkpt lat="50.30278" lon="5.0969">
        <ele>237.38261608003</ele>
        <time>2017-03-27T15:09:09Z</time>
      </trkpt>
      <trkpt lat="50.30267" lon="5.09686">
        <ele>237.10500480939</ele>
        <time>2017-03-27T15:09:14Z</time>
      </trkpt>
      <trkpt lat="50.30264" lon="5.09693">
        <ele>236.7260629007</ele>
        <time>2017-03-27T15:09:19Z</time>
      </trkpt>
      <trkpt lat="50.30256" lon="5.09727">
        <ele>235.19518240677</ele>
        <time>2017-03-27T15:09:23Z</time>
      </trkpt>
      <trkpt lat="50.30239" lon="5.09788">
        <ele>238.36500950929</ele>
        <time>2017-03-27T15:09:28Z</time>
      </trkpt>
      <trkpt lat="50.30227" lon="5.09832">
        <ele>240.95684314652</ele>
        <time>2017-03-27T15:09:32Z</time>
      </trkpt>
      <trkpt lat="50.30214" lon="5.09879">
        <ele>243.16460233394</ele>
        <time>2017-03-27T15:09:37Z</time>
      </trkpt>
      <trkpt lat="50.30209" lon="5.09918">
        <ele>242.08459260301</ele>
        <time>2017-03-27T15:09:42Z</time>
      </trkpt>
      <trkpt lat="50.30206" lon="5.09947">
        <ele>242.46781044847</ele>
        <time>2017-03-27T15:09:46Z</time>
      </trkpt>
      <trkpt lat="50.302" lon="5.09991">
        <ele>244.79239804028</ele>
        <time>2017-03-27T15:09:51Z</time>
      </trkpt>
      <trkpt lat="50.30188" lon="5.10012">
        <ele>246.22733635423</ele>
        <time>2017-03-27T15:09:55Z</time>
      </trkpt>
      <trkpt lat="50.30169" lon="5.10025">
        <ele>246.51363645999</ele>
        <time>2017-03-27T15:09:59Z</time>
      </trkpt>
      <trkpt lat="50.30141" lon="5.10042">
        <ele>243.65768665694</ele>
        <time>2017-03-27T15:10:04Z</time>
      </trkpt>
      <trkpt lat="50.3012" lon="5.10054">
        <ele>239.54602653293</ele>
        <time>2017-03-27T15:10:08Z</time>
      </trkpt>
      <trkpt lat="50.30103" lon="5.10064">
        <ele>238.15310928838</ele>
        <time>2017-03-27T15:10:12Z</time>
      </trkpt>
      <trkpt lat="50.30089" lon="5.10074">
        <ele>240.1607095319</ele>
        <time>2017-03-27T15:10:16Z</time>
      </trkpt>
      <trkpt lat="50.30073" lon="5.10086">
        <ele>240.82287213937</ele>
        <time>2017-03-27T15:10:21Z</time>
      </trkpt>
      <trkpt lat="50.30051" lon="5.10095">
        <ele>231.72336695097</ele>
        <time>2017-03-27T15:10:26Z</time>
      </trkpt>
      <trkpt lat="50.30034" lon="5.10103">
        <ele>225.6490831648</ele>
        <time>2017-03-27T15:10:30Z</time>
      </trkpt>
      <trkpt lat="50.30016" lon="5.1011">
        <ele>227.09867347491</ele>
        <time>2017-03-27T15:10:34Z</time>
      </trkpt>
      <trkpt lat="50.29999" lon="5.10116">
        <ele>229.91397499519</ele>
        <time>2017-03-27T15:10:38Z</time>
      </trkpt>
      <trkpt lat="50.29976" lon="5.10119">
        <ele>232.74344924206</ele>
        <time>2017-03-27T15:10:43Z</time>
      </trkpt>
      <trkpt lat="50.29959" lon="5.10119">
        <ele>235.36285059962</ele>
        <time>2017-03-27T15:10:47Z</time>
      </trkpt>
      <trkpt lat="50.29943" lon="5.10118">
        <ele>235.67768770895</ele>
        <time>2017-03-27T15:10:51Z</time>
      </trkpt>
      <trkpt lat="50.29926" lon="5.10115">
        <ele>235.68496577363</ele>
        <time>2017-03-27T15:10:55Z</time>
      </trkpt>
      <trkpt lat="50.29909" lon="5.10115">
        <ele>235.37607197235</ele>
        <time>2017-03-27T15:10:59Z</time>
      </trkpt>
      <trkpt lat="50.29895" lon="5.10109">
        <ele>234.78222565924</ele>
        <time>2017-03-27T15:11:04Z</time>
      </trkpt>
      <trkpt lat="50.29881" lon="5.10109">
        <ele>234.66146603085</ele>
        <time>2017-03-27T15:11:08Z</time>
      </trkpt>
      <trkpt lat="50.29863" lon="5.10113">
        <ele>233.99674724403</ele>
        <time>2017-03-27T15:11:13Z</time>
      </trkpt>
      <trkpt lat="50.29846" lon="5.10115">
        <ele>236.55624466304</ele>
        <time>2017-03-27T15:11:17Z</time>
      </trkpt>
      <trkpt lat="50.29829" lon="5.10114">
        <ele>237.46901719209</ele>
        <time>2017-03-27T15:11:21Z</time>
      </trkpt>
      <trkpt lat="50.29811" lon="5.10115">
        <ele>239.16189170963</ele>
        <time>2017-03-27T15:11:25Z</time>
      </trkpt>
      <trkpt lat="50.29793" lon="5.10117">
        <ele>241.43596124325</ele>
        <time>2017-03-27T15:11:29Z</time>
      </trkpt>
      <trkpt lat="50.29774" lon="5.10119">
        <ele>241.62412425124</ele>
        <time>2017-03-27T15:11:34Z</time>
      </trkpt>
      <trkpt lat="50.29767" lon="5.10127">
        <ele>241.9419630147</ele>
        <time>2017-03-27T15:11:38Z</time>
      </trkpt>
      <trkpt lat="50.29752" lon="5.10138">
        <ele>250.33458506452</ele>
        <time>2017-03-27T15:11:42Z</time>
      </trkpt>
      <trkpt lat="50.29736" lon="5.10152">
        <ele>257.73792523855</ele>
        <time>2017-03-27T15:11:46Z</time>
      </trkpt>
      <trkpt lat="50.29719" lon="5.10172">
        <ele>261.35973258374</ele>
        <time>2017-03-27T15:11:51Z</time>
      </trkpt>
      <trkpt lat="50.29708" lon="5.10182">
        <ele>262.14487586346</ele>
        <time>2017-03-27T15:11:55Z</time>
      </trkpt>
      <trkpt lat="50.29707" lon="5.10184">
        <ele>264.56582902334</ele>
        <time>2017-03-27T15:12:33Z</time>
      </trkpt>
      <trkpt lat="50.29689" lon="5.10189">
        <ele>266.12769238457</ele>
        <time>2017-03-27T15:12:37Z</time>
      </trkpt>
      <trkpt lat="50.29674" lon="5.10168">
        <ele>270.39601219962</ele>
        <time>2017-03-27T15:12:41Z</time>
      </trkpt>
      <trkpt lat="50.29661" lon="5.10143">
        <ele>272.60280873801</ele>
        <time>2017-03-27T15:12:46Z</time>
      </trkpt>
      <trkpt lat="50.29654" lon="5.10132">
        <ele>273.55955437692</ele>
        <time>2017-03-27T15:12:50Z</time>
      </trkpt>
      <trkpt lat="50.2963" lon="5.10103">
        <ele>271.58903296975</ele>
        <time>2017-03-27T15:12:55Z</time>
      </trkpt>
      <trkpt lat="50.2962" lon="5.10077">
        <ele>270.28371623959</ele>
        <time>2017-03-27T15:12:59Z</time>
      </trkpt>
      <trkpt lat="50.29614" lon="5.1006">
        <ele>269.42722005703</ele>
        <time>2017-03-27T15:13:03Z</time>
      </trkpt>
      <trkpt lat="50.29603" lon="5.10045">
        <ele>263.71444453037</ele>
        <time>2017-03-27T15:13:07Z</time>
      </trkpt>
      <trkpt lat="50.29589" lon="5.10024">
        <ele>262.37075907131</ele>
        <time>2017-03-27T15:13:11Z</time>
      </trkpt>
      <trkpt lat="50.29568" lon="5.10006">
        <ele>266.53937548853</ele>
        <time>2017-03-27T15:13:16Z</time>
      </trkpt>
      <trkpt lat="50.29548" lon="5.09997">
        <ele>266.56190399588</ele>
        <time>2017-03-27T15:13:20Z</time>
      </trkpt>
      <trkpt lat="50.29527" lon="5.09992">
        <ele>267.00212395507</ele>
        <time>2017-03-27T15:13:24Z</time>
      </trkpt>
      <trkpt lat="50.29507" lon="5.09976">
        <ele>264.523810999</ele>
        <time>2017-03-27T15:13:28Z</time>
      </trkpt>
      <trkpt lat="50.29487" lon="5.0996">
        <ele>264.79269296228</ele>
        <time>2017-03-27T15:13:33Z</time>
      </trkpt>
      <trkpt lat="50.29465" lon="5.09942">
        <ele>264.50422335209</ele>
        <time>2017-03-27T15:13:38Z</time>
      </trkpt>
      <trkpt lat="50.29448" lon="5.09928">
        <ele>267.62234410976</ele>
        <time>2017-03-27T15:13:42Z</time>
      </trkpt>
      <trkpt lat="50.29425" lon="5.0991">
        <ele>270.71634798001</ele>
        <time>2017-03-27T15:13:47Z</time>
      </trkpt>
      <trkpt lat="50.29409" lon="5.09894">
        <ele>268.555774564</ele>
        <time>2017-03-27T15:13:51Z</time>
      </trkpt>
      <trkpt lat="50.29393" lon="5.0988">
        <ele>262.5545738647</ele>
        <time>2017-03-27T15:13:55Z</time>
      </trkpt>
      <trkpt lat="50.2938" lon="5.09863">
        <ele>261.40006862495</ele>
        <time>2017-03-27T15:13:59Z</time>
      </trkpt>
      <trkpt lat="50.29361" lon="5.09835">
        <ele>266.50565595759</ele>
        <time>2017-03-27T15:14:04Z</time>
      </trkpt>
      <trkpt lat="50.29346" lon="5.09812">
        <ele>271.95602068459</ele>
        <time>2017-03-27T15:14:08Z</time>
      </trkpt>
      <trkpt lat="50.29323" lon="5.09775">
        <ele>274.74722134409</ele>
        <time>2017-03-27T15:14:13Z</time>
      </trkpt>
      <trkpt lat="50.29305" lon="5.09751">
        <ele>272.81157130664</ele>
        <time>2017-03-27T15:14:17Z</time>
      </trkpt>
      <trkpt lat="50.29282" lon="5.09718">
        <ele>269.54573141333</ele>
        <time>2017-03-27T15:14:22Z</time>
      </trkpt>
      <trkpt lat="50.29266" lon="5.09685">
        <ele>262.72232145404</ele>
        <time>2017-03-27T15:14:27Z</time>
      </trkpt>
      <trkpt lat="50.29265" lon="5.09669">
        <ele>261.99401985317</ele>
        <time>2017-03-27T15:14:31Z</time>
      </trkpt>
      <trkpt lat="50.2927" lon="5.09661">
        <ele>261.79065580191</ele>
        <time>2017-03-27T15:14:35Z</time>
      </trkpt>
      <trkpt lat="50.29284" lon="5.09642">
        <ele>262.39702257731</ele>
        <time>2017-03-27T15:14:40Z</time>
      </trkpt>
      <trkpt lat="50.29292" lon="5.09622">
        <ele>262.97643116933</ele>
        <time>2017-03-27T15:14:44Z</time>
      </trkpt>
      <trkpt lat="50.29308" lon="5.09583">
        <ele>263.17724516378</ele>
        <time>2017-03-27T15:14:49Z</time>
      </trkpt>
      <trkpt lat="50.29332" lon="5.09545">
        <ele>266.16491707625</ele>
        <time>2017-03-27T15:14:54Z</time>
      </trkpt>
      <trkpt lat="50.29345" lon="5.0952">
        <ele>265.45790585255</ele>
        <time>2017-03-27T15:14:59Z</time>
      </trkpt>
      <trkpt lat="50.29352" lon="5.09501">
        <ele>264.74628339282</ele>
        <time>2017-03-27T15:15:03Z</time>
      </trkpt>
      <trkpt lat="50.29368" lon="5.09503">
        <ele>264.04388872226</ele>
        <time>2017-03-27T15:15:08Z</time>
      </trkpt>
      <trkpt lat="50.29378" lon="5.09512">
        <ele>263.27875832454</ele>
        <time>2017-03-27T15:15:12Z</time>
      </trkpt>
      <trkpt lat="50.29388" lon="5.0952">
        <ele>262.75811143497</ele>
        <time>2017-03-27T15:15:16Z</time>
      </trkpt>
      <trkpt lat="50.29402" lon="5.09536">
        <ele>262.15695124204</ele>
        <time>2017-03-27T15:15:21Z</time>
      </trkpt>
      <trkpt lat="50.29403" lon="5.09556">
        <ele>261.78657946631</ele>
        <time>2017-03-27T15:15:25Z</time>
      </trkpt>
      <trkpt lat="50.29398" lon="5.09568">
        <ele>261.45344299</ele>
        <time>2017-03-27T15:15:31Z</time>
      </trkpt>
      <trkpt lat="50.29405" lon="5.09564">
        <ele>261.65146510521</ele>
        <time>2017-03-27T15:15:49Z</time>
      </trkpt>
      <trkpt lat="50.2941" lon="5.09567">
        <ele>258.98201346757</ele>
        <time>2017-03-27T15:16:05Z</time>
      </trkpt>
      <trkpt lat="50.2941" lon="5.09567">
        <ele>258.98201346757</ele>
        <time>2017-03-27T15:16:05Z</time>
      </trkpt>
    </trkseg>
  </trk>
</gpx>